<?xml version="1.0" encoding="UTF-8" standalone="no" ?>
<gpx xmlns="http://www.topografix.com/GPX/1/1" xmlns:xsi="http://www.w3.org/2001/XMLSchema-instance" xsi:schemaLocation="http://www.topografix.com/GPX/1/1 http://www.topografix.com/GPX/1/1/gpx.xsd" version="1.1" creator="VisuGPX - https://www.visugpx.com">
  <metadata>
    <name>Puyloubier - Puits d'Auzon</name>
    <desc><![CDATA[Pistes larges et roulantes à l'Est, passage par une piste en fond de vallon peu empruntée et pas très nette sur les cartes IGN mais praticable: à découvrir. A l'ouest passage par la "Citadelle": joli point de vue mais piste difficile et pas agréable en VTT.]]></desc>
  </metadata>
  <trk>
    <name><![CDATA[20180930191541-Yl1vW]]></name>
    <trkseg>
      <trkpt lat="43.52768" lon="5.69171">
        <ele>347.85</ele>
        <time>2018-09-30T06:09:38Z</time>
      </trkpt>
      <trkpt lat="43.5288" lon="5.69258">
        <ele>359.47</ele>
        <time>2018-09-30T06:10:57Z</time>
      </trkpt>
      <trkpt lat="43.5288" lon="5.69288">
        <ele>367.1</ele>
        <time>2018-09-30T06:11:09Z</time>
      </trkpt>
      <trkpt lat="43.52881" lon="5.69315">
        <ele>371.46</ele>
        <time>2018-09-30T06:11:23Z</time>
      </trkpt>
      <trkpt lat="43.52881" lon="5.69341">
        <ele>375.46</ele>
        <time>2018-09-30T06:11:32Z</time>
      </trkpt>
      <trkpt lat="43.52885" lon="5.69367">
        <ele>374.29</ele>
        <time>2018-09-30T06:11:45Z</time>
      </trkpt>
      <trkpt lat="43.52896" lon="5.69387">
        <ele>374.1</ele>
        <time>2018-09-30T06:11:55Z</time>
      </trkpt>
      <trkpt lat="43.52897" lon="5.69413">
        <ele>377.82</ele>
        <time>2018-09-30T06:12:06Z</time>
      </trkpt>
      <trkpt lat="43.52905" lon="5.69436">
        <ele>381.47</ele>
        <time>2018-09-30T06:12:18Z</time>
      </trkpt>
      <trkpt lat="43.52918" lon="5.69455">
        <ele>384.72</ele>
        <time>2018-09-30T06:12:33Z</time>
      </trkpt>
      <trkpt lat="43.52936" lon="5.69462">
        <ele>383.82</ele>
        <time>2018-09-30T06:12:42Z</time>
      </trkpt>
      <trkpt lat="43.52955" lon="5.69474">
        <ele>386.66</ele>
        <time>2018-09-30T06:12:55Z</time>
      </trkpt>
      <trkpt lat="43.52972" lon="5.69463">
        <ele>390.76</ele>
        <time>2018-09-30T06:13:11Z</time>
      </trkpt>
      <trkpt lat="43.5299" lon="5.69443">
        <ele>387.84</ele>
        <time>2018-09-30T06:13:55Z</time>
      </trkpt>
      <trkpt lat="43.53007" lon="5.69434">
        <ele>385.68</ele>
        <time>2018-09-30T06:13:58Z</time>
      </trkpt>
      <trkpt lat="43.53027" lon="5.69434">
        <ele>385.77</ele>
        <time>2018-09-30T06:14:04Z</time>
      </trkpt>
      <trkpt lat="43.53049" lon="5.69441">
        <ele>394.81</ele>
        <time>2018-09-30T06:14:14Z</time>
      </trkpt>
      <trkpt lat="43.53049" lon="5.69466">
        <ele>403</ele>
        <time>2018-09-30T06:14:24Z</time>
      </trkpt>
      <trkpt lat="43.53048" lon="5.69494">
        <ele>405.19</ele>
        <time>2018-09-30T06:14:39Z</time>
      </trkpt>
      <trkpt lat="43.53056" lon="5.69518">
        <ele>410.05</ele>
        <time>2018-09-30T06:14:54Z</time>
      </trkpt>
      <trkpt lat="43.53061" lon="5.69543">
        <ele>410.29</ele>
        <time>2018-09-30T06:15:06Z</time>
      </trkpt>
      <trkpt lat="43.53064" lon="5.69568">
        <ele>409.49</ele>
        <time>2018-09-30T06:15:16Z</time>
      </trkpt>
      <trkpt lat="43.53068" lon="5.69594">
        <ele>414.92</ele>
        <time>2018-09-30T06:15:31Z</time>
      </trkpt>
      <trkpt lat="43.53074" lon="5.6962">
        <ele>414.11</ele>
        <time>2018-09-30T06:15:45Z</time>
      </trkpt>
      <trkpt lat="43.53079" lon="5.69645">
        <ele>418.94</ele>
        <time>2018-09-30T06:15:55Z</time>
      </trkpt>
      <trkpt lat="43.5308" lon="5.6967">
        <ele>419.1</ele>
        <time>2018-09-30T06:16:07Z</time>
      </trkpt>
      <trkpt lat="43.53084" lon="5.69697">
        <ele>418.43</ele>
        <time>2018-09-30T06:16:20Z</time>
      </trkpt>
      <trkpt lat="43.53095" lon="5.69719">
        <ele>422.18</ele>
        <time>2018-09-30T06:16:33Z</time>
      </trkpt>
      <trkpt lat="43.53113" lon="5.69728">
        <ele>423.8</ele>
        <time>2018-09-30T06:16:44Z</time>
      </trkpt>
      <trkpt lat="43.53131" lon="5.69736">
        <ele>426.41</ele>
        <time>2018-09-30T06:16:59Z</time>
      </trkpt>
      <trkpt lat="43.53152" lon="5.69742">
        <ele>426.95</ele>
        <time>2018-09-30T06:17:16Z</time>
      </trkpt>
      <trkpt lat="43.53168" lon="5.69753">
        <ele>427.53</ele>
        <time>2018-09-30T06:17:24Z</time>
      </trkpt>
      <trkpt lat="43.53165" lon="5.69778">
        <ele>427.33</ele>
        <time>2018-09-30T06:17:36Z</time>
      </trkpt>
      <trkpt lat="43.53152" lon="5.69794">
        <ele>428.37</ele>
        <time>2018-09-30T06:17:45Z</time>
      </trkpt>
      <trkpt lat="43.5314" lon="5.69814">
        <ele>431.42</ele>
        <time>2018-09-30T06:17:56Z</time>
      </trkpt>
      <trkpt lat="43.53144" lon="5.69841">
        <ele>432.55</ele>
        <time>2018-09-30T06:18:07Z</time>
      </trkpt>
      <trkpt lat="43.53151" lon="5.69864">
        <ele>435.74</ele>
        <time>2018-09-30T06:18:18Z</time>
      </trkpt>
      <trkpt lat="43.53163" lon="5.69883">
        <ele>438.31</ele>
        <time>2018-09-30T06:18:30Z</time>
      </trkpt>
      <trkpt lat="43.53179" lon="5.69897">
        <ele>438.53</ele>
        <time>2018-09-30T06:18:40Z</time>
      </trkpt>
      <trkpt lat="43.53196" lon="5.69909">
        <ele>439.43</ele>
        <time>2018-09-30T06:18:54Z</time>
      </trkpt>
      <trkpt lat="43.53215" lon="5.69916">
        <ele>441.5</ele>
        <time>2018-09-30T06:19:06Z</time>
      </trkpt>
      <trkpt lat="43.53224" lon="5.69939">
        <ele>446</ele>
        <time>2018-09-30T06:19:16Z</time>
      </trkpt>
      <trkpt lat="43.53218" lon="5.69963">
        <ele>443.79</ele>
        <time>2018-09-30T06:19:29Z</time>
      </trkpt>
      <trkpt lat="43.53202" lon="5.6998">
        <ele>443.54</ele>
        <time>2018-09-30T06:19:43Z</time>
      </trkpt>
      <trkpt lat="43.53193" lon="5.70004">
        <ele>442.12</ele>
        <time>2018-09-30T06:19:53Z</time>
      </trkpt>
      <trkpt lat="43.53198" lon="5.7003">
        <ele>443.78</ele>
        <time>2018-09-30T06:20:06Z</time>
      </trkpt>
      <trkpt lat="43.53201" lon="5.70055">
        <ele>447.67</ele>
        <time>2018-09-30T06:20:18Z</time>
      </trkpt>
      <trkpt lat="43.53201" lon="5.70082">
        <ele>447.93</ele>
        <time>2018-09-30T06:20:31Z</time>
      </trkpt>
      <trkpt lat="43.53207" lon="5.70106">
        <ele>450.21</ele>
        <time>2018-09-30T06:20:42Z</time>
      </trkpt>
      <trkpt lat="43.53211" lon="5.70132">
        <ele>451.39</ele>
        <time>2018-09-30T06:20:56Z</time>
      </trkpt>
      <trkpt lat="43.53216" lon="5.70156">
        <ele>452.35</ele>
        <time>2018-09-30T06:21:07Z</time>
      </trkpt>
      <trkpt lat="43.53219" lon="5.70184">
        <ele>456.52</ele>
        <time>2018-09-30T06:21:17Z</time>
      </trkpt>
      <trkpt lat="43.53226" lon="5.70208">
        <ele>462.11</ele>
        <time>2018-09-30T06:21:28Z</time>
      </trkpt>
      <trkpt lat="43.53236" lon="5.7023">
        <ele>462.19</ele>
        <time>2018-09-30T06:21:40Z</time>
      </trkpt>
      <trkpt lat="43.53253" lon="5.70241">
        <ele>464.42</ele>
        <time>2018-09-30T06:21:51Z</time>
      </trkpt>
      <trkpt lat="43.53263" lon="5.70262">
        <ele>465.75</ele>
        <time>2018-09-30T06:22:04Z</time>
      </trkpt>
      <trkpt lat="43.53264" lon="5.70287">
        <ele>466.85</ele>
        <time>2018-09-30T06:22:12Z</time>
      </trkpt>
      <trkpt lat="43.53266" lon="5.70313">
        <ele>467.96</ele>
        <time>2018-09-30T06:22:23Z</time>
      </trkpt>
      <trkpt lat="43.53271" lon="5.70341">
        <ele>467.39</ele>
        <time>2018-09-30T06:22:32Z</time>
      </trkpt>
      <trkpt lat="43.53268" lon="5.70367">
        <ele>469.65</ele>
        <time>2018-09-30T06:22:41Z</time>
      </trkpt>
      <trkpt lat="43.53278" lon="5.70389">
        <ele>471.71</ele>
        <time>2018-09-30T06:22:50Z</time>
      </trkpt>
      <trkpt lat="43.53288" lon="5.7041">
        <ele>474.81</ele>
        <time>2018-09-30T06:22:58Z</time>
      </trkpt>
      <trkpt lat="43.53291" lon="5.70436">
        <ele>472.51</ele>
        <time>2018-09-30T06:23:07Z</time>
      </trkpt>
      <trkpt lat="43.53301" lon="5.7046">
        <ele>473.92</ele>
        <time>2018-09-30T06:23:15Z</time>
      </trkpt>
      <trkpt lat="43.53308" lon="5.70483">
        <ele>474.12</ele>
        <time>2018-09-30T06:23:23Z</time>
      </trkpt>
      <trkpt lat="43.53319" lon="5.70509">
        <ele>475.85</ele>
        <time>2018-09-30T06:23:30Z</time>
      </trkpt>
      <trkpt lat="43.5333" lon="5.70533">
        <ele>477.04</ele>
        <time>2018-09-30T06:23:37Z</time>
      </trkpt>
      <trkpt lat="43.53338" lon="5.70557">
        <ele>475.9</ele>
        <time>2018-09-30T06:23:43Z</time>
      </trkpt>
      <trkpt lat="43.53348" lon="5.70579">
        <ele>477.82</ele>
        <time>2018-09-30T06:23:49Z</time>
      </trkpt>
      <trkpt lat="43.5336" lon="5.70602">
        <ele>475.92</ele>
        <time>2018-09-30T06:23:56Z</time>
      </trkpt>
      <trkpt lat="43.53371" lon="5.70622">
        <ele>474.23</ele>
        <time>2018-09-30T06:24:02Z</time>
      </trkpt>
      <trkpt lat="43.53378" lon="5.70645">
        <ele>472.21</ele>
        <time>2018-09-30T06:24:08Z</time>
      </trkpt>
      <trkpt lat="43.53387" lon="5.70669">
        <ele>472.94</ele>
        <time>2018-09-30T06:24:14Z</time>
      </trkpt>
      <trkpt lat="43.53397" lon="5.70693">
        <ele>475.13</ele>
        <time>2018-09-30T06:24:20Z</time>
      </trkpt>
      <trkpt lat="43.53406" lon="5.70718">
        <ele>476.24</ele>
        <time>2018-09-30T06:24:26Z</time>
      </trkpt>
      <trkpt lat="43.53416" lon="5.7074">
        <ele>474.04</ele>
        <time>2018-09-30T06:24:32Z</time>
      </trkpt>
      <trkpt lat="43.53429" lon="5.70759">
        <ele>474.59</ele>
        <time>2018-09-30T06:24:38Z</time>
      </trkpt>
      <trkpt lat="43.53436" lon="5.70785">
        <ele>477.26</ele>
        <time>2018-09-30T06:24:44Z</time>
      </trkpt>
      <trkpt lat="43.53445" lon="5.70808">
        <ele>476.99</ele>
        <time>2018-09-30T06:24:51Z</time>
      </trkpt>
      <trkpt lat="43.53453" lon="5.70834">
        <ele>474.52</ele>
        <time>2018-09-30T06:24:58Z</time>
      </trkpt>
      <trkpt lat="43.53462" lon="5.70858">
        <ele>474.58</ele>
        <time>2018-09-30T06:25:05Z</time>
      </trkpt>
      <trkpt lat="43.5347" lon="5.70884">
        <ele>474.83</ele>
        <time>2018-09-30T06:25:12Z</time>
      </trkpt>
      <trkpt lat="43.5348" lon="5.70909">
        <ele>471.32</ele>
        <time>2018-09-30T06:25:19Z</time>
      </trkpt>
      <trkpt lat="43.53486" lon="5.70933">
        <ele>470.64</ele>
        <time>2018-09-30T06:25:26Z</time>
      </trkpt>
      <trkpt lat="43.53495" lon="5.70956">
        <ele>469.95</ele>
        <time>2018-09-30T06:25:33Z</time>
      </trkpt>
      <trkpt lat="43.53504" lon="5.70979">
        <ele>470.55</ele>
        <time>2018-09-30T06:25:40Z</time>
      </trkpt>
      <trkpt lat="43.53514" lon="5.71001">
        <ele>470.56</ele>
        <time>2018-09-30T06:25:46Z</time>
      </trkpt>
      <trkpt lat="43.53523" lon="5.71028">
        <ele>471.04</ele>
        <time>2018-09-30T06:25:54Z</time>
      </trkpt>
      <trkpt lat="43.53531" lon="5.71051">
        <ele>470.44</ele>
        <time>2018-09-30T06:26:01Z</time>
      </trkpt>
      <trkpt lat="43.5354" lon="5.71078">
        <ele>473.39</ele>
        <time>2018-09-30T06:26:08Z</time>
      </trkpt>
      <trkpt lat="43.53547" lon="5.71104">
        <ele>471.83</ele>
        <time>2018-09-30T06:26:15Z</time>
      </trkpt>
      <trkpt lat="43.53555" lon="5.71127">
        <ele>471.04</ele>
        <time>2018-09-30T06:26:23Z</time>
      </trkpt>
      <trkpt lat="43.53563" lon="5.71149">
        <ele>474.53</ele>
        <time>2018-09-30T06:26:29Z</time>
      </trkpt>
      <trkpt lat="43.53579" lon="5.71166">
        <ele>473.83</ele>
        <time>2018-09-30T06:26:36Z</time>
      </trkpt>
      <trkpt lat="43.53591" lon="5.71189">
        <ele>474.54</ele>
        <time>2018-09-30T06:26:43Z</time>
      </trkpt>
      <trkpt lat="43.5361" lon="5.71205">
        <ele>474.36</ele>
        <time>2018-09-30T06:26:49Z</time>
      </trkpt>
      <trkpt lat="43.53619" lon="5.71228">
        <ele>473.6</ele>
        <time>2018-09-30T06:26:55Z</time>
      </trkpt>
      <trkpt lat="43.53631" lon="5.71247">
        <ele>475.14</ele>
        <time>2018-09-30T06:27:03Z</time>
      </trkpt>
      <trkpt lat="43.53639" lon="5.71271">
        <ele>473.68</ele>
        <time>2018-09-30T06:27:11Z</time>
      </trkpt>
      <trkpt lat="43.53652" lon="5.71289">
        <ele>474.03</ele>
        <time>2018-09-30T06:27:18Z</time>
      </trkpt>
      <trkpt lat="43.53665" lon="5.71309">
        <ele>475.73</ele>
        <time>2018-09-30T06:27:26Z</time>
      </trkpt>
      <trkpt lat="43.53679" lon="5.71326">
        <ele>477.04</ele>
        <time>2018-09-30T06:27:32Z</time>
      </trkpt>
      <trkpt lat="43.53688" lon="5.71353">
        <ele>476.36</ele>
        <time>2018-09-30T06:27:40Z</time>
      </trkpt>
      <trkpt lat="43.53701" lon="5.7137">
        <ele>475.29</ele>
        <time>2018-09-30T06:27:46Z</time>
      </trkpt>
      <trkpt lat="43.53714" lon="5.71389">
        <ele>477.21</ele>
        <time>2018-09-30T06:27:52Z</time>
      </trkpt>
      <trkpt lat="43.53726" lon="5.71409">
        <ele>477.68</ele>
        <time>2018-09-30T06:27:59Z</time>
      </trkpt>
      <trkpt lat="43.53743" lon="5.71426">
        <ele>478.53</ele>
        <time>2018-09-30T06:28:04Z</time>
      </trkpt>
      <trkpt lat="43.53758" lon="5.71442">
        <ele>480.1</ele>
        <time>2018-09-30T06:28:16Z</time>
      </trkpt>
      <trkpt lat="43.53755" lon="5.71468">
        <ele>480.24</ele>
        <time>2018-09-30T06:28:26Z</time>
      </trkpt>
      <trkpt lat="43.53755" lon="5.71498">
        <ele>480.12</ele>
        <time>2018-09-30T06:28:34Z</time>
      </trkpt>
      <trkpt lat="43.5372" lon="5.71547">
        <ele>484.73</ele>
        <time>2018-09-30T06:28:53Z</time>
      </trkpt>
      <trkpt lat="43.53727" lon="5.71572">
        <ele>489.08</ele>
        <time>2018-09-30T06:29:04Z</time>
      </trkpt>
      <trkpt lat="43.53745" lon="5.71573">
        <ele>489.43</ele>
        <time>2018-09-30T06:29:11Z</time>
      </trkpt>
      <trkpt lat="43.53762" lon="5.71563">
        <ele>488.44</ele>
        <time>2018-09-30T06:29:18Z</time>
      </trkpt>
      <trkpt lat="43.53781" lon="5.71562">
        <ele>490.98</ele>
        <time>2018-09-30T06:29:26Z</time>
      </trkpt>
      <trkpt lat="43.538" lon="5.71565">
        <ele>491.79</ele>
        <time>2018-09-30T06:29:34Z</time>
      </trkpt>
      <trkpt lat="43.53817" lon="5.71553">
        <ele>489.13</ele>
        <time>2018-09-30T06:29:46Z</time>
      </trkpt>
      <trkpt lat="43.53839" lon="5.71545">
        <ele>492.38</ele>
        <time>2018-09-30T06:29:56Z</time>
      </trkpt>
      <trkpt lat="43.53859" lon="5.7155">
        <ele>493.23</ele>
        <time>2018-09-30T06:30:04Z</time>
      </trkpt>
      <trkpt lat="43.53877" lon="5.71546">
        <ele>491.8</ele>
        <time>2018-09-30T06:30:12Z</time>
      </trkpt>
      <trkpt lat="43.53896" lon="5.71538">
        <ele>493.79</ele>
        <time>2018-09-30T06:30:23Z</time>
      </trkpt>
      <trkpt lat="43.53914" lon="5.71536">
        <ele>493.44</ele>
        <time>2018-09-30T06:30:33Z</time>
      </trkpt>
      <trkpt lat="43.53933" lon="5.71536">
        <ele>497.57</ele>
        <time>2018-09-30T06:30:41Z</time>
      </trkpt>
      <trkpt lat="43.53953" lon="5.71535">
        <ele>502.94</ele>
        <time>2018-09-30T06:30:51Z</time>
      </trkpt>
      <trkpt lat="43.53974" lon="5.71532">
        <ele>505.64</ele>
        <time>2018-09-30T06:31:08Z</time>
      </trkpt>
      <trkpt lat="43.53991" lon="5.71526">
        <ele>507.24</ele>
        <time>2018-09-30T06:31:14Z</time>
      </trkpt>
      <trkpt lat="43.54006" lon="5.71512">
        <ele>507.68</ele>
        <time>2018-09-30T06:31:21Z</time>
      </trkpt>
      <trkpt lat="43.54023" lon="5.71502">
        <ele>508.88</ele>
        <time>2018-09-30T06:31:26Z</time>
      </trkpt>
      <trkpt lat="43.54039" lon="5.71482">
        <ele>509.3</ele>
        <time>2018-09-30T06:31:35Z</time>
      </trkpt>
      <trkpt lat="43.54055" lon="5.71468">
        <ele>509.12</ele>
        <time>2018-09-30T06:31:43Z</time>
      </trkpt>
      <trkpt lat="43.54067" lon="5.71449">
        <ele>509.7</ele>
        <time>2018-09-30T06:31:48Z</time>
      </trkpt>
      <trkpt lat="43.54082" lon="5.71433">
        <ele>509.11</ele>
        <time>2018-09-30T06:31:53Z</time>
      </trkpt>
      <trkpt lat="43.54097" lon="5.71415">
        <ele>508.79</ele>
        <time>2018-09-30T06:31:58Z</time>
      </trkpt>
      <trkpt lat="43.54116" lon="5.71399">
        <ele>507.97</ele>
        <time>2018-09-30T06:32:01Z</time>
      </trkpt>
      <trkpt lat="43.54131" lon="5.7138">
        <ele>507.9</ele>
        <time>2018-09-30T06:32:05Z</time>
      </trkpt>
      <trkpt lat="43.54147" lon="5.7136">
        <ele>507.4</ele>
        <time>2018-09-30T06:32:09Z</time>
      </trkpt>
      <trkpt lat="43.54161" lon="5.7134">
        <ele>506.09</ele>
        <time>2018-09-30T06:32:12Z</time>
      </trkpt>
      <trkpt lat="43.54178" lon="5.71314">
        <ele>505.43</ele>
        <time>2018-09-30T06:32:16Z</time>
      </trkpt>
      <trkpt lat="43.54187" lon="5.7129">
        <ele>502.95</ele>
        <time>2018-09-30T06:32:19Z</time>
      </trkpt>
      <trkpt lat="43.54202" lon="5.71268">
        <ele>501.4</ele>
        <time>2018-09-30T06:32:22Z</time>
      </trkpt>
      <trkpt lat="43.54218" lon="5.71242">
        <ele>500.91</ele>
        <time>2018-09-30T06:32:25Z</time>
      </trkpt>
      <trkpt lat="43.54232" lon="5.71219">
        <ele>500.63</ele>
        <time>2018-09-30T06:32:28Z</time>
      </trkpt>
      <trkpt lat="43.5425" lon="5.71193">
        <ele>500.85</ele>
        <time>2018-09-30T06:32:31Z</time>
      </trkpt>
      <trkpt lat="43.54266" lon="5.71169">
        <ele>500.5</ele>
        <time>2018-09-30T06:32:34Z</time>
      </trkpt>
      <trkpt lat="43.54282" lon="5.71147">
        <ele>502.27</ele>
        <time>2018-09-30T06:32:37Z</time>
      </trkpt>
      <trkpt lat="43.54295" lon="5.71122">
        <ele>501.05</ele>
        <time>2018-09-30T06:32:40Z</time>
      </trkpt>
      <trkpt lat="43.54309" lon="5.71097">
        <ele>499.24</ele>
        <time>2018-09-30T06:32:43Z</time>
      </trkpt>
      <trkpt lat="43.54324" lon="5.71076">
        <ele>498.54</ele>
        <time>2018-09-30T06:32:46Z</time>
      </trkpt>
      <trkpt lat="43.5434" lon="5.71058">
        <ele>497.58</ele>
        <time>2018-09-30T06:32:49Z</time>
      </trkpt>
      <trkpt lat="43.54352" lon="5.71036">
        <ele>493.7</ele>
        <time>2018-09-30T06:32:52Z</time>
      </trkpt>
      <trkpt lat="43.54365" lon="5.71009">
        <ele>491.94</ele>
        <time>2018-09-30T06:32:56Z</time>
      </trkpt>
      <trkpt lat="43.54381" lon="5.70988">
        <ele>491.44</ele>
        <time>2018-09-30T06:33:00Z</time>
      </trkpt>
      <trkpt lat="43.54396" lon="5.70966">
        <ele>491.21</ele>
        <time>2018-09-30T06:33:04Z</time>
      </trkpt>
      <trkpt lat="43.54409" lon="5.70947">
        <ele>487.47</ele>
        <time>2018-09-30T06:33:08Z</time>
      </trkpt>
      <trkpt lat="43.54421" lon="5.70923">
        <ele>488.13</ele>
        <time>2018-09-30T06:33:13Z</time>
      </trkpt>
      <trkpt lat="43.54433" lon="5.70897">
        <ele>489.03</ele>
        <time>2018-09-30T06:33:18Z</time>
      </trkpt>
      <trkpt lat="43.54443" lon="5.70876">
        <ele>489.12</ele>
        <time>2018-09-30T06:33:22Z</time>
      </trkpt>
      <trkpt lat="43.54456" lon="5.70857">
        <ele>488.03</ele>
        <time>2018-09-30T06:33:26Z</time>
      </trkpt>
      <trkpt lat="43.54467" lon="5.70835">
        <ele>486.68</ele>
        <time>2018-09-30T06:33:30Z</time>
      </trkpt>
      <trkpt lat="43.54483" lon="5.70821">
        <ele>486.07</ele>
        <time>2018-09-30T06:33:34Z</time>
      </trkpt>
      <trkpt lat="43.54495" lon="5.70799">
        <ele>486.09</ele>
        <time>2018-09-30T06:33:40Z</time>
      </trkpt>
      <trkpt lat="43.54508" lon="5.70782">
        <ele>486.14</ele>
        <time>2018-09-30T06:33:45Z</time>
      </trkpt>
      <trkpt lat="43.54516" lon="5.70757">
        <ele>486.44</ele>
        <time>2018-09-30T06:33:53Z</time>
      </trkpt>
      <trkpt lat="43.54526" lon="5.70735">
        <ele>485.16</ele>
        <time>2018-09-30T06:33:59Z</time>
      </trkpt>
      <trkpt lat="43.54543" lon="5.70724">
        <ele>485.53</ele>
        <time>2018-09-30T06:34:04Z</time>
      </trkpt>
      <trkpt lat="43.54561" lon="5.70712">
        <ele>486.74</ele>
        <time>2018-09-30T06:34:08Z</time>
      </trkpt>
      <trkpt lat="43.54565" lon="5.70686">
        <ele>486.73</ele>
        <time>2018-09-30T06:34:14Z</time>
      </trkpt>
      <trkpt lat="43.54582" lon="5.70667">
        <ele>487.44</ele>
        <time>2018-09-30T06:34:21Z</time>
      </trkpt>
      <trkpt lat="43.54589" lon="5.7064">
        <ele>489.12</ele>
        <time>2018-09-30T06:34:32Z</time>
      </trkpt>
      <trkpt lat="43.54606" lon="5.70627">
        <ele>488.34</ele>
        <time>2018-09-30T06:34:37Z</time>
      </trkpt>
      <trkpt lat="43.5462" lon="5.70609">
        <ele>492.76</ele>
        <time>2018-09-30T06:34:46Z</time>
      </trkpt>
      <trkpt lat="43.54631" lon="5.70588">
        <ele>493.16</ele>
        <time>2018-09-30T06:34:52Z</time>
      </trkpt>
      <trkpt lat="43.54646" lon="5.7057">
        <ele>496.11</ele>
        <time>2018-09-30T06:34:58Z</time>
      </trkpt>
      <trkpt lat="43.54659" lon="5.70551">
        <ele>496.53</ele>
        <time>2018-09-30T06:35:10Z</time>
      </trkpt>
      <trkpt lat="43.54681" lon="5.7055">
        <ele>496.88</ele>
        <time>2018-09-30T06:35:21Z</time>
      </trkpt>
      <trkpt lat="43.54698" lon="5.70561">
        <ele>497.31</ele>
        <time>2018-09-30T06:35:28Z</time>
      </trkpt>
      <trkpt lat="43.54717" lon="5.70563">
        <ele>498.64</ele>
        <time>2018-09-30T06:35:35Z</time>
      </trkpt>
      <trkpt lat="43.54734" lon="5.70574">
        <ele>497.81</ele>
        <time>2018-09-30T06:35:42Z</time>
      </trkpt>
      <trkpt lat="43.54751" lon="5.70581">
        <ele>494.95</ele>
        <time>2018-09-30T06:35:47Z</time>
      </trkpt>
      <trkpt lat="43.5477" lon="5.70576">
        <ele>495.22</ele>
        <time>2018-09-30T06:35:52Z</time>
      </trkpt>
      <trkpt lat="43.54791" lon="5.70584">
        <ele>496.17</ele>
        <time>2018-09-30T06:35:59Z</time>
      </trkpt>
      <trkpt lat="43.5481" lon="5.70591">
        <ele>494.54</ele>
        <time>2018-09-30T06:36:04Z</time>
      </trkpt>
      <trkpt lat="43.54833" lon="5.70591">
        <ele>493.19</ele>
        <time>2018-09-30T06:36:11Z</time>
      </trkpt>
      <trkpt lat="43.54852" lon="5.7059">
        <ele>494.23</ele>
        <time>2018-09-30T06:36:18Z</time>
      </trkpt>
      <trkpt lat="43.54875" lon="5.7059">
        <ele>494.65</ele>
        <time>2018-09-30T06:36:22Z</time>
      </trkpt>
      <trkpt lat="43.54893" lon="5.70583">
        <ele>495.32</ele>
        <time>2018-09-30T06:36:27Z</time>
      </trkpt>
      <trkpt lat="43.54912" lon="5.70591">
        <ele>494.54</ele>
        <time>2018-09-30T06:36:34Z</time>
      </trkpt>
      <trkpt lat="43.54932" lon="5.70592">
        <ele>497.73</ele>
        <time>2018-09-30T06:36:40Z</time>
      </trkpt>
      <trkpt lat="43.5495" lon="5.70593">
        <ele>498.99</ele>
        <time>2018-09-30T06:36:46Z</time>
      </trkpt>
      <trkpt lat="43.54972" lon="5.70595">
        <ele>500.9</ele>
        <time>2018-09-30T06:36:55Z</time>
      </trkpt>
      <trkpt lat="43.54992" lon="5.70597">
        <ele>499.58</ele>
        <time>2018-09-30T06:37:01Z</time>
      </trkpt>
      <trkpt lat="43.55011" lon="5.70607">
        <ele>500.37</ele>
        <time>2018-09-30T06:37:08Z</time>
      </trkpt>
      <trkpt lat="43.55032" lon="5.70613">
        <ele>496.74</ele>
        <time>2018-09-30T06:37:14Z</time>
      </trkpt>
      <trkpt lat="43.55051" lon="5.70611">
        <ele>495.45</ele>
        <time>2018-09-30T06:37:21Z</time>
      </trkpt>
      <trkpt lat="43.55072" lon="5.70615">
        <ele>496.73</ele>
        <time>2018-09-30T06:37:26Z</time>
      </trkpt>
      <trkpt lat="43.55093" lon="5.70622">
        <ele>498.38</ele>
        <time>2018-09-30T06:37:32Z</time>
      </trkpt>
      <trkpt lat="43.55113" lon="5.70625">
        <ele>498.03</ele>
        <time>2018-09-30T06:37:37Z</time>
      </trkpt>
      <trkpt lat="43.55132" lon="5.7063">
        <ele>498.07</ele>
        <time>2018-09-30T06:37:43Z</time>
      </trkpt>
      <trkpt lat="43.55153" lon="5.70634">
        <ele>499.44</ele>
        <time>2018-09-30T06:37:49Z</time>
      </trkpt>
      <trkpt lat="43.55171" lon="5.70638">
        <ele>500.28</ele>
        <time>2018-09-30T06:37:54Z</time>
      </trkpt>
      <trkpt lat="43.55191" lon="5.70642">
        <ele>500.92</ele>
        <time>2018-09-30T06:38:01Z</time>
      </trkpt>
      <trkpt lat="43.55209" lon="5.70643">
        <ele>503.39</ele>
        <time>2018-09-30T06:38:05Z</time>
      </trkpt>
      <trkpt lat="43.55229" lon="5.70649">
        <ele>501.85</ele>
        <time>2018-09-30T06:38:11Z</time>
      </trkpt>
      <trkpt lat="43.5525" lon="5.70651">
        <ele>501.65</ele>
        <time>2018-09-30T06:38:16Z</time>
      </trkpt>
      <trkpt lat="43.5527" lon="5.70657">
        <ele>499.51</ele>
        <time>2018-09-30T06:38:26Z</time>
      </trkpt>
      <trkpt lat="43.55291" lon="5.70658">
        <ele>496.29</ele>
        <time>2018-09-30T06:38:32Z</time>
      </trkpt>
      <trkpt lat="43.5531" lon="5.70662">
        <ele>497.27</ele>
        <time>2018-09-30T06:38:38Z</time>
      </trkpt>
      <trkpt lat="43.5533" lon="5.7066">
        <ele>496.67</ele>
        <time>2018-09-30T06:38:43Z</time>
      </trkpt>
      <trkpt lat="43.5535" lon="5.70658">
        <ele>496.02</ele>
        <time>2018-09-30T06:38:49Z</time>
      </trkpt>
      <trkpt lat="43.5537" lon="5.70658">
        <ele>494.88</ele>
        <time>2018-09-30T06:38:54Z</time>
      </trkpt>
      <trkpt lat="43.5539" lon="5.70653">
        <ele>493.55</ele>
        <time>2018-09-30T06:39:01Z</time>
      </trkpt>
      <trkpt lat="43.55409" lon="5.70647">
        <ele>493.85</ele>
        <time>2018-09-30T06:39:06Z</time>
      </trkpt>
      <trkpt lat="43.55428" lon="5.70645">
        <ele>494.87</ele>
        <time>2018-09-30T06:39:12Z</time>
      </trkpt>
      <trkpt lat="43.55451" lon="5.70637">
        <ele>495.21</ele>
        <time>2018-09-30T06:39:19Z</time>
      </trkpt>
      <trkpt lat="43.55471" lon="5.70627">
        <ele>495.59</ele>
        <time>2018-09-30T06:39:24Z</time>
      </trkpt>
      <trkpt lat="43.55489" lon="5.70618">
        <ele>496.38</ele>
        <time>2018-09-30T06:39:29Z</time>
      </trkpt>
      <trkpt lat="43.5551" lon="5.70614">
        <ele>499.21</ele>
        <time>2018-09-30T06:39:36Z</time>
      </trkpt>
      <trkpt lat="43.55525" lon="5.70599">
        <ele>499.87</ele>
        <time>2018-09-30T06:39:44Z</time>
      </trkpt>
      <trkpt lat="43.55546" lon="5.70597">
        <ele>500</ele>
        <time>2018-09-30T06:39:51Z</time>
      </trkpt>
      <trkpt lat="43.55567" lon="5.7059">
        <ele>499.51</ele>
        <time>2018-09-30T06:39:58Z</time>
      </trkpt>
      <trkpt lat="43.55582" lon="5.70577">
        <ele>498.36</ele>
        <time>2018-09-30T06:40:05Z</time>
      </trkpt>
      <trkpt lat="43.55601" lon="5.70572">
        <ele>497.08</ele>
        <time>2018-09-30T06:40:12Z</time>
      </trkpt>
      <trkpt lat="43.55608" lon="5.706">
        <ele>494.95</ele>
        <time>2018-09-30T06:44:05Z</time>
      </trkpt>
      <trkpt lat="43.55615" lon="5.70636">
        <ele>494.19</ele>
        <time>2018-09-30T06:44:08Z</time>
      </trkpt>
      <trkpt lat="43.55623" lon="5.7067">
        <ele>493.19</ele>
        <time>2018-09-30T06:44:11Z</time>
      </trkpt>
      <trkpt lat="43.55624" lon="5.70699">
        <ele>491.86</ele>
        <time>2018-09-30T06:44:14Z</time>
      </trkpt>
      <trkpt lat="43.55626" lon="5.70729">
        <ele>492.13</ele>
        <time>2018-09-30T06:44:18Z</time>
      </trkpt>
      <trkpt lat="43.55622" lon="5.70756">
        <ele>489.71</ele>
        <time>2018-09-30T06:44:22Z</time>
      </trkpt>
      <trkpt lat="43.55616" lon="5.7078">
        <ele>491.12</ele>
        <time>2018-09-30T06:44:27Z</time>
      </trkpt>
      <trkpt lat="43.55635" lon="5.70777">
        <ele>494.08</ele>
        <time>2018-09-30T06:44:38Z</time>
      </trkpt>
      <trkpt lat="43.55643" lon="5.70753">
        <ele>494.71</ele>
        <time>2018-09-30T06:44:45Z</time>
      </trkpt>
      <trkpt lat="43.55628" lon="5.70769">
        <ele>493.69</ele>
        <time>2018-09-30T06:44:59Z</time>
      </trkpt>
      <trkpt lat="43.55623" lon="5.70796">
        <ele>493.54</ele>
        <time>2018-09-30T06:45:05Z</time>
      </trkpt>
      <trkpt lat="43.55619" lon="5.70822">
        <ele>496.58</ele>
        <time>2018-09-30T06:45:10Z</time>
      </trkpt>
      <trkpt lat="43.55615" lon="5.70847">
        <ele>496.45</ele>
        <time>2018-09-30T06:45:16Z</time>
      </trkpt>
      <trkpt lat="43.5561" lon="5.70876">
        <ele>495.64</ele>
        <time>2018-09-30T06:45:23Z</time>
      </trkpt>
      <trkpt lat="43.55611" lon="5.70903">
        <ele>495.18</ele>
        <time>2018-09-30T06:45:29Z</time>
      </trkpt>
      <trkpt lat="43.55612" lon="5.7093">
        <ele>494.08</ele>
        <time>2018-09-30T06:45:35Z</time>
      </trkpt>
      <trkpt lat="43.55608" lon="5.70957">
        <ele>495.73</ele>
        <time>2018-09-30T06:45:40Z</time>
      </trkpt>
      <trkpt lat="43.55603" lon="5.70986">
        <ele>495.48</ele>
        <time>2018-09-30T06:45:47Z</time>
      </trkpt>
      <trkpt lat="43.55599" lon="5.71011">
        <ele>496.81</ele>
        <time>2018-09-30T06:45:52Z</time>
      </trkpt>
      <trkpt lat="43.55593" lon="5.71038">
        <ele>496.18</ele>
        <time>2018-09-30T06:45:57Z</time>
      </trkpt>
      <trkpt lat="43.55591" lon="5.71065">
        <ele>495.42</ele>
        <time>2018-09-30T06:46:01Z</time>
      </trkpt>
      <trkpt lat="43.55592" lon="5.71095">
        <ele>494.58</ele>
        <time>2018-09-30T06:46:06Z</time>
      </trkpt>
      <trkpt lat="43.55595" lon="5.71127">
        <ele>493.14</ele>
        <time>2018-09-30T06:46:11Z</time>
      </trkpt>
      <trkpt lat="43.556" lon="5.71153">
        <ele>492.62</ele>
        <time>2018-09-30T06:46:15Z</time>
      </trkpt>
      <trkpt lat="43.55597" lon="5.71181">
        <ele>492.99</ele>
        <time>2018-09-30T06:46:19Z</time>
      </trkpt>
      <trkpt lat="43.55596" lon="5.71209">
        <ele>491.95</ele>
        <time>2018-09-30T06:46:24Z</time>
      </trkpt>
      <trkpt lat="43.55599" lon="5.71234">
        <ele>489.61</ele>
        <time>2018-09-30T06:46:28Z</time>
      </trkpt>
      <trkpt lat="43.55601" lon="5.71259">
        <ele>489.15</ele>
        <time>2018-09-30T06:46:32Z</time>
      </trkpt>
      <trkpt lat="43.55607" lon="5.71289">
        <ele>490.73</ele>
        <time>2018-09-30T06:46:37Z</time>
      </trkpt>
      <trkpt lat="43.55611" lon="5.71318">
        <ele>491.43</ele>
        <time>2018-09-30T06:46:42Z</time>
      </trkpt>
      <trkpt lat="43.55618" lon="5.71341">
        <ele>490.39</ele>
        <time>2018-09-30T06:46:46Z</time>
      </trkpt>
      <trkpt lat="43.55631" lon="5.71363">
        <ele>488.69</ele>
        <time>2018-09-30T06:46:50Z</time>
      </trkpt>
      <trkpt lat="43.55639" lon="5.7139">
        <ele>485.76</ele>
        <time>2018-09-30T06:46:55Z</time>
      </trkpt>
      <trkpt lat="43.55654" lon="5.71415">
        <ele>485.1</ele>
        <time>2018-09-30T06:46:59Z</time>
      </trkpt>
      <trkpt lat="43.55671" lon="5.71434">
        <ele>485.57</ele>
        <time>2018-09-30T06:47:04Z</time>
      </trkpt>
      <trkpt lat="43.55679" lon="5.71462">
        <ele>485.95</ele>
        <time>2018-09-30T06:47:10Z</time>
      </trkpt>
      <trkpt lat="43.55694" lon="5.71482">
        <ele>487.85</ele>
        <time>2018-09-30T06:47:14Z</time>
      </trkpt>
      <trkpt lat="43.55702" lon="5.71505">
        <ele>487.51</ele>
        <time>2018-09-30T06:47:17Z</time>
      </trkpt>
      <trkpt lat="43.55704" lon="5.71533">
        <ele>485.66</ele>
        <time>2018-09-30T06:47:22Z</time>
      </trkpt>
      <trkpt lat="43.55717" lon="5.71561">
        <ele>482.79</ele>
        <time>2018-09-30T06:47:26Z</time>
      </trkpt>
      <trkpt lat="43.55723" lon="5.71591">
        <ele>480.89</ele>
        <time>2018-09-30T06:47:31Z</time>
      </trkpt>
      <trkpt lat="43.5573" lon="5.71616">
        <ele>478.26</ele>
        <time>2018-09-30T06:47:35Z</time>
      </trkpt>
      <trkpt lat="43.55743" lon="5.71644">
        <ele>478.16</ele>
        <time>2018-09-30T06:47:39Z</time>
      </trkpt>
      <trkpt lat="43.55751" lon="5.71672">
        <ele>478.77</ele>
        <time>2018-09-30T06:47:43Z</time>
      </trkpt>
      <trkpt lat="43.55759" lon="5.71697">
        <ele>478.85</ele>
        <time>2018-09-30T06:47:48Z</time>
      </trkpt>
      <trkpt lat="43.55774" lon="5.7172">
        <ele>477.96</ele>
        <time>2018-09-30T06:47:53Z</time>
      </trkpt>
      <trkpt lat="43.55793" lon="5.71734">
        <ele>477.96</ele>
        <time>2018-09-30T06:47:59Z</time>
      </trkpt>
      <trkpt lat="43.55808" lon="5.71749">
        <ele>479.52</ele>
        <time>2018-09-30T06:48:05Z</time>
      </trkpt>
      <trkpt lat="43.55824" lon="5.71763">
        <ele>479.59</ele>
        <time>2018-09-30T06:48:08Z</time>
      </trkpt>
      <trkpt lat="43.55837" lon="5.7178">
        <ele>482.26</ele>
        <time>2018-09-30T06:48:13Z</time>
      </trkpt>
      <trkpt lat="43.55854" lon="5.71798">
        <ele>481.25</ele>
        <time>2018-09-30T06:48:18Z</time>
      </trkpt>
      <trkpt lat="43.55869" lon="5.71812">
        <ele>480.6</ele>
        <time>2018-09-30T06:48:22Z</time>
      </trkpt>
      <trkpt lat="43.55886" lon="5.71828">
        <ele>481.12</ele>
        <time>2018-09-30T06:48:26Z</time>
      </trkpt>
      <trkpt lat="43.55897" lon="5.71848">
        <ele>479.71</ele>
        <time>2018-09-30T06:48:31Z</time>
      </trkpt>
      <trkpt lat="43.55914" lon="5.71862">
        <ele>480.75</ele>
        <time>2018-09-30T06:48:36Z</time>
      </trkpt>
      <trkpt lat="43.55932" lon="5.71881">
        <ele>479.16</ele>
        <time>2018-09-30T06:48:42Z</time>
      </trkpt>
      <trkpt lat="43.55947" lon="5.71897">
        <ele>480.25</ele>
        <time>2018-09-30T06:48:47Z</time>
      </trkpt>
      <trkpt lat="43.5596" lon="5.71917">
        <ele>478.53</ele>
        <time>2018-09-30T06:48:52Z</time>
      </trkpt>
      <trkpt lat="43.55976" lon="5.7193">
        <ele>478.79</ele>
        <time>2018-09-30T06:48:55Z</time>
      </trkpt>
      <trkpt lat="43.55992" lon="5.71948">
        <ele>477.06</ele>
        <time>2018-09-30T06:49:00Z</time>
      </trkpt>
      <trkpt lat="43.56004" lon="5.71966">
        <ele>475.61</ele>
        <time>2018-09-30T06:49:04Z</time>
      </trkpt>
      <trkpt lat="43.56017" lon="5.71985">
        <ele>474.59</ele>
        <time>2018-09-30T06:49:08Z</time>
      </trkpt>
      <trkpt lat="43.56035" lon="5.72001">
        <ele>474.94</ele>
        <time>2018-09-30T06:49:12Z</time>
      </trkpt>
      <trkpt lat="43.56051" lon="5.72021">
        <ele>473.56</ele>
        <time>2018-09-30T06:49:16Z</time>
      </trkpt>
      <trkpt lat="43.56065" lon="5.72045">
        <ele>473.83</ele>
        <time>2018-09-30T06:49:20Z</time>
      </trkpt>
      <trkpt lat="43.56075" lon="5.72071">
        <ele>472.28</ele>
        <time>2018-09-30T06:49:23Z</time>
      </trkpt>
      <trkpt lat="43.56072" lon="5.72096">
        <ele>470.84</ele>
        <time>2018-09-30T06:49:27Z</time>
      </trkpt>
      <trkpt lat="43.56074" lon="5.72121">
        <ele>470.48</ele>
        <time>2018-09-30T06:49:31Z</time>
      </trkpt>
      <trkpt lat="43.56071" lon="5.72155">
        <ele>469.95</ele>
        <time>2018-09-30T06:49:35Z</time>
      </trkpt>
      <trkpt lat="43.56069" lon="5.72182">
        <ele>471.3</ele>
        <time>2018-09-30T06:49:38Z</time>
      </trkpt>
      <trkpt lat="43.56074" lon="5.7221">
        <ele>468.9</ele>
        <time>2018-09-30T06:49:42Z</time>
      </trkpt>
      <trkpt lat="43.5608" lon="5.72236">
        <ele>467.12</ele>
        <time>2018-09-30T06:49:45Z</time>
      </trkpt>
      <trkpt lat="43.56092" lon="5.72259">
        <ele>465.81</ele>
        <time>2018-09-30T06:49:48Z</time>
      </trkpt>
      <trkpt lat="43.56105" lon="5.72289">
        <ele>465.3</ele>
        <time>2018-09-30T06:49:52Z</time>
      </trkpt>
      <trkpt lat="43.56116" lon="5.72315">
        <ele>465.74</ele>
        <time>2018-09-30T06:49:56Z</time>
      </trkpt>
      <trkpt lat="43.56131" lon="5.72335">
        <ele>464.42</ele>
        <time>2018-09-30T06:49:59Z</time>
      </trkpt>
      <trkpt lat="43.5614" lon="5.72358">
        <ele>463.22</ele>
        <time>2018-09-30T06:50:03Z</time>
      </trkpt>
      <trkpt lat="43.56149" lon="5.72383">
        <ele>463.9</ele>
        <time>2018-09-30T06:50:07Z</time>
      </trkpt>
      <trkpt lat="43.56152" lon="5.7241">
        <ele>461.85</ele>
        <time>2018-09-30T06:50:11Z</time>
      </trkpt>
      <trkpt lat="43.56161" lon="5.72434">
        <ele>460.91</ele>
        <time>2018-09-30T06:50:14Z</time>
      </trkpt>
      <trkpt lat="43.56177" lon="5.72453">
        <ele>461.99</ele>
        <time>2018-09-30T06:50:17Z</time>
      </trkpt>
      <trkpt lat="43.56193" lon="5.72472">
        <ele>462.02</ele>
        <time>2018-09-30T06:50:21Z</time>
      </trkpt>
      <trkpt lat="43.5621" lon="5.72482">
        <ele>461.17</ele>
        <time>2018-09-30T06:50:25Z</time>
      </trkpt>
      <trkpt lat="43.56227" lon="5.72502">
        <ele>461.48</ele>
        <time>2018-09-30T06:50:29Z</time>
      </trkpt>
      <trkpt lat="43.56237" lon="5.72528">
        <ele>459.89</ele>
        <time>2018-09-30T06:50:33Z</time>
      </trkpt>
      <trkpt lat="43.56251" lon="5.72553">
        <ele>459.99</ele>
        <time>2018-09-30T06:50:37Z</time>
      </trkpt>
      <trkpt lat="43.56265" lon="5.72571">
        <ele>460.02</ele>
        <time>2018-09-30T06:50:41Z</time>
      </trkpt>
      <trkpt lat="43.56279" lon="5.7259">
        <ele>459.43</ele>
        <time>2018-09-30T06:50:45Z</time>
      </trkpt>
      <trkpt lat="43.56285" lon="5.72619">
        <ele>457.17</ele>
        <time>2018-09-30T06:50:49Z</time>
      </trkpt>
      <trkpt lat="43.56288" lon="5.72645">
        <ele>455.51</ele>
        <time>2018-09-30T06:50:53Z</time>
      </trkpt>
      <trkpt lat="43.56304" lon="5.72665">
        <ele>456</ele>
        <time>2018-09-30T06:50:57Z</time>
      </trkpt>
      <trkpt lat="43.56317" lon="5.72688">
        <ele>455.25</ele>
        <time>2018-09-30T06:51:01Z</time>
      </trkpt>
      <trkpt lat="43.56337" lon="5.72696">
        <ele>456.21</ele>
        <time>2018-09-30T06:51:04Z</time>
      </trkpt>
      <trkpt lat="43.56356" lon="5.72707">
        <ele>455.51</ele>
        <time>2018-09-30T06:51:08Z</time>
      </trkpt>
      <trkpt lat="43.56376" lon="5.72708">
        <ele>447.85</ele>
        <time>2018-09-30T06:57:55Z</time>
      </trkpt>
      <trkpt lat="43.56398" lon="5.72708">
        <ele>446.31</ele>
        <time>2018-09-30T06:57:59Z</time>
      </trkpt>
      <trkpt lat="43.56417" lon="5.72711">
        <ele>446.06</ele>
        <time>2018-09-30T06:58:03Z</time>
      </trkpt>
      <trkpt lat="43.5644" lon="5.72714">
        <ele>445.73</ele>
        <time>2018-09-30T06:58:10Z</time>
      </trkpt>
      <trkpt lat="43.56462" lon="5.72718">
        <ele>446.91</ele>
        <time>2018-09-30T06:58:16Z</time>
      </trkpt>
      <trkpt lat="43.56479" lon="5.7273">
        <ele>447.52</ele>
        <time>2018-09-30T06:58:19Z</time>
      </trkpt>
      <trkpt lat="43.56496" lon="5.72745">
        <ele>451.93</ele>
        <time>2018-09-30T06:58:23Z</time>
      </trkpt>
      <trkpt lat="43.56513" lon="5.72761">
        <ele>451.02</ele>
        <time>2018-09-30T06:58:27Z</time>
      </trkpt>
      <trkpt lat="43.56529" lon="5.72775">
        <ele>448.95</ele>
        <time>2018-09-30T06:58:32Z</time>
      </trkpt>
      <trkpt lat="43.56545" lon="5.72793">
        <ele>448.3</ele>
        <time>2018-09-30T06:58:36Z</time>
      </trkpt>
      <trkpt lat="43.5656" lon="5.72809">
        <ele>447.71</ele>
        <time>2018-09-30T06:58:39Z</time>
      </trkpt>
      <trkpt lat="43.5657" lon="5.72832">
        <ele>445.37</ele>
        <time>2018-09-30T06:58:43Z</time>
      </trkpt>
      <trkpt lat="43.56577" lon="5.72859">
        <ele>444.01</ele>
        <time>2018-09-30T06:58:48Z</time>
      </trkpt>
      <trkpt lat="43.56574" lon="5.72889">
        <ele>445.16</ele>
        <time>2018-09-30T06:58:53Z</time>
      </trkpt>
      <trkpt lat="43.56571" lon="5.72917">
        <ele>443.24</ele>
        <time>2018-09-30T06:58:57Z</time>
      </trkpt>
      <trkpt lat="43.56568" lon="5.72944">
        <ele>439.13</ele>
        <time>2018-09-30T06:59:01Z</time>
      </trkpt>
      <trkpt lat="43.56582" lon="5.72961">
        <ele>438.88</ele>
        <time>2018-09-30T06:59:06Z</time>
      </trkpt>
      <trkpt lat="43.56606" lon="5.72968">
        <ele>438.68</ele>
        <time>2018-09-30T06:59:10Z</time>
      </trkpt>
      <trkpt lat="43.56628" lon="5.72978">
        <ele>438.45</ele>
        <time>2018-09-30T06:59:14Z</time>
      </trkpt>
      <trkpt lat="43.56642" lon="5.72997">
        <ele>438.78</ele>
        <time>2018-09-30T06:59:18Z</time>
      </trkpt>
      <trkpt lat="43.56642" lon="5.73024">
        <ele>438.91</ele>
        <time>2018-09-30T06:59:23Z</time>
      </trkpt>
      <trkpt lat="43.56639" lon="5.73052">
        <ele>438.04</ele>
        <time>2018-09-30T06:59:27Z</time>
      </trkpt>
      <trkpt lat="43.56637" lon="5.7308">
        <ele>436.36</ele>
        <time>2018-09-30T06:59:31Z</time>
      </trkpt>
      <trkpt lat="43.56639" lon="5.73107">
        <ele>433.88</ele>
        <time>2018-09-30T06:59:35Z</time>
      </trkpt>
      <trkpt lat="43.56643" lon="5.73133">
        <ele>432.03</ele>
        <time>2018-09-30T06:59:39Z</time>
      </trkpt>
      <trkpt lat="43.56651" lon="5.73156">
        <ele>430.76</ele>
        <time>2018-09-30T06:59:43Z</time>
      </trkpt>
      <trkpt lat="43.5667" lon="5.73161">
        <ele>431.64</ele>
        <time>2018-09-30T06:59:47Z</time>
      </trkpt>
      <trkpt lat="43.5669" lon="5.73148">
        <ele>431.42</ele>
        <time>2018-09-30T06:59:52Z</time>
      </trkpt>
      <trkpt lat="43.5671" lon="5.73137">
        <ele>431.51</ele>
        <time>2018-09-30T06:59:56Z</time>
      </trkpt>
      <trkpt lat="43.56729" lon="5.73136">
        <ele>431.19</ele>
        <time>2018-09-30T06:59:59Z</time>
      </trkpt>
      <trkpt lat="43.5675" lon="5.73147">
        <ele>431.69</ele>
        <time>2018-09-30T07:00:04Z</time>
      </trkpt>
      <trkpt lat="43.56766" lon="5.7317">
        <ele>431.28</ele>
        <time>2018-09-30T07:00:08Z</time>
      </trkpt>
      <trkpt lat="43.56771" lon="5.73199">
        <ele>426.52</ele>
        <time>2018-09-30T07:00:13Z</time>
      </trkpt>
      <trkpt lat="43.56767" lon="5.73228">
        <ele>426.59</ele>
        <time>2018-09-30T07:00:17Z</time>
      </trkpt>
      <trkpt lat="43.5676" lon="5.7326">
        <ele>426.15</ele>
        <time>2018-09-30T07:00:22Z</time>
      </trkpt>
      <trkpt lat="43.5675" lon="5.73287">
        <ele>426.38</ele>
        <time>2018-09-30T07:00:26Z</time>
      </trkpt>
      <trkpt lat="43.5673" lon="5.73296">
        <ele>426.19</ele>
        <time>2018-09-30T07:00:30Z</time>
      </trkpt>
      <trkpt lat="43.56711" lon="5.73309">
        <ele>426.54</ele>
        <time>2018-09-30T07:00:34Z</time>
      </trkpt>
      <trkpt lat="43.56694" lon="5.73323">
        <ele>424.31</ele>
        <time>2018-09-30T07:00:37Z</time>
      </trkpt>
      <trkpt lat="43.56685" lon="5.73347">
        <ele>422.88</ele>
        <time>2018-09-30T07:00:41Z</time>
      </trkpt>
      <trkpt lat="43.56692" lon="5.73377">
        <ele>420.52</ele>
        <time>2018-09-30T07:00:45Z</time>
      </trkpt>
      <trkpt lat="43.56703" lon="5.73403">
        <ele>420.53</ele>
        <time>2018-09-30T07:00:49Z</time>
      </trkpt>
      <trkpt lat="43.56714" lon="5.7343">
        <ele>420.59</ele>
        <time>2018-09-30T07:00:53Z</time>
      </trkpt>
      <trkpt lat="43.56726" lon="5.73458">
        <ele>420.61</ele>
        <time>2018-09-30T07:00:57Z</time>
      </trkpt>
      <trkpt lat="43.56736" lon="5.73486">
        <ele>420.72</ele>
        <time>2018-09-30T07:01:01Z</time>
      </trkpt>
      <trkpt lat="43.56751" lon="5.73502">
        <ele>419.69</ele>
        <time>2018-09-30T07:01:05Z</time>
      </trkpt>
      <trkpt lat="43.5677" lon="5.73498">
        <ele>418.67</ele>
        <time>2018-09-30T07:01:09Z</time>
      </trkpt>
      <trkpt lat="43.56784" lon="5.73476">
        <ele>418.09</ele>
        <time>2018-09-30T07:01:14Z</time>
      </trkpt>
      <trkpt lat="43.56793" lon="5.73453">
        <ele>415.23</ele>
        <time>2018-09-30T07:02:17Z</time>
      </trkpt>
      <trkpt lat="43.56797" lon="5.73428">
        <ele>413.2</ele>
        <time>2018-09-30T07:02:23Z</time>
      </trkpt>
      <trkpt lat="43.56808" lon="5.73408">
        <ele>411.69</ele>
        <time>2018-09-30T07:02:36Z</time>
      </trkpt>
      <trkpt lat="43.5681" lon="5.73383">
        <ele>412.98</ele>
        <time>2018-09-30T07:02:45Z</time>
      </trkpt>
      <trkpt lat="43.56829" lon="5.73376">
        <ele>413.01</ele>
        <time>2018-09-30T07:02:54Z</time>
      </trkpt>
      <trkpt lat="43.56849" lon="5.73371">
        <ele>413.51</ele>
        <time>2018-09-30T07:03:01Z</time>
      </trkpt>
      <trkpt lat="43.56866" lon="5.73354">
        <ele>415.11</ele>
        <time>2018-09-30T07:03:17Z</time>
      </trkpt>
      <trkpt lat="43.56884" lon="5.73342">
        <ele>417.64</ele>
        <time>2018-09-30T07:03:34Z</time>
      </trkpt>
      <trkpt lat="43.56898" lon="5.73325">
        <ele>422.25</ele>
        <time>2018-09-30T07:03:55Z</time>
      </trkpt>
      <trkpt lat="43.56912" lon="5.73306">
        <ele>425.81</ele>
        <time>2018-09-30T07:04:02Z</time>
      </trkpt>
      <trkpt lat="43.56929" lon="5.73299">
        <ele>431.11</ele>
        <time>2018-09-30T07:04:09Z</time>
      </trkpt>
      <trkpt lat="43.56944" lon="5.73283">
        <ele>433.94</ele>
        <time>2018-09-30T07:04:22Z</time>
      </trkpt>
      <trkpt lat="43.56964" lon="5.73276">
        <ele>439.33</ele>
        <time>2018-09-30T07:04:36Z</time>
      </trkpt>
      <trkpt lat="43.56975" lon="5.73253">
        <ele>438.2</ele>
        <time>2018-09-30T07:04:52Z</time>
      </trkpt>
      <trkpt lat="43.56986" lon="5.73232">
        <ele>439.49</ele>
        <time>2018-09-30T07:05:03Z</time>
      </trkpt>
      <trkpt lat="43.56999" lon="5.73214">
        <ele>445.32</ele>
        <time>2018-09-30T07:05:17Z</time>
      </trkpt>
      <trkpt lat="43.57009" lon="5.73192">
        <ele>442.94</ele>
        <time>2018-09-30T07:05:30Z</time>
      </trkpt>
      <trkpt lat="43.57021" lon="5.73174">
        <ele>441.82</ele>
        <time>2018-09-30T07:05:41Z</time>
      </trkpt>
      <trkpt lat="43.57032" lon="5.73151">
        <ele>444.85</ele>
        <time>2018-09-30T07:05:53Z</time>
      </trkpt>
      <trkpt lat="43.57052" lon="5.73142">
        <ele>444.37</ele>
        <time>2018-09-30T07:06:04Z</time>
      </trkpt>
      <trkpt lat="43.57062" lon="5.7312">
        <ele>447.93</ele>
        <time>2018-09-30T07:06:18Z</time>
      </trkpt>
      <trkpt lat="43.57075" lon="5.73101">
        <ele>452.79</ele>
        <time>2018-09-30T07:06:28Z</time>
      </trkpt>
      <trkpt lat="43.57087" lon="5.73082">
        <ele>452.22</ele>
        <time>2018-09-30T07:06:38Z</time>
      </trkpt>
      <trkpt lat="43.57095" lon="5.73058">
        <ele>452.58</ele>
        <time>2018-09-30T07:06:50Z</time>
      </trkpt>
      <trkpt lat="43.57111" lon="5.73041">
        <ele>449.71</ele>
        <time>2018-09-30T07:07:03Z</time>
      </trkpt>
      <trkpt lat="43.57114" lon="5.73016">
        <ele>452.1</ele>
        <time>2018-09-30T07:07:17Z</time>
      </trkpt>
      <trkpt lat="43.57123" lon="5.72992">
        <ele>453.83</ele>
        <time>2018-09-30T07:07:36Z</time>
      </trkpt>
      <trkpt lat="43.57109" lon="5.7297">
        <ele>463.78</ele>
        <time>2018-09-30T07:09:10Z</time>
      </trkpt>
      <trkpt lat="43.57102" lon="5.72947">
        <ele>464.65</ele>
        <time>2018-09-30T07:09:15Z</time>
      </trkpt>
      <trkpt lat="43.57089" lon="5.72929">
        <ele>463.4</ele>
        <time>2018-09-30T07:09:19Z</time>
      </trkpt>
      <trkpt lat="43.57072" lon="5.72912">
        <ele>463.55</ele>
        <time>2018-09-30T07:09:26Z</time>
      </trkpt>
      <trkpt lat="43.57058" lon="5.7289">
        <ele>463.87</ele>
        <time>2018-09-30T07:09:34Z</time>
      </trkpt>
      <trkpt lat="43.57045" lon="5.72869">
        <ele>464.29</ele>
        <time>2018-09-30T07:09:40Z</time>
      </trkpt>
      <trkpt lat="43.57033" lon="5.72847">
        <ele>468.68</ele>
        <time>2018-09-30T07:09:48Z</time>
      </trkpt>
      <trkpt lat="43.57026" lon="5.72823">
        <ele>466.99</ele>
        <time>2018-09-30T07:09:55Z</time>
      </trkpt>
      <trkpt lat="43.57015" lon="5.72803">
        <ele>465.47</ele>
        <time>2018-09-30T07:10:01Z</time>
      </trkpt>
      <trkpt lat="43.57009" lon="5.72779">
        <ele>464.54</ele>
        <time>2018-09-30T07:10:19Z</time>
      </trkpt>
      <trkpt lat="43.56998" lon="5.72755">
        <ele>468.2</ele>
        <time>2018-09-30T07:10:27Z</time>
      </trkpt>
      <trkpt lat="43.56982" lon="5.72732">
        <ele>467.72</ele>
        <time>2018-09-30T07:10:31Z</time>
      </trkpt>
      <trkpt lat="43.56973" lon="5.72707">
        <ele>464.71</ele>
        <time>2018-09-30T07:10:37Z</time>
      </trkpt>
      <trkpt lat="43.56963" lon="5.72683">
        <ele>464.04</ele>
        <time>2018-09-30T07:10:45Z</time>
      </trkpt>
      <trkpt lat="43.56963" lon="5.72654">
        <ele>463.69</ele>
        <time>2018-09-30T07:11:58Z</time>
      </trkpt>
      <trkpt lat="43.56966" lon="5.72625">
        <ele>461.58</ele>
        <time>2018-09-30T07:12:02Z</time>
      </trkpt>
      <trkpt lat="43.5698" lon="5.72603">
        <ele>459.59</ele>
        <time>2018-09-30T07:12:07Z</time>
      </trkpt>
      <trkpt lat="43.5698" lon="5.72575">
        <ele>458.17</ele>
        <time>2018-09-30T07:12:13Z</time>
      </trkpt>
      <trkpt lat="43.56979" lon="5.72545">
        <ele>459.64</ele>
        <time>2018-09-30T07:12:19Z</time>
      </trkpt>
      <trkpt lat="43.56966" lon="5.72522">
        <ele>461.96</ele>
        <time>2018-09-30T07:12:22Z</time>
      </trkpt>
      <trkpt lat="43.56959" lon="5.72493">
        <ele>462.43</ele>
        <time>2018-09-30T07:12:27Z</time>
      </trkpt>
      <trkpt lat="43.56963" lon="5.72466">
        <ele>463.33</ele>
        <time>2018-09-30T07:12:32Z</time>
      </trkpt>
      <trkpt lat="43.56971" lon="5.7244">
        <ele>465.99</ele>
        <time>2018-09-30T07:12:37Z</time>
      </trkpt>
      <trkpt lat="43.56952" lon="5.72445">
        <ele>465.01</ele>
        <time>2018-09-30T07:12:46Z</time>
      </trkpt>
      <trkpt lat="43.56935" lon="5.72463">
        <ele>462.73</ele>
        <time>2018-09-30T07:12:51Z</time>
      </trkpt>
      <trkpt lat="43.56922" lon="5.7248">
        <ele>461.01</ele>
        <time>2018-09-30T07:12:56Z</time>
      </trkpt>
      <trkpt lat="43.56911" lon="5.72503">
        <ele>461.78</ele>
        <time>2018-09-30T07:13:03Z</time>
      </trkpt>
      <trkpt lat="43.56902" lon="5.72526">
        <ele>459.39</ele>
        <time>2018-09-30T07:13:09Z</time>
      </trkpt>
      <trkpt lat="43.56884" lon="5.72528">
        <ele>461.7</ele>
        <time>2018-09-30T07:13:16Z</time>
      </trkpt>
      <trkpt lat="43.56868" lon="5.72513">
        <ele>466.36</ele>
        <time>2018-09-30T07:13:20Z</time>
      </trkpt>
      <trkpt lat="43.56855" lon="5.72494">
        <ele>467.97</ele>
        <time>2018-09-30T07:13:25Z</time>
      </trkpt>
      <trkpt lat="43.56849" lon="5.72468">
        <ele>471.97</ele>
        <time>2018-09-30T07:13:31Z</time>
      </trkpt>
      <trkpt lat="43.56832" lon="5.72459">
        <ele>470.98</ele>
        <time>2018-09-30T07:13:38Z</time>
      </trkpt>
      <trkpt lat="43.56813" lon="5.72474">
        <ele>471.04</ele>
        <time>2018-09-30T07:13:44Z</time>
      </trkpt>
      <trkpt lat="43.56795" lon="5.72479">
        <ele>470.03</ele>
        <time>2018-09-30T07:13:49Z</time>
      </trkpt>
      <trkpt lat="43.56779" lon="5.72462">
        <ele>471.06</ele>
        <time>2018-09-30T07:13:54Z</time>
      </trkpt>
      <trkpt lat="43.5677" lon="5.72436">
        <ele>468.98</ele>
        <time>2018-09-30T07:13:59Z</time>
      </trkpt>
      <trkpt lat="43.56758" lon="5.72412">
        <ele>472.45</ele>
        <time>2018-09-30T07:14:05Z</time>
      </trkpt>
      <trkpt lat="43.5675" lon="5.72387">
        <ele>469.81</ele>
        <time>2018-09-30T07:14:11Z</time>
      </trkpt>
      <trkpt lat="43.56737" lon="5.72367">
        <ele>471.61</ele>
        <time>2018-09-30T07:14:16Z</time>
      </trkpt>
      <trkpt lat="43.56719" lon="5.72363">
        <ele>472.2</ele>
        <time>2018-09-30T07:14:22Z</time>
      </trkpt>
      <trkpt lat="43.56699" lon="5.72375">
        <ele>471.68</ele>
        <time>2018-09-30T07:14:28Z</time>
      </trkpt>
      <trkpt lat="43.56681" lon="5.72378">
        <ele>472.2</ele>
        <time>2018-09-30T07:14:34Z</time>
      </trkpt>
      <trkpt lat="43.56658" lon="5.72382">
        <ele>472.68</ele>
        <time>2018-09-30T07:14:39Z</time>
      </trkpt>
      <trkpt lat="43.5664" lon="5.72375">
        <ele>473.49</ele>
        <time>2018-09-30T07:14:45Z</time>
      </trkpt>
      <trkpt lat="43.56623" lon="5.72355">
        <ele>472.44</ele>
        <time>2018-09-30T07:14:50Z</time>
      </trkpt>
      <trkpt lat="43.5662" lon="5.72331">
        <ele>473.9</ele>
        <time>2018-09-30T07:14:55Z</time>
      </trkpt>
      <trkpt lat="43.56615" lon="5.72303">
        <ele>471.85</ele>
        <time>2018-09-30T07:15:00Z</time>
      </trkpt>
      <trkpt lat="43.56616" lon="5.72275">
        <ele>470.91</ele>
        <time>2018-09-30T07:15:05Z</time>
      </trkpt>
      <trkpt lat="43.56624" lon="5.7225">
        <ele>472.26</ele>
        <time>2018-09-30T07:15:11Z</time>
      </trkpt>
      <trkpt lat="43.56629" lon="5.72225">
        <ele>476.8</ele>
        <time>2018-09-30T07:16:29Z</time>
      </trkpt>
      <trkpt lat="43.56611" lon="5.72223">
        <ele>477.07</ele>
        <time>2018-09-30T07:16:35Z</time>
      </trkpt>
      <trkpt lat="43.56594" lon="5.72236">
        <ele>478.46</ele>
        <time>2018-09-30T07:16:42Z</time>
      </trkpt>
      <trkpt lat="43.56574" lon="5.72237">
        <ele>477.91</ele>
        <time>2018-09-30T07:16:51Z</time>
      </trkpt>
      <trkpt lat="43.56565" lon="5.72212">
        <ele>479.7</ele>
        <time>2018-09-30T07:17:02Z</time>
      </trkpt>
      <trkpt lat="43.56555" lon="5.7219">
        <ele>480.55</ele>
        <time>2018-09-30T07:17:08Z</time>
      </trkpt>
      <trkpt lat="43.56548" lon="5.72164">
        <ele>478.93</ele>
        <time>2018-09-30T07:17:17Z</time>
      </trkpt>
      <trkpt lat="43.56533" lon="5.72151">
        <ele>479.84</ele>
        <time>2018-09-30T07:17:29Z</time>
      </trkpt>
      <trkpt lat="43.56523" lon="5.72128">
        <ele>479.35</ele>
        <time>2018-09-30T07:17:40Z</time>
      </trkpt>
      <trkpt lat="43.5651" lon="5.72109">
        <ele>480.09</ele>
        <time>2018-09-30T07:17:44Z</time>
      </trkpt>
      <trkpt lat="43.56497" lon="5.72089">
        <ele>481.03</ele>
        <time>2018-09-30T07:17:50Z</time>
      </trkpt>
      <trkpt lat="43.56485" lon="5.72066">
        <ele>480.02</ele>
        <time>2018-09-30T07:17:57Z</time>
      </trkpt>
      <trkpt lat="43.56467" lon="5.72057">
        <ele>482.38</ele>
        <time>2018-09-30T07:18:03Z</time>
      </trkpt>
      <trkpt lat="43.56451" lon="5.72044">
        <ele>482.44</ele>
        <time>2018-09-30T07:18:09Z</time>
      </trkpt>
      <trkpt lat="43.56437" lon="5.72024">
        <ele>483.81</ele>
        <time>2018-09-30T07:18:16Z</time>
      </trkpt>
      <trkpt lat="43.56424" lon="5.72004">
        <ele>484.44</ele>
        <time>2018-09-30T07:18:23Z</time>
      </trkpt>
      <trkpt lat="43.5641" lon="5.71981">
        <ele>485</ele>
        <time>2018-09-30T07:18:31Z</time>
      </trkpt>
      <trkpt lat="43.56398" lon="5.71959">
        <ele>484.64</ele>
        <time>2018-09-30T07:18:38Z</time>
      </trkpt>
      <trkpt lat="43.56385" lon="5.71937">
        <ele>483.97</ele>
        <time>2018-09-30T07:18:48Z</time>
      </trkpt>
      <trkpt lat="43.56376" lon="5.71915">
        <ele>483.6</ele>
        <time>2018-09-30T07:18:55Z</time>
      </trkpt>
      <trkpt lat="43.56369" lon="5.71891">
        <ele>483.37</ele>
        <time>2018-09-30T07:19:02Z</time>
      </trkpt>
      <trkpt lat="43.56366" lon="5.71863">
        <ele>485.25</ele>
        <time>2018-09-30T07:19:12Z</time>
      </trkpt>
      <trkpt lat="43.56364" lon="5.71834">
        <ele>484.67</ele>
        <time>2018-09-30T07:19:19Z</time>
      </trkpt>
      <trkpt lat="43.56354" lon="5.71813">
        <ele>483.94</ele>
        <time>2018-09-30T07:19:29Z</time>
      </trkpt>
      <trkpt lat="43.56346" lon="5.71787">
        <ele>484.8</ele>
        <time>2018-09-30T07:19:37Z</time>
      </trkpt>
      <trkpt lat="43.56337" lon="5.71759">
        <ele>488.17</ele>
        <time>2018-09-30T07:19:45Z</time>
      </trkpt>
      <trkpt lat="43.56327" lon="5.71736">
        <ele>487.46</ele>
        <time>2018-09-30T07:19:51Z</time>
      </trkpt>
      <trkpt lat="43.56318" lon="5.71715">
        <ele>486.74</ele>
        <time>2018-09-30T07:19:59Z</time>
      </trkpt>
      <trkpt lat="43.56311" lon="5.71689">
        <ele>486.58</ele>
        <time>2018-09-30T07:20:06Z</time>
      </trkpt>
      <trkpt lat="43.56306" lon="5.71663">
        <ele>488.18</ele>
        <time>2018-09-30T07:20:15Z</time>
      </trkpt>
      <trkpt lat="43.56303" lon="5.71635">
        <ele>487.79</ele>
        <time>2018-09-30T07:20:21Z</time>
      </trkpt>
      <trkpt lat="43.563" lon="5.71608">
        <ele>490.01</ele>
        <time>2018-09-30T07:20:30Z</time>
      </trkpt>
      <trkpt lat="43.56307" lon="5.71583">
        <ele>490.25</ele>
        <time>2018-09-30T07:20:38Z</time>
      </trkpt>
      <trkpt lat="43.56303" lon="5.71557">
        <ele>492.44</ele>
        <time>2018-09-30T07:20:46Z</time>
      </trkpt>
      <trkpt lat="43.56301" lon="5.7153">
        <ele>494.68</ele>
        <time>2018-09-30T07:20:54Z</time>
      </trkpt>
      <trkpt lat="43.56294" lon="5.71504">
        <ele>497.64</ele>
        <time>2018-09-30T07:21:09Z</time>
      </trkpt>
      <trkpt lat="43.56275" lon="5.71505">
        <ele>502.7</ele>
        <time>2018-09-30T07:25:40Z</time>
      </trkpt>
      <trkpt lat="43.56262" lon="5.71529">
        <ele>499.32</ele>
        <time>2018-09-30T07:25:48Z</time>
      </trkpt>
      <trkpt lat="43.56254" lon="5.71556">
        <ele>498.3</ele>
        <time>2018-09-30T07:25:54Z</time>
      </trkpt>
      <trkpt lat="43.56238" lon="5.71571">
        <ele>495.94</ele>
        <time>2018-09-30T07:26:00Z</time>
      </trkpt>
      <trkpt lat="43.56219" lon="5.71571">
        <ele>495.19</ele>
        <time>2018-09-30T07:26:06Z</time>
      </trkpt>
      <trkpt lat="43.562" lon="5.71559">
        <ele>496.34</ele>
        <time>2018-09-30T07:26:12Z</time>
      </trkpt>
      <trkpt lat="43.56186" lon="5.71544">
        <ele>498.24</ele>
        <time>2018-09-30T07:26:17Z</time>
      </trkpt>
      <trkpt lat="43.5617" lon="5.71524">
        <ele>499.58</ele>
        <time>2018-09-30T07:26:23Z</time>
      </trkpt>
      <trkpt lat="43.56155" lon="5.71506">
        <ele>501.23</ele>
        <time>2018-09-30T07:26:29Z</time>
      </trkpt>
      <trkpt lat="43.56139" lon="5.71489">
        <ele>502.67</ele>
        <time>2018-09-30T07:26:35Z</time>
      </trkpt>
      <trkpt lat="43.56122" lon="5.71478">
        <ele>502.03</ele>
        <time>2018-09-30T07:26:41Z</time>
      </trkpt>
      <trkpt lat="43.56104" lon="5.71463">
        <ele>505.21</ele>
        <time>2018-09-30T07:26:47Z</time>
      </trkpt>
      <trkpt lat="43.56086" lon="5.71448">
        <ele>505.42</ele>
        <time>2018-09-30T07:26:53Z</time>
      </trkpt>
      <trkpt lat="43.56071" lon="5.71434">
        <ele>509.37</ele>
        <time>2018-09-30T07:26:59Z</time>
      </trkpt>
      <trkpt lat="43.56052" lon="5.71417">
        <ele>511.77</ele>
        <time>2018-09-30T07:27:05Z</time>
      </trkpt>
      <trkpt lat="43.56036" lon="5.71405">
        <ele>512.67</ele>
        <time>2018-09-30T07:27:11Z</time>
      </trkpt>
      <trkpt lat="43.56018" lon="5.7139">
        <ele>513.04</ele>
        <time>2018-09-30T07:27:17Z</time>
      </trkpt>
      <trkpt lat="43.56006" lon="5.71369">
        <ele>509.72</ele>
        <time>2018-09-30T07:27:23Z</time>
      </trkpt>
      <trkpt lat="43.55993" lon="5.71346">
        <ele>509.59</ele>
        <time>2018-09-30T07:27:28Z</time>
      </trkpt>
      <trkpt lat="43.5598" lon="5.71326">
        <ele>510.22</ele>
        <time>2018-09-30T07:27:34Z</time>
      </trkpt>
      <trkpt lat="43.55968" lon="5.71306">
        <ele>513.9</ele>
        <time>2018-09-30T07:27:38Z</time>
      </trkpt>
      <trkpt lat="43.55956" lon="5.71288">
        <ele>516.57</ele>
        <time>2018-09-30T07:27:44Z</time>
      </trkpt>
      <trkpt lat="43.55944" lon="5.71263">
        <ele>518.69</ele>
        <time>2018-09-30T07:27:49Z</time>
      </trkpt>
      <trkpt lat="43.55935" lon="5.71237">
        <ele>520.84</ele>
        <time>2018-09-30T07:27:55Z</time>
      </trkpt>
      <trkpt lat="43.55929" lon="5.71214">
        <ele>518.91</ele>
        <time>2018-09-30T07:27:59Z</time>
      </trkpt>
      <trkpt lat="43.55917" lon="5.71193">
        <ele>518.62</ele>
        <time>2018-09-30T07:28:03Z</time>
      </trkpt>
      <trkpt lat="43.55903" lon="5.71172">
        <ele>516.51</ele>
        <time>2018-09-30T07:28:09Z</time>
      </trkpt>
      <trkpt lat="43.5589" lon="5.7115">
        <ele>515.58</ele>
        <time>2018-09-30T07:28:16Z</time>
      </trkpt>
      <trkpt lat="43.55877" lon="5.71129">
        <ele>513.74</ele>
        <time>2018-09-30T07:28:27Z</time>
      </trkpt>
      <trkpt lat="43.55866" lon="5.71109">
        <ele>510.8</ele>
        <time>2018-09-30T07:28:33Z</time>
      </trkpt>
      <trkpt lat="43.55854" lon="5.71089">
        <ele>510.85</ele>
        <time>2018-09-30T07:28:38Z</time>
      </trkpt>
      <trkpt lat="43.55839" lon="5.71065">
        <ele>512.22</ele>
        <time>2018-09-30T07:28:44Z</time>
      </trkpt>
      <trkpt lat="43.55825" lon="5.71043">
        <ele>511.55</ele>
        <time>2018-09-30T07:28:49Z</time>
      </trkpt>
      <trkpt lat="43.55813" lon="5.71024">
        <ele>511.97</ele>
        <time>2018-09-30T07:28:54Z</time>
      </trkpt>
      <trkpt lat="43.5581" lon="5.70998">
        <ele>514.12</ele>
        <time>2018-09-30T07:28:59Z</time>
      </trkpt>
      <trkpt lat="43.55809" lon="5.70972">
        <ele>515.94</ele>
        <time>2018-09-30T07:29:03Z</time>
      </trkpt>
      <trkpt lat="43.55803" lon="5.70944">
        <ele>513.76</ele>
        <time>2018-09-30T07:29:07Z</time>
      </trkpt>
      <trkpt lat="43.55797" lon="5.70918">
        <ele>518.6</ele>
        <time>2018-09-30T07:29:13Z</time>
      </trkpt>
      <trkpt lat="43.55788" lon="5.70895">
        <ele>517.94</ele>
        <time>2018-09-30T07:29:18Z</time>
      </trkpt>
      <trkpt lat="43.55777" lon="5.70872">
        <ele>515.4</ele>
        <time>2018-09-30T07:29:23Z</time>
      </trkpt>
      <trkpt lat="43.55767" lon="5.70849">
        <ele>516.48</ele>
        <time>2018-09-30T07:29:27Z</time>
      </trkpt>
      <trkpt lat="43.55763" lon="5.70823">
        <ele>516.88</ele>
        <time>2018-09-30T07:29:31Z</time>
      </trkpt>
      <trkpt lat="43.55764" lon="5.70792">
        <ele>516.59</ele>
        <time>2018-09-30T07:29:35Z</time>
      </trkpt>
      <trkpt lat="43.55764" lon="5.70765">
        <ele>516.33</ele>
        <time>2018-09-30T07:29:39Z</time>
      </trkpt>
      <trkpt lat="43.55766" lon="5.70737">
        <ele>516.03</ele>
        <time>2018-09-30T07:29:43Z</time>
      </trkpt>
      <trkpt lat="43.55772" lon="5.70713">
        <ele>514.98</ele>
        <time>2018-09-30T07:29:47Z</time>
      </trkpt>
      <trkpt lat="43.55787" lon="5.70692">
        <ele>514.58</ele>
        <time>2018-09-30T07:29:52Z</time>
      </trkpt>
      <trkpt lat="43.55804" lon="5.70678">
        <ele>513.21</ele>
        <time>2018-09-30T07:29:57Z</time>
      </trkpt>
      <trkpt lat="43.55822" lon="5.70675">
        <ele>514.78</ele>
        <time>2018-09-30T07:30:02Z</time>
      </trkpt>
      <trkpt lat="43.55835" lon="5.70657">
        <ele>514.78</ele>
        <time>2018-09-30T07:31:31Z</time>
      </trkpt>
      <trkpt lat="43.55838" lon="5.70631">
        <ele>515.59</ele>
        <time>2018-09-30T07:31:41Z</time>
      </trkpt>
      <trkpt lat="43.55851" lon="5.70611">
        <ele>516.63</ele>
        <time>2018-09-30T07:31:50Z</time>
      </trkpt>
      <trkpt lat="43.55865" lon="5.70595">
        <ele>521.73</ele>
        <time>2018-09-30T07:32:01Z</time>
      </trkpt>
      <trkpt lat="43.55883" lon="5.70585">
        <ele>523.46</ele>
        <time>2018-09-30T07:32:10Z</time>
      </trkpt>
      <trkpt lat="43.55902" lon="5.70585">
        <ele>521.78</ele>
        <time>2018-09-30T07:32:17Z</time>
      </trkpt>
      <trkpt lat="43.5592" lon="5.70594">
        <ele>518.99</ele>
        <time>2018-09-30T07:32:33Z</time>
      </trkpt>
      <trkpt lat="43.55936" lon="5.70607">
        <ele>525.22</ele>
        <time>2018-09-30T07:32:42Z</time>
      </trkpt>
      <trkpt lat="43.55952" lon="5.70623">
        <ele>529.99</ele>
        <time>2018-09-30T07:32:54Z</time>
      </trkpt>
      <trkpt lat="43.5597" lon="5.70615">
        <ele>529.89</ele>
        <time>2018-09-30T07:33:03Z</time>
      </trkpt>
      <trkpt lat="43.55982" lon="5.70594">
        <ele>534.76</ele>
        <time>2018-09-30T07:33:12Z</time>
      </trkpt>
      <trkpt lat="43.56001" lon="5.70593">
        <ele>543.9</ele>
        <time>2018-09-30T07:33:22Z</time>
      </trkpt>
      <trkpt lat="43.5602" lon="5.70585">
        <ele>543.9</ele>
        <time>2018-09-30T07:33:32Z</time>
      </trkpt>
      <trkpt lat="43.56021" lon="5.70559">
        <ele>542.76</ele>
        <time>2018-09-30T07:33:41Z</time>
      </trkpt>
      <trkpt lat="43.5603" lon="5.70535">
        <ele>543.73</ele>
        <time>2018-09-30T07:33:52Z</time>
      </trkpt>
      <trkpt lat="43.56022" lon="5.70511">
        <ele>545.61</ele>
        <time>2018-09-30T07:34:01Z</time>
      </trkpt>
      <trkpt lat="43.56013" lon="5.70487">
        <ele>543.26</ele>
        <time>2018-09-30T07:34:09Z</time>
      </trkpt>
      <trkpt lat="43.56003" lon="5.70462">
        <ele>540.69</ele>
        <time>2018-09-30T07:34:16Z</time>
      </trkpt>
      <trkpt lat="43.55991" lon="5.70441">
        <ele>541.48</ele>
        <time>2018-09-30T07:34:25Z</time>
      </trkpt>
      <trkpt lat="43.55989" lon="5.70416">
        <ele>540.24</ele>
        <time>2018-09-30T07:34:37Z</time>
      </trkpt>
      <trkpt lat="43.55993" lon="5.70389">
        <ele>543.07</ele>
        <time>2018-09-30T07:36:29Z</time>
      </trkpt>
      <trkpt lat="43.55993" lon="5.7036">
        <ele>543.49</ele>
        <time>2018-09-30T07:36:33Z</time>
      </trkpt>
      <trkpt lat="43.55988" lon="5.70334">
        <ele>540.69</ele>
        <time>2018-09-30T07:36:38Z</time>
      </trkpt>
      <trkpt lat="43.55979" lon="5.70311">
        <ele>540.83</ele>
        <time>2018-09-30T07:36:42Z</time>
      </trkpt>
      <trkpt lat="43.55996" lon="5.70319">
        <ele>542.93</ele>
        <time>2018-09-30T07:36:58Z</time>
      </trkpt>
      <trkpt lat="43.56001" lon="5.70344">
        <ele>547.36</ele>
        <time>2018-09-30T07:37:27Z</time>
      </trkpt>
      <trkpt lat="43.56016" lon="5.70365">
        <ele>544.06</ele>
        <time>2018-09-30T07:37:38Z</time>
      </trkpt>
      <trkpt lat="43.56029" lon="5.70383">
        <ele>544.52</ele>
        <time>2018-09-30T07:37:47Z</time>
      </trkpt>
      <trkpt lat="43.56042" lon="5.70403">
        <ele>550.48</ele>
        <time>2018-09-30T07:37:55Z</time>
      </trkpt>
      <trkpt lat="43.56056" lon="5.7042">
        <ele>554.36</ele>
        <time>2018-09-30T07:38:03Z</time>
      </trkpt>
      <trkpt lat="43.56069" lon="5.70441">
        <ele>558.77</ele>
        <time>2018-09-30T07:38:12Z</time>
      </trkpt>
      <trkpt lat="43.5608" lon="5.70461">
        <ele>563.09</ele>
        <time>2018-09-30T07:38:21Z</time>
      </trkpt>
      <trkpt lat="43.56093" lon="5.7048">
        <ele>563.69</ele>
        <time>2018-09-30T07:38:30Z</time>
      </trkpt>
      <trkpt lat="43.56106" lon="5.70498">
        <ele>566.7</ele>
        <time>2018-09-30T07:38:39Z</time>
      </trkpt>
      <trkpt lat="43.56119" lon="5.70517">
        <ele>568.2</ele>
        <time>2018-09-30T07:38:50Z</time>
      </trkpt>
      <trkpt lat="43.56131" lon="5.70536">
        <ele>569.2</ele>
        <time>2018-09-30T07:39:00Z</time>
      </trkpt>
      <trkpt lat="43.56141" lon="5.7056">
        <ele>569.23</ele>
        <time>2018-09-30T07:39:11Z</time>
      </trkpt>
      <trkpt lat="43.56151" lon="5.70582">
        <ele>564.19</ele>
        <time>2018-09-30T07:39:20Z</time>
      </trkpt>
      <trkpt lat="43.56158" lon="5.70606">
        <ele>564.93</ele>
        <time>2018-09-30T07:39:28Z</time>
      </trkpt>
      <trkpt lat="43.56165" lon="5.70632">
        <ele>567.44</ele>
        <time>2018-09-30T07:39:36Z</time>
      </trkpt>
      <trkpt lat="43.56171" lon="5.70657">
        <ele>571.4</ele>
        <time>2018-09-30T07:39:43Z</time>
      </trkpt>
      <trkpt lat="43.56174" lon="5.70682">
        <ele>575.31</ele>
        <time>2018-09-30T07:39:50Z</time>
      </trkpt>
      <trkpt lat="43.56179" lon="5.70706">
        <ele>574.11</ele>
        <time>2018-09-30T07:39:56Z</time>
      </trkpt>
      <trkpt lat="43.56187" lon="5.70729">
        <ele>577.87</ele>
        <time>2018-09-30T07:40:04Z</time>
      </trkpt>
      <trkpt lat="43.56193" lon="5.70753">
        <ele>580.16</ele>
        <time>2018-09-30T07:40:10Z</time>
      </trkpt>
      <trkpt lat="43.56198" lon="5.70778">
        <ele>582.27</ele>
        <time>2018-09-30T07:40:18Z</time>
      </trkpt>
      <trkpt lat="43.56203" lon="5.70806">
        <ele>576.84</ele>
        <time>2018-09-30T07:40:24Z</time>
      </trkpt>
      <trkpt lat="43.56206" lon="5.70832">
        <ele>576.13</ele>
        <time>2018-09-30T07:40:28Z</time>
      </trkpt>
      <trkpt lat="43.56212" lon="5.70858">
        <ele>573.35</ele>
        <time>2018-09-30T07:40:32Z</time>
      </trkpt>
      <trkpt lat="43.56218" lon="5.70887">
        <ele>572.02</ele>
        <time>2018-09-30T07:40:36Z</time>
      </trkpt>
      <trkpt lat="43.56227" lon="5.70917">
        <ele>570.56</ele>
        <time>2018-09-30T07:40:40Z</time>
      </trkpt>
      <trkpt lat="43.56237" lon="5.70938">
        <ele>570.99</ele>
        <time>2018-09-30T07:40:43Z</time>
      </trkpt>
      <trkpt lat="43.56253" lon="5.70964">
        <ele>570.42</ele>
        <time>2018-09-30T07:40:45Z</time>
      </trkpt>
      <trkpt lat="43.56267" lon="5.70984">
        <ele>572.08</ele>
        <time>2018-09-30T07:40:49Z</time>
      </trkpt>
      <trkpt lat="43.56278" lon="5.71009">
        <ele>573.04</ele>
        <time>2018-09-30T07:40:52Z</time>
      </trkpt>
      <trkpt lat="43.5629" lon="5.71033">
        <ele>571.8</ele>
        <time>2018-09-30T07:40:55Z</time>
      </trkpt>
      <trkpt lat="43.56306" lon="5.7106">
        <ele>571.83</ele>
        <time>2018-09-30T07:40:58Z</time>
      </trkpt>
      <trkpt lat="43.56317" lon="5.7108">
        <ele>571.89</ele>
        <time>2018-09-30T07:41:00Z</time>
      </trkpt>
      <trkpt lat="43.56335" lon="5.71106">
        <ele>571.93</ele>
        <time>2018-09-30T07:41:03Z</time>
      </trkpt>
      <trkpt lat="43.56356" lon="5.71124">
        <ele>571.98</ele>
        <time>2018-09-30T07:41:06Z</time>
      </trkpt>
      <trkpt lat="43.5637" lon="5.7114">
        <ele>571.63</ele>
        <time>2018-09-30T07:41:07Z</time>
      </trkpt>
      <trkpt lat="43.56387" lon="5.71163">
        <ele>572.02</ele>
        <time>2018-09-30T07:41:11Z</time>
      </trkpt>
      <trkpt lat="43.56406" lon="5.71175">
        <ele>571.69</ele>
        <time>2018-09-30T07:41:13Z</time>
      </trkpt>
      <trkpt lat="43.56427" lon="5.71191">
        <ele>572.51</ele>
        <time>2018-09-30T07:41:17Z</time>
      </trkpt>
      <trkpt lat="43.56445" lon="5.71205">
        <ele>570.55</ele>
        <time>2018-09-30T07:41:19Z</time>
      </trkpt>
      <trkpt lat="43.56461" lon="5.7122">
        <ele>566.85</ele>
        <time>2018-09-30T07:41:23Z</time>
      </trkpt>
      <trkpt lat="43.56479" lon="5.71235">
        <ele>563.53</ele>
        <time>2018-09-30T07:41:27Z</time>
      </trkpt>
      <trkpt lat="43.56497" lon="5.71255">
        <ele>560.03</ele>
        <time>2018-09-30T07:41:31Z</time>
      </trkpt>
      <trkpt lat="43.56509" lon="5.71276">
        <ele>559.24</ele>
        <time>2018-09-30T07:41:34Z</time>
      </trkpt>
      <trkpt lat="43.5652" lon="5.71302">
        <ele>562.47</ele>
        <time>2018-09-30T07:41:37Z</time>
      </trkpt>
      <trkpt lat="43.56527" lon="5.71328">
        <ele>563.69</ele>
        <time>2018-09-30T07:41:39Z</time>
      </trkpt>
      <trkpt lat="43.56536" lon="5.71356">
        <ele>560.86</ele>
        <time>2018-09-30T07:41:44Z</time>
      </trkpt>
      <trkpt lat="43.5654" lon="5.71386">
        <ele>557.08</ele>
        <time>2018-09-30T07:41:48Z</time>
      </trkpt>
      <trkpt lat="43.56541" lon="5.71413">
        <ele>557.64</ele>
        <time>2018-09-30T07:41:53Z</time>
      </trkpt>
      <trkpt lat="43.56547" lon="5.71438">
        <ele>557.4</ele>
        <time>2018-09-30T07:41:58Z</time>
      </trkpt>
      <trkpt lat="43.5655" lon="5.71463">
        <ele>557.81</ele>
        <time>2018-09-30T07:42:03Z</time>
      </trkpt>
      <trkpt lat="43.56561" lon="5.71488">
        <ele>557.04</ele>
        <time>2018-09-30T07:42:09Z</time>
      </trkpt>
      <trkpt lat="43.56575" lon="5.71509">
        <ele>557.59</ele>
        <time>2018-09-30T07:42:15Z</time>
      </trkpt>
      <trkpt lat="43.56595" lon="5.71521">
        <ele>559.33</ele>
        <time>2018-09-30T07:42:22Z</time>
      </trkpt>
      <trkpt lat="43.56616" lon="5.71529">
        <ele>558.01</ele>
        <time>2018-09-30T07:42:27Z</time>
      </trkpt>
      <trkpt lat="43.56632" lon="5.71544">
        <ele>562.06</ele>
        <time>2018-09-30T07:42:34Z</time>
      </trkpt>
      <trkpt lat="43.56649" lon="5.71554">
        <ele>563.46</ele>
        <time>2018-09-30T07:42:38Z</time>
      </trkpt>
      <trkpt lat="43.56667" lon="5.71567">
        <ele>562.74</ele>
        <time>2018-09-30T07:42:46Z</time>
      </trkpt>
      <trkpt lat="43.56685" lon="5.71574">
        <ele>566.03</ele>
        <time>2018-09-30T07:42:52Z</time>
      </trkpt>
      <trkpt lat="43.56704" lon="5.71572">
        <ele>567.69</ele>
        <time>2018-09-30T07:43:02Z</time>
      </trkpt>
      <trkpt lat="43.56722" lon="5.7157">
        <ele>563.9</ele>
        <time>2018-09-30T07:43:10Z</time>
      </trkpt>
      <trkpt lat="43.56743" lon="5.71562">
        <ele>567.81</ele>
        <time>2018-09-30T07:43:18Z</time>
      </trkpt>
      <trkpt lat="43.56761" lon="5.71559">
        <ele>565.16</ele>
        <time>2018-09-30T07:43:29Z</time>
      </trkpt>
      <trkpt lat="43.56781" lon="5.71555">
        <ele>563.57</ele>
        <time>2018-09-30T07:43:43Z</time>
      </trkpt>
      <trkpt lat="43.56801" lon="5.71557">
        <ele>566.91</ele>
        <time>2018-09-30T07:43:55Z</time>
      </trkpt>
      <trkpt lat="43.56822" lon="5.71549">
        <ele>569.7</ele>
        <time>2018-09-30T07:44:03Z</time>
      </trkpt>
      <trkpt lat="43.56842" lon="5.7154">
        <ele>568.76</ele>
        <time>2018-09-30T07:44:08Z</time>
      </trkpt>
      <trkpt lat="43.56862" lon="5.71531">
        <ele>567</ele>
        <time>2018-09-30T07:44:13Z</time>
      </trkpt>
      <trkpt lat="43.5688" lon="5.71523">
        <ele>564.33</ele>
        <time>2018-09-30T07:44:17Z</time>
      </trkpt>
      <trkpt lat="43.56898" lon="5.71522">
        <ele>562.61</ele>
        <time>2018-09-30T07:44:23Z</time>
      </trkpt>
      <trkpt lat="43.56918" lon="5.71525">
        <ele>561.04</ele>
        <time>2018-09-30T07:44:26Z</time>
      </trkpt>
      <trkpt lat="43.56942" lon="5.71528">
        <ele>560.76</ele>
        <time>2018-09-30T07:44:30Z</time>
      </trkpt>
      <trkpt lat="43.56961" lon="5.71539">
        <ele>559.07</ele>
        <time>2018-09-30T07:44:33Z</time>
      </trkpt>
      <trkpt lat="43.56979" lon="5.71545">
        <ele>557.33</ele>
        <time>2018-09-30T07:44:35Z</time>
      </trkpt>
      <trkpt lat="43.57001" lon="5.71557">
        <ele>557.58</ele>
        <time>2018-09-30T07:44:38Z</time>
      </trkpt>
      <trkpt lat="43.57023" lon="5.7157">
        <ele>557.77</ele>
        <time>2018-09-30T07:44:41Z</time>
      </trkpt>
      <trkpt lat="43.57039" lon="5.71584">
        <ele>559.05</ele>
        <time>2018-09-30T07:44:44Z</time>
      </trkpt>
      <trkpt lat="43.57055" lon="5.71596">
        <ele>558.89</ele>
        <time>2018-09-30T07:44:46Z</time>
      </trkpt>
      <trkpt lat="43.57071" lon="5.7161">
        <ele>559.19</ele>
        <time>2018-09-30T07:44:48Z</time>
      </trkpt>
      <trkpt lat="43.57086" lon="5.71629">
        <ele>558.13</ele>
        <time>2018-09-30T07:44:50Z</time>
      </trkpt>
      <trkpt lat="43.57097" lon="5.71649">
        <ele>556.38</ele>
        <time>2018-09-30T07:44:54Z</time>
      </trkpt>
      <trkpt lat="43.57107" lon="5.71673">
        <ele>551.25</ele>
        <time>2018-09-30T07:44:57Z</time>
      </trkpt>
      <trkpt lat="43.57119" lon="5.71698">
        <ele>545.32</ele>
        <time>2018-09-30T07:45:00Z</time>
      </trkpt>
      <trkpt lat="43.57133" lon="5.71727">
        <ele>542.14</ele>
        <time>2018-09-30T07:45:03Z</time>
      </trkpt>
      <trkpt lat="43.57145" lon="5.71755">
        <ele>537.75</ele>
        <time>2018-09-30T07:45:06Z</time>
      </trkpt>
      <trkpt lat="43.57161" lon="5.71783">
        <ele>536.87</ele>
        <time>2018-09-30T07:45:09Z</time>
      </trkpt>
      <trkpt lat="43.57176" lon="5.71808">
        <ele>536.53</ele>
        <time>2018-09-30T07:45:12Z</time>
      </trkpt>
      <trkpt lat="43.5719" lon="5.71837">
        <ele>534.48</ele>
        <time>2018-09-30T07:45:15Z</time>
      </trkpt>
      <trkpt lat="43.57201" lon="5.71856">
        <ele>534.43</ele>
        <time>2018-09-30T07:45:17Z</time>
      </trkpt>
      <trkpt lat="43.57215" lon="5.71887">
        <ele>530.26</ele>
        <time>2018-09-30T07:45:20Z</time>
      </trkpt>
      <trkpt lat="43.5723" lon="5.71914">
        <ele>526.91</ele>
        <time>2018-09-30T07:45:23Z</time>
      </trkpt>
      <trkpt lat="43.57247" lon="5.71941">
        <ele>525.57</ele>
        <time>2018-09-30T07:45:26Z</time>
      </trkpt>
      <trkpt lat="43.57266" lon="5.71966">
        <ele>525.14</ele>
        <time>2018-09-30T07:45:29Z</time>
      </trkpt>
      <trkpt lat="43.5728" lon="5.7199">
        <ele>522.9</ele>
        <time>2018-09-30T07:45:31Z</time>
      </trkpt>
      <trkpt lat="43.57296" lon="5.72007">
        <ele>522.9</ele>
        <time>2018-09-30T07:45:35Z</time>
      </trkpt>
      <trkpt lat="43.57311" lon="5.72025">
        <ele>518.24</ele>
        <time>2018-09-30T07:45:37Z</time>
      </trkpt>
      <trkpt lat="43.57328" lon="5.72045">
        <ele>517.54</ele>
        <time>2018-09-30T07:45:41Z</time>
      </trkpt>
      <trkpt lat="43.57344" lon="5.72064">
        <ele>518.59</ele>
        <time>2018-09-30T07:45:45Z</time>
      </trkpt>
      <trkpt lat="43.57358" lon="5.72086">
        <ele>519</ele>
        <time>2018-09-30T07:45:49Z</time>
      </trkpt>
      <trkpt lat="43.57363" lon="5.72062">
        <ele>519.72</ele>
        <time>2018-09-30T07:49:31Z</time>
      </trkpt>
      <trkpt lat="43.57363" lon="5.72034">
        <ele>516.38</ele>
        <time>2018-09-30T07:49:38Z</time>
      </trkpt>
      <trkpt lat="43.57353" lon="5.72011">
        <ele>519.73</ele>
        <time>2018-09-30T07:49:44Z</time>
      </trkpt>
      <trkpt lat="43.57338" lon="5.71994">
        <ele>514.06</ele>
        <time>2018-09-30T07:49:50Z</time>
      </trkpt>
      <trkpt lat="43.57319" lon="5.71982">
        <ele>507.92</ele>
        <time>2018-09-30T07:49:55Z</time>
      </trkpt>
      <trkpt lat="43.57301" lon="5.71968">
        <ele>507.28</ele>
        <time>2018-09-30T07:50:00Z</time>
      </trkpt>
      <trkpt lat="43.57284" lon="5.71952">
        <ele>509.87</ele>
        <time>2018-09-30T07:50:04Z</time>
      </trkpt>
      <trkpt lat="43.57275" lon="5.71927">
        <ele>510.96</ele>
        <time>2018-09-30T07:50:09Z</time>
      </trkpt>
      <trkpt lat="43.57269" lon="5.71901">
        <ele>508.29</ele>
        <time>2018-09-30T07:50:15Z</time>
      </trkpt>
      <trkpt lat="43.57268" lon="5.71875">
        <ele>507.68</ele>
        <time>2018-09-30T07:50:19Z</time>
      </trkpt>
      <trkpt lat="43.57275" lon="5.71847">
        <ele>508.03</ele>
        <time>2018-09-30T07:50:25Z</time>
      </trkpt>
      <trkpt lat="43.57291" lon="5.71825">
        <ele>508.63</ele>
        <time>2018-09-30T07:50:29Z</time>
      </trkpt>
      <trkpt lat="43.57301" lon="5.71794">
        <ele>507.13</ele>
        <time>2018-09-30T07:50:33Z</time>
      </trkpt>
      <trkpt lat="43.57304" lon="5.71769">
        <ele>506.91</ele>
        <time>2018-09-30T07:50:36Z</time>
      </trkpt>
      <trkpt lat="43.57305" lon="5.71739">
        <ele>506.63</ele>
        <time>2018-09-30T07:50:40Z</time>
      </trkpt>
      <trkpt lat="43.57307" lon="5.7171">
        <ele>504.44</ele>
        <time>2018-09-30T07:50:44Z</time>
      </trkpt>
      <trkpt lat="43.57294" lon="5.71691">
        <ele>504.39</ele>
        <time>2018-09-30T07:50:47Z</time>
      </trkpt>
      <trkpt lat="43.57281" lon="5.71669">
        <ele>503.27</ele>
        <time>2018-09-30T07:50:49Z</time>
      </trkpt>
      <trkpt lat="43.5727" lon="5.71645">
        <ele>502.77</ele>
        <time>2018-09-30T07:50:54Z</time>
      </trkpt>
      <trkpt lat="43.57258" lon="5.71625">
        <ele>502.5</ele>
        <time>2018-09-30T07:50:57Z</time>
      </trkpt>
      <trkpt lat="43.57244" lon="5.71606">
        <ele>499.55</ele>
        <time>2018-09-30T07:51:00Z</time>
      </trkpt>
      <trkpt lat="43.57229" lon="5.71584">
        <ele>497.32</ele>
        <time>2018-09-30T07:51:04Z</time>
      </trkpt>
      <trkpt lat="43.57215" lon="5.7156">
        <ele>494.53</ele>
        <time>2018-09-30T07:51:07Z</time>
      </trkpt>
      <trkpt lat="43.57221" lon="5.71532">
        <ele>492.48</ele>
        <time>2018-09-30T07:51:14Z</time>
      </trkpt>
      <trkpt lat="43.57244" lon="5.71526">
        <ele>492.08</ele>
        <time>2018-09-30T07:53:56Z</time>
      </trkpt>
      <trkpt lat="43.57271" lon="5.71511">
        <ele>491.05</ele>
        <time>2018-09-30T07:54:00Z</time>
      </trkpt>
      <trkpt lat="43.57295" lon="5.7151">
        <ele>489.38</ele>
        <time>2018-09-30T07:54:03Z</time>
      </trkpt>
      <trkpt lat="43.57319" lon="5.71523">
        <ele>485.65</ele>
        <time>2018-09-30T07:54:06Z</time>
      </trkpt>
      <trkpt lat="43.57336" lon="5.7153">
        <ele>484.23</ele>
        <time>2018-09-30T07:54:09Z</time>
      </trkpt>
      <trkpt lat="43.57355" lon="5.71532">
        <ele>483.92</ele>
        <time>2018-09-30T07:54:12Z</time>
      </trkpt>
      <trkpt lat="43.57374" lon="5.71524">
        <ele>484.34</ele>
        <time>2018-09-30T07:54:15Z</time>
      </trkpt>
      <trkpt lat="43.5739" lon="5.71506">
        <ele>485.1</ele>
        <time>2018-09-30T07:54:19Z</time>
      </trkpt>
      <trkpt lat="43.57377" lon="5.71483">
        <ele>480.3</ele>
        <time>2018-09-30T07:54:21Z</time>
      </trkpt>
      <trkpt lat="43.57363" lon="5.71463">
        <ele>476.25</ele>
        <time>2018-09-30T07:54:27Z</time>
      </trkpt>
      <trkpt lat="43.5735" lon="5.71442">
        <ele>474.94</ele>
        <time>2018-09-30T07:54:31Z</time>
      </trkpt>
      <trkpt lat="43.5734" lon="5.71416">
        <ele>474.56</ele>
        <time>2018-09-30T07:54:35Z</time>
      </trkpt>
      <trkpt lat="43.5733" lon="5.71389">
        <ele>474.75</ele>
        <time>2018-09-30T07:54:38Z</time>
      </trkpt>
      <trkpt lat="43.57323" lon="5.71359">
        <ele>473.63</ele>
        <time>2018-09-30T07:54:41Z</time>
      </trkpt>
      <trkpt lat="43.57309" lon="5.71334">
        <ele>471.75</ele>
        <time>2018-09-30T07:54:44Z</time>
      </trkpt>
      <trkpt lat="43.5729" lon="5.71311">
        <ele>471.42</ele>
        <time>2018-09-30T07:54:48Z</time>
      </trkpt>
      <trkpt lat="43.57271" lon="5.71299">
        <ele>471.52</ele>
        <time>2018-09-30T07:54:52Z</time>
      </trkpt>
      <trkpt lat="43.57271" lon="5.71273">
        <ele>470.83</ele>
        <time>2018-09-30T07:54:58Z</time>
      </trkpt>
      <trkpt lat="43.57269" lon="5.71248">
        <ele>462.51</ele>
        <time>2018-09-30T07:55:49Z</time>
      </trkpt>
      <trkpt lat="43.57263" lon="5.71221">
        <ele>462.21</ele>
        <time>2018-09-30T07:55:54Z</time>
      </trkpt>
      <trkpt lat="43.57256" lon="5.71193">
        <ele>461.46</ele>
        <time>2018-09-30T07:56:00Z</time>
      </trkpt>
      <trkpt lat="43.57257" lon="5.71162">
        <ele>460.39</ele>
        <time>2018-09-30T07:56:11Z</time>
      </trkpt>
      <trkpt lat="43.57269" lon="5.71143">
        <ele>459.64</ele>
        <time>2018-09-30T07:56:17Z</time>
      </trkpt>
      <trkpt lat="43.57272" lon="5.71111">
        <ele>458.54</ele>
        <time>2018-09-30T07:56:24Z</time>
      </trkpt>
      <trkpt lat="43.57275" lon="5.71086">
        <ele>456.07</ele>
        <time>2018-09-30T07:56:30Z</time>
      </trkpt>
      <trkpt lat="43.57287" lon="5.71064">
        <ele>457.1</ele>
        <time>2018-09-30T07:56:40Z</time>
      </trkpt>
      <trkpt lat="43.57285" lon="5.71033">
        <ele>455.73</ele>
        <time>2018-09-30T07:56:47Z</time>
      </trkpt>
      <trkpt lat="43.57281" lon="5.71004">
        <ele>455.2</ele>
        <time>2018-09-30T07:56:54Z</time>
      </trkpt>
      <trkpt lat="43.57281" lon="5.70978">
        <ele>453.16</ele>
        <time>2018-09-30T07:57:02Z</time>
      </trkpt>
      <trkpt lat="43.57265" lon="5.70965">
        <ele>449.9</ele>
        <time>2018-09-30T07:57:07Z</time>
      </trkpt>
      <trkpt lat="43.57253" lon="5.70944">
        <ele>446.53</ele>
        <time>2018-09-30T07:57:13Z</time>
      </trkpt>
      <trkpt lat="43.57234" lon="5.70935">
        <ele>442.15</ele>
        <time>2018-09-30T07:57:22Z</time>
      </trkpt>
      <trkpt lat="43.57225" lon="5.70957">
        <ele>443.13</ele>
        <time>2018-09-30T07:57:30Z</time>
      </trkpt>
      <trkpt lat="43.57214" lon="5.70976">
        <ele>443.57</ele>
        <time>2018-09-30T07:57:39Z</time>
      </trkpt>
      <trkpt lat="43.57197" lon="5.70989">
        <ele>444.32</ele>
        <time>2018-09-30T07:57:46Z</time>
      </trkpt>
      <trkpt lat="43.57181" lon="5.70977">
        <ele>446.07</ele>
        <time>2018-09-30T07:57:51Z</time>
      </trkpt>
      <trkpt lat="43.57168" lon="5.70956">
        <ele>450.72</ele>
        <time>2018-09-30T07:58:00Z</time>
      </trkpt>
      <trkpt lat="43.57154" lon="5.7094">
        <ele>450.21</ele>
        <time>2018-09-30T07:58:08Z</time>
      </trkpt>
      <trkpt lat="43.57141" lon="5.70924">
        <ele>446.37</ele>
        <time>2018-09-30T07:58:17Z</time>
      </trkpt>
      <trkpt lat="43.57124" lon="5.70912">
        <ele>449.63</ele>
        <time>2018-09-30T07:58:21Z</time>
      </trkpt>
      <trkpt lat="43.5711" lon="5.70887">
        <ele>444.87</ele>
        <time>2018-09-30T07:58:31Z</time>
      </trkpt>
      <trkpt lat="43.57093" lon="5.70878">
        <ele>452.94</ele>
        <time>2018-09-30T07:58:38Z</time>
      </trkpt>
      <trkpt lat="43.57073" lon="5.70872">
        <ele>453.06</ele>
        <time>2018-09-30T07:58:44Z</time>
      </trkpt>
      <trkpt lat="43.5705" lon="5.70872">
        <ele>448.67</ele>
        <time>2018-09-30T07:58:52Z</time>
      </trkpt>
      <trkpt lat="43.57032" lon="5.7087">
        <ele>451.07</ele>
        <time>2018-09-30T07:58:59Z</time>
      </trkpt>
      <trkpt lat="43.57018" lon="5.70887">
        <ele>456.49</ele>
        <time>2018-09-30T07:59:05Z</time>
      </trkpt>
      <trkpt lat="43.57003" lon="5.70906">
        <ele>459.6</ele>
        <time>2018-09-30T07:59:12Z</time>
      </trkpt>
      <trkpt lat="43.56991" lon="5.70927">
        <ele>464.1</ele>
        <time>2018-09-30T07:59:19Z</time>
      </trkpt>
      <trkpt lat="43.56976" lon="5.70908">
        <ele>463.81</ele>
        <time>2018-09-30T07:59:27Z</time>
      </trkpt>
      <trkpt lat="43.5697" lon="5.70883">
        <ele>469.98</ele>
        <time>2018-09-30T07:59:35Z</time>
      </trkpt>
      <trkpt lat="43.56952" lon="5.70881">
        <ele>466.36</ele>
        <time>2018-09-30T07:59:42Z</time>
      </trkpt>
      <trkpt lat="43.56938" lon="5.70901">
        <ele>462.77</ele>
        <time>2018-09-30T07:59:50Z</time>
      </trkpt>
      <trkpt lat="43.56926" lon="5.70921">
        <ele>463.07</ele>
        <time>2018-09-30T07:59:57Z</time>
      </trkpt>
      <trkpt lat="43.56907" lon="5.70928">
        <ele>459.96</ele>
        <time>2018-09-30T08:00:06Z</time>
      </trkpt>
      <trkpt lat="43.56896" lon="5.70905">
        <ele>459.25</ele>
        <time>2018-09-30T08:01:47Z</time>
      </trkpt>
      <trkpt lat="43.56886" lon="5.70883">
        <ele>462.86</ele>
        <time>2018-09-30T08:01:52Z</time>
      </trkpt>
      <trkpt lat="43.56875" lon="5.70862">
        <ele>467.95</ele>
        <time>2018-09-30T08:02:01Z</time>
      </trkpt>
      <trkpt lat="43.5686" lon="5.70847">
        <ele>468.05</ele>
        <time>2018-09-30T08:02:08Z</time>
      </trkpt>
      <trkpt lat="43.56843" lon="5.70833">
        <ele>467.25</ele>
        <time>2018-09-30T08:02:16Z</time>
      </trkpt>
      <trkpt lat="43.56828" lon="5.70815">
        <ele>471.85</ele>
        <time>2018-09-30T08:02:24Z</time>
      </trkpt>
      <trkpt lat="43.56811" lon="5.70807">
        <ele>473.66</ele>
        <time>2018-09-30T08:02:31Z</time>
      </trkpt>
      <trkpt lat="43.56792" lon="5.70807">
        <ele>473.32</ele>
        <time>2018-09-30T08:02:37Z</time>
      </trkpt>
      <trkpt lat="43.56774" lon="5.70813">
        <ele>475.61</ele>
        <time>2018-09-30T08:02:45Z</time>
      </trkpt>
      <trkpt lat="43.56764" lon="5.70837">
        <ele>486.85</ele>
        <time>2018-09-30T08:02:52Z</time>
      </trkpt>
      <trkpt lat="43.56764" lon="5.70863">
        <ele>490.22</ele>
        <time>2018-09-30T08:02:59Z</time>
      </trkpt>
      <trkpt lat="43.56756" lon="5.70889">
        <ele>487.98</ele>
        <time>2018-09-30T08:03:06Z</time>
      </trkpt>
      <trkpt lat="43.56739" lon="5.70899">
        <ele>487.62</ele>
        <time>2018-09-30T08:03:12Z</time>
      </trkpt>
      <trkpt lat="43.56721" lon="5.70893">
        <ele>485.54</ele>
        <time>2018-09-30T08:03:19Z</time>
      </trkpt>
      <trkpt lat="43.56713" lon="5.70868">
        <ele>488.58</ele>
        <time>2018-09-30T08:03:27Z</time>
      </trkpt>
      <trkpt lat="43.5672" lon="5.70843">
        <ele>487.88</ele>
        <time>2018-09-30T08:03:34Z</time>
      </trkpt>
      <trkpt lat="43.56718" lon="5.70816">
        <ele>480.71</ele>
        <time>2018-09-30T08:03:41Z</time>
      </trkpt>
      <trkpt lat="43.56705" lon="5.70791">
        <ele>479.72</ele>
        <time>2018-09-30T08:03:49Z</time>
      </trkpt>
      <trkpt lat="43.56686" lon="5.70784">
        <ele>482.65</ele>
        <time>2018-09-30T08:03:55Z</time>
      </trkpt>
      <trkpt lat="43.56664" lon="5.70777">
        <ele>480.98</ele>
        <time>2018-09-30T08:04:01Z</time>
      </trkpt>
      <trkpt lat="43.56645" lon="5.70771">
        <ele>483.62</ele>
        <time>2018-09-30T08:04:07Z</time>
      </trkpt>
      <trkpt lat="43.56627" lon="5.70761">
        <ele>483.73</ele>
        <time>2018-09-30T08:04:14Z</time>
      </trkpt>
      <trkpt lat="43.56621" lon="5.70735">
        <ele>485.04</ele>
        <time>2018-09-30T08:04:21Z</time>
      </trkpt>
      <trkpt lat="43.56629" lon="5.7071">
        <ele>484.07</ele>
        <time>2018-09-30T08:04:28Z</time>
      </trkpt>
      <trkpt lat="43.5664" lon="5.70687">
        <ele>483.38</ele>
        <time>2018-09-30T08:04:33Z</time>
      </trkpt>
      <trkpt lat="43.56647" lon="5.70663">
        <ele>482.32</ele>
        <time>2018-09-30T08:04:41Z</time>
      </trkpt>
      <trkpt lat="43.56627" lon="5.70659">
        <ele>484.97</ele>
        <time>2018-09-30T08:04:49Z</time>
      </trkpt>
      <trkpt lat="43.56609" lon="5.70661">
        <ele>485.74</ele>
        <time>2018-09-30T08:04:56Z</time>
      </trkpt>
      <trkpt lat="43.56593" lon="5.70648">
        <ele>487.48</ele>
        <time>2018-09-30T08:05:03Z</time>
      </trkpt>
      <trkpt lat="43.56579" lon="5.70626">
        <ele>486.95</ele>
        <time>2018-09-30T08:05:10Z</time>
      </trkpt>
      <trkpt lat="43.5658" lon="5.70601">
        <ele>480.33</ele>
        <time>2018-09-30T08:05:15Z</time>
      </trkpt>
      <trkpt lat="43.566" lon="5.70598">
        <ele>488.43</ele>
        <time>2018-09-30T08:05:34Z</time>
      </trkpt>
      <trkpt lat="43.56615" lon="5.70585">
        <ele>486.67</ele>
        <time>2018-09-30T08:05:41Z</time>
      </trkpt>
      <trkpt lat="43.56621" lon="5.70559">
        <ele>487.87</ele>
        <time>2018-09-30T08:05:49Z</time>
      </trkpt>
      <trkpt lat="43.5661" lon="5.70538">
        <ele>488.61</ele>
        <time>2018-09-30T08:05:57Z</time>
      </trkpt>
      <trkpt lat="43.56593" lon="5.70524">
        <ele>493.48</ele>
        <time>2018-09-30T08:06:05Z</time>
      </trkpt>
      <trkpt lat="43.56577" lon="5.70513">
        <ele>494.74</ele>
        <time>2018-09-30T08:06:12Z</time>
      </trkpt>
      <trkpt lat="43.56562" lon="5.70497">
        <ele>494.54</ele>
        <time>2018-09-30T08:06:19Z</time>
      </trkpt>
      <trkpt lat="43.56551" lon="5.70475">
        <ele>496.01</ele>
        <time>2018-09-30T08:06:26Z</time>
      </trkpt>
      <trkpt lat="43.56548" lon="5.70446">
        <ele>496.56</ele>
        <time>2018-09-30T08:06:33Z</time>
      </trkpt>
      <trkpt lat="43.56547" lon="5.70417">
        <ele>495.71</ele>
        <time>2018-09-30T08:06:39Z</time>
      </trkpt>
      <trkpt lat="43.56541" lon="5.70393">
        <ele>494.55</ele>
        <time>2018-09-30T08:06:45Z</time>
      </trkpt>
      <trkpt lat="43.56535" lon="5.70367">
        <ele>493.63</ele>
        <time>2018-09-30T08:06:50Z</time>
      </trkpt>
      <trkpt lat="43.56529" lon="5.70343">
        <ele>495.62</ele>
        <time>2018-09-30T08:06:55Z</time>
      </trkpt>
      <trkpt lat="43.56522" lon="5.70319">
        <ele>495.5</ele>
        <time>2018-09-30T08:07:00Z</time>
      </trkpt>
      <trkpt lat="43.56519" lon="5.70292">
        <ele>492.96</ele>
        <time>2018-09-30T08:07:05Z</time>
      </trkpt>
      <trkpt lat="43.56513" lon="5.70265">
        <ele>494.43</ele>
        <time>2018-09-30T08:07:12Z</time>
      </trkpt>
      <trkpt lat="43.56499" lon="5.70244">
        <ele>500.62</ele>
        <time>2018-09-30T08:07:19Z</time>
      </trkpt>
      <trkpt lat="43.56492" lon="5.70217">
        <ele>507.14</ele>
        <time>2018-09-30T08:07:26Z</time>
      </trkpt>
      <trkpt lat="43.56497" lon="5.7019">
        <ele>505.74</ele>
        <time>2018-09-30T08:07:33Z</time>
      </trkpt>
      <trkpt lat="43.56505" lon="5.70166">
        <ele>506.14</ele>
        <time>2018-09-30T08:07:41Z</time>
      </trkpt>
      <trkpt lat="43.565" lon="5.70139">
        <ele>506.51</ele>
        <time>2018-09-30T08:07:50Z</time>
      </trkpt>
      <trkpt lat="43.56504" lon="5.70109">
        <ele>497.7</ele>
        <time>2018-09-30T08:13:51Z</time>
      </trkpt>
      <trkpt lat="43.56511" lon="5.70084">
        <ele>500.04</ele>
        <time>2018-09-30T08:13:57Z</time>
      </trkpt>
      <trkpt lat="43.5652" lon="5.7007">
        <ele>512</ele>
      </trkpt>
      <trkpt lat="43.56521" lon="5.70042">
        <ele>513.1</ele>
      </trkpt>
      <trkpt lat="43.56506" lon="5.7001">
        <ele>499.32</ele>
        <time>2018-09-30T08:14:25Z</time>
      </trkpt>
      <trkpt lat="43.56506" lon="5.70007">
        <ele>512.25</ele>
        <time>2018-09-30T08:17:10Z</time>
      </trkpt>
      <trkpt lat="43.56506" lon="5.69979">
        <ele>509.03</ele>
        <time>2018-09-30T08:17:18Z</time>
      </trkpt>
      <trkpt lat="43.56521" lon="5.69963">
        <ele>510.19</ele>
        <time>2018-09-30T08:17:26Z</time>
      </trkpt>
      <trkpt lat="43.56538" lon="5.69952">
        <ele>512.22</ele>
        <time>2018-09-30T08:17:33Z</time>
      </trkpt>
      <trkpt lat="43.56548" lon="5.6993">
        <ele>508.99</ele>
        <time>2018-09-30T08:17:38Z</time>
      </trkpt>
      <trkpt lat="43.56549" lon="5.69905">
        <ele>508.82</ele>
        <time>2018-09-30T08:17:43Z</time>
      </trkpt>
      <trkpt lat="43.56545" lon="5.69878">
        <ele>505.6</ele>
        <time>2018-09-30T08:17:51Z</time>
      </trkpt>
      <trkpt lat="43.56545" lon="5.69853">
        <ele>501.31</ele>
        <time>2018-09-30T08:17:57Z</time>
      </trkpt>
      <trkpt lat="43.56554" lon="5.69829">
        <ele>501.99</ele>
        <time>2018-09-30T08:18:03Z</time>
      </trkpt>
      <trkpt lat="43.56567" lon="5.69809">
        <ele>505.25</ele>
        <time>2018-09-30T08:18:10Z</time>
      </trkpt>
      <trkpt lat="43.56581" lon="5.69792">
        <ele>507.33</ele>
        <time>2018-09-30T08:18:16Z</time>
      </trkpt>
      <trkpt lat="43.56591" lon="5.6977">
        <ele>508.09</ele>
        <time>2018-09-30T08:18:22Z</time>
      </trkpt>
      <trkpt lat="43.56593" lon="5.69744">
        <ele>509.42</ele>
        <time>2018-09-30T08:18:29Z</time>
      </trkpt>
      <trkpt lat="43.56574" lon="5.69733">
        <ele>512.07</ele>
        <time>2018-09-30T08:18:37Z</time>
      </trkpt>
      <trkpt lat="43.56556" lon="5.69737">
        <ele>516.74</ele>
        <time>2018-09-30T08:18:44Z</time>
      </trkpt>
      <trkpt lat="43.56535" lon="5.6973">
        <ele>514.75</ele>
        <time>2018-09-30T08:18:51Z</time>
      </trkpt>
      <trkpt lat="43.56519" lon="5.69716">
        <ele>513.97</ele>
        <time>2018-09-30T08:18:57Z</time>
      </trkpt>
      <trkpt lat="43.56515" lon="5.6969">
        <ele>515.86</ele>
        <time>2018-09-30T08:19:03Z</time>
      </trkpt>
      <trkpt lat="43.56527" lon="5.69669">
        <ele>514.58</ele>
        <time>2018-09-30T08:19:10Z</time>
      </trkpt>
      <trkpt lat="43.56529" lon="5.69642">
        <ele>513.98</ele>
        <time>2018-09-30T08:19:16Z</time>
      </trkpt>
      <trkpt lat="43.56519" lon="5.6962">
        <ele>508.47</ele>
        <time>2018-09-30T08:19:25Z</time>
      </trkpt>
      <trkpt lat="43.56507" lon="5.69598">
        <ele>510.6</ele>
        <time>2018-09-30T08:19:33Z</time>
      </trkpt>
      <trkpt lat="43.56488" lon="5.69589">
        <ele>510.53</ele>
        <time>2018-09-30T08:19:41Z</time>
      </trkpt>
      <trkpt lat="43.56469" lon="5.69589">
        <ele>510.91</ele>
        <time>2018-09-30T08:19:48Z</time>
      </trkpt>
      <trkpt lat="43.56451" lon="5.69584">
        <ele>514.88</ele>
        <time>2018-09-30T08:19:55Z</time>
      </trkpt>
      <trkpt lat="43.56434" lon="5.69572">
        <ele>528.35</ele>
        <time>2018-09-30T08:20:02Z</time>
      </trkpt>
      <trkpt lat="43.56435" lon="5.69544">
        <ele>528.71</ele>
        <time>2018-09-30T08:20:09Z</time>
      </trkpt>
      <trkpt lat="43.56432" lon="5.69519">
        <ele>527.26</ele>
        <time>2018-09-30T08:20:15Z</time>
      </trkpt>
      <trkpt lat="43.56428" lon="5.69493">
        <ele>520.98</ele>
        <time>2018-09-30T08:20:20Z</time>
      </trkpt>
      <trkpt lat="43.56422" lon="5.69468">
        <ele>523.27</ele>
        <time>2018-09-30T08:20:26Z</time>
      </trkpt>
      <trkpt lat="43.56423" lon="5.6944">
        <ele>519.37</ele>
        <time>2018-09-30T08:20:33Z</time>
      </trkpt>
      <trkpt lat="43.56434" lon="5.6942">
        <ele>521.62</ele>
        <time>2018-09-30T08:20:42Z</time>
      </trkpt>
      <trkpt lat="43.56439" lon="5.69395">
        <ele>519.89</ele>
        <time>2018-09-30T08:20:49Z</time>
      </trkpt>
      <trkpt lat="43.56445" lon="5.69371">
        <ele>519.73</ele>
        <time>2018-09-30T08:20:56Z</time>
      </trkpt>
      <trkpt lat="43.56447" lon="5.69346">
        <ele>522.09</ele>
        <time>2018-09-30T08:21:04Z</time>
      </trkpt>
      <trkpt lat="43.56457" lon="5.69326">
        <ele>522.53</ele>
        <time>2018-09-30T08:21:13Z</time>
      </trkpt>
      <trkpt lat="43.56455" lon="5.693">
        <ele>522.16</ele>
        <time>2018-09-30T08:21:20Z</time>
      </trkpt>
      <trkpt lat="43.56457" lon="5.69271">
        <ele>519.42</ele>
        <time>2018-09-30T08:21:29Z</time>
      </trkpt>
      <trkpt lat="43.56457" lon="5.69246">
        <ele>521.44</ele>
        <time>2018-09-30T08:21:37Z</time>
      </trkpt>
      <trkpt lat="43.56454" lon="5.69221">
        <ele>523.89</ele>
        <time>2018-09-30T08:21:43Z</time>
      </trkpt>
      <trkpt lat="43.56445" lon="5.69197">
        <ele>523.51</ele>
        <time>2018-09-30T08:21:50Z</time>
      </trkpt>
      <trkpt lat="43.56443" lon="5.69169">
        <ele>524.98</ele>
        <time>2018-09-30T08:22:01Z</time>
      </trkpt>
      <trkpt lat="43.5644" lon="5.69143">
        <ele>516.61</ele>
        <time>2018-09-30T08:22:09Z</time>
      </trkpt>
      <trkpt lat="43.56446" lon="5.69116">
        <ele>522.32</ele>
        <time>2018-09-30T08:22:18Z</time>
      </trkpt>
      <trkpt lat="43.56454" lon="5.69094">
        <ele>524.13</ele>
        <time>2018-09-30T08:22:26Z</time>
      </trkpt>
      <trkpt lat="43.5647" lon="5.69076">
        <ele>526.32</ele>
        <time>2018-09-30T08:22:36Z</time>
      </trkpt>
      <trkpt lat="43.56478" lon="5.69052">
        <ele>526.35</ele>
        <time>2018-09-30T08:22:46Z</time>
      </trkpt>
      <trkpt lat="43.5646" lon="5.69044">
        <ele>524.84</ele>
        <time>2018-09-30T08:24:26Z</time>
      </trkpt>
      <trkpt lat="43.56446" lon="5.69027">
        <ele>523.48</ele>
        <time>2018-09-30T08:24:55Z</time>
      </trkpt>
      <trkpt lat="43.56427" lon="5.69022">
        <ele>525.92</ele>
        <time>2018-09-30T08:25:02Z</time>
      </trkpt>
      <trkpt lat="43.56408" lon="5.69026">
        <ele>526.8</ele>
        <time>2018-09-30T08:25:08Z</time>
      </trkpt>
      <trkpt lat="43.56389" lon="5.69023">
        <ele>530.27</ele>
        <time>2018-09-30T08:25:14Z</time>
      </trkpt>
      <trkpt lat="43.5637" lon="5.69018">
        <ele>531.4</ele>
        <time>2018-09-30T08:25:23Z</time>
      </trkpt>
      <trkpt lat="43.56362" lon="5.68993">
        <ele>532.4</ele>
        <time>2018-09-30T08:25:31Z</time>
      </trkpt>
      <trkpt lat="43.56367" lon="5.68967">
        <ele>534.96</ele>
        <time>2018-09-30T08:25:36Z</time>
      </trkpt>
      <trkpt lat="43.5637" lon="5.68942">
        <ele>536.83</ele>
        <time>2018-09-30T08:25:45Z</time>
      </trkpt>
      <trkpt lat="43.5637" lon="5.68914">
        <ele>537.19</ele>
        <time>2018-09-30T08:25:52Z</time>
      </trkpt>
      <trkpt lat="43.56377" lon="5.68889">
        <ele>536.97</ele>
        <time>2018-09-30T08:25:58Z</time>
      </trkpt>
      <trkpt lat="43.56384" lon="5.68864">
        <ele>537.09</ele>
        <time>2018-09-30T08:26:06Z</time>
      </trkpt>
      <trkpt lat="43.56395" lon="5.68844">
        <ele>535.77</ele>
        <time>2018-09-30T08:26:14Z</time>
      </trkpt>
      <trkpt lat="43.56392" lon="5.68817">
        <ele>539</ele>
        <time>2018-09-30T08:26:24Z</time>
      </trkpt>
      <trkpt lat="43.56393" lon="5.68789">
        <ele>539.49</ele>
        <time>2018-09-30T08:26:37Z</time>
      </trkpt>
      <trkpt lat="43.56388" lon="5.68762">
        <ele>536.09</ele>
        <time>2018-09-30T08:26:44Z</time>
      </trkpt>
      <trkpt lat="43.56371" lon="5.68753">
        <ele>534.12</ele>
        <time>2018-09-30T08:26:52Z</time>
      </trkpt>
      <trkpt lat="43.5636" lon="5.68733">
        <ele>534.16</ele>
        <time>2018-09-30T08:26:58Z</time>
      </trkpt>
      <trkpt lat="43.56352" lon="5.68711">
        <ele>534.78</ele>
        <time>2018-09-30T08:27:04Z</time>
      </trkpt>
      <trkpt lat="43.56356" lon="5.68683">
        <ele>534.36</ele>
        <time>2018-09-30T08:27:10Z</time>
      </trkpt>
      <trkpt lat="43.56367" lon="5.68662">
        <ele>534.54</ele>
        <time>2018-09-30T08:27:16Z</time>
      </trkpt>
      <trkpt lat="43.56373" lon="5.68634">
        <ele>535.3</ele>
        <time>2018-09-30T08:27:22Z</time>
      </trkpt>
      <trkpt lat="43.56375" lon="5.68609">
        <ele>537.94</ele>
        <time>2018-09-30T08:27:28Z</time>
      </trkpt>
      <trkpt lat="43.56371" lon="5.68581">
        <ele>539.52</ele>
        <time>2018-09-30T08:27:35Z</time>
      </trkpt>
      <trkpt lat="43.56351" lon="5.68574">
        <ele>543.92</ele>
        <time>2018-09-30T08:27:40Z</time>
      </trkpt>
      <trkpt lat="43.56332" lon="5.68578">
        <ele>544.44</ele>
        <time>2018-09-30T08:27:46Z</time>
      </trkpt>
      <trkpt lat="43.56314" lon="5.68571">
        <ele>543.68</ele>
        <time>2018-09-30T08:27:52Z</time>
      </trkpt>
      <trkpt lat="43.56295" lon="5.68555">
        <ele>545.74</ele>
        <time>2018-09-30T08:28:00Z</time>
      </trkpt>
      <trkpt lat="43.56281" lon="5.68536">
        <ele>546.13</ele>
        <time>2018-09-30T08:28:07Z</time>
      </trkpt>
      <trkpt lat="43.56281" lon="5.68511">
        <ele>546.83</ele>
        <time>2018-09-30T08:28:13Z</time>
      </trkpt>
      <trkpt lat="43.56291" lon="5.68488">
        <ele>546.72</ele>
        <time>2018-09-30T08:28:18Z</time>
      </trkpt>
      <trkpt lat="43.56307" lon="5.68475">
        <ele>549.68</ele>
        <time>2018-09-30T08:28:32Z</time>
      </trkpt>
      <trkpt lat="43.56313" lon="5.68451">
        <ele>547.91</ele>
        <time>2018-09-30T08:28:44Z</time>
      </trkpt>
      <trkpt lat="43.56312" lon="5.68425">
        <ele>544.09</ele>
        <time>2018-09-30T08:28:55Z</time>
      </trkpt>
      <trkpt lat="43.5631" lon="5.684">
        <ele>547.92</ele>
        <time>2018-09-30T08:29:05Z</time>
      </trkpt>
      <trkpt lat="43.56318" lon="5.68372">
        <ele>545.27</ele>
        <time>2018-09-30T08:29:29Z</time>
      </trkpt>
      <trkpt lat="43.56322" lon="5.68346">
        <ele>544.63</ele>
        <time>2018-09-30T08:29:36Z</time>
      </trkpt>
      <trkpt lat="43.56326" lon="5.68318">
        <ele>546.11</ele>
        <time>2018-09-30T08:29:44Z</time>
      </trkpt>
      <trkpt lat="43.56335" lon="5.68296">
        <ele>546</ele>
        <time>2018-09-30T08:29:51Z</time>
      </trkpt>
      <trkpt lat="43.56343" lon="5.68269">
        <ele>544.98</ele>
        <time>2018-09-30T08:29:58Z</time>
      </trkpt>
      <trkpt lat="43.56348" lon="5.68245">
        <ele>545.96</ele>
        <time>2018-09-30T08:30:05Z</time>
      </trkpt>
      <trkpt lat="43.5636" lon="5.68223">
        <ele>547.73</ele>
        <time>2018-09-30T08:30:15Z</time>
      </trkpt>
      <trkpt lat="43.56375" lon="5.68204">
        <ele>548.64</ele>
        <time>2018-09-30T08:30:24Z</time>
      </trkpt>
      <trkpt lat="43.56381" lon="5.68181">
        <ele>545.44</ele>
        <time>2018-09-30T08:30:31Z</time>
      </trkpt>
      <trkpt lat="43.56367" lon="5.68163">
        <ele>550.03</ele>
        <time>2018-09-30T08:30:42Z</time>
      </trkpt>
      <trkpt lat="43.56353" lon="5.68145">
        <ele>550.29</ele>
        <time>2018-09-30T08:30:51Z</time>
      </trkpt>
      <trkpt lat="43.56348" lon="5.68117">
        <ele>553.52</ele>
        <time>2018-09-30T08:31:00Z</time>
      </trkpt>
      <trkpt lat="43.56344" lon="5.68093">
        <ele>552.49</ele>
        <time>2018-09-30T08:31:07Z</time>
      </trkpt>
      <trkpt lat="43.56349" lon="5.68068">
        <ele>553.58</ele>
        <time>2018-09-30T08:31:19Z</time>
      </trkpt>
      <trkpt lat="43.56352" lon="5.68043">
        <ele>556.77</ele>
        <time>2018-09-30T08:31:30Z</time>
      </trkpt>
      <trkpt lat="43.56356" lon="5.68017">
        <ele>557.11</ele>
        <time>2018-09-30T08:31:40Z</time>
      </trkpt>
      <trkpt lat="43.56362" lon="5.67991">
        <ele>554.36</ele>
        <time>2018-09-30T08:31:50Z</time>
      </trkpt>
      <trkpt lat="43.5637" lon="5.67968">
        <ele>553.96</ele>
        <time>2018-09-30T08:31:57Z</time>
      </trkpt>
      <trkpt lat="43.56366" lon="5.67942">
        <ele>553.95</ele>
        <time>2018-09-30T08:32:05Z</time>
      </trkpt>
      <trkpt lat="43.56358" lon="5.67916">
        <ele>556.43</ele>
        <time>2018-09-30T08:32:14Z</time>
      </trkpt>
      <trkpt lat="43.56342" lon="5.67899">
        <ele>557.12</ele>
        <time>2018-09-30T08:32:24Z</time>
      </trkpt>
      <trkpt lat="43.56327" lon="5.6788">
        <ele>561.14</ele>
        <time>2018-09-30T08:34:37Z</time>
      </trkpt>
      <trkpt lat="43.5631" lon="5.67868">
        <ele>556.37</ele>
        <time>2018-09-30T08:34:58Z</time>
      </trkpt>
      <trkpt lat="43.56293" lon="5.67861">
        <ele>558.45</ele>
        <time>2018-09-30T08:35:08Z</time>
      </trkpt>
      <trkpt lat="43.56311" lon="5.67868">
        <ele>560.47</ele>
        <time>2018-09-30T08:36:00Z</time>
      </trkpt>
      <trkpt lat="43.56293" lon="5.67858">
        <ele>562.23</ele>
        <time>2018-09-30T08:36:20Z</time>
      </trkpt>
      <trkpt lat="43.56273" lon="5.67855">
        <ele>563.88</ele>
        <time>2018-09-30T08:39:36Z</time>
      </trkpt>
      <trkpt lat="43.56282" lon="5.67832">
        <ele>562.2</ele>
        <time>2018-09-30T08:40:31Z</time>
      </trkpt>
      <trkpt lat="43.56282" lon="5.67805">
        <ele>565.45</ele>
        <time>2018-09-30T08:40:43Z</time>
      </trkpt>
      <trkpt lat="43.5629" lon="5.67782">
        <ele>567.89</ele>
        <time>2018-09-30T08:40:50Z</time>
      </trkpt>
      <trkpt lat="43.563" lon="5.67761">
        <ele>568.24</ele>
        <time>2018-09-30T08:40:57Z</time>
      </trkpt>
      <trkpt lat="43.56314" lon="5.67743">
        <ele>569.18</ele>
        <time>2018-09-30T08:41:07Z</time>
      </trkpt>
      <trkpt lat="43.56329" lon="5.67729">
        <ele>564.86</ele>
        <time>2018-09-30T08:41:14Z</time>
      </trkpt>
      <trkpt lat="43.56333" lon="5.67702">
        <ele>568.17</ele>
        <time>2018-09-30T08:41:23Z</time>
      </trkpt>
      <trkpt lat="43.56321" lon="5.67678">
        <ele>571.03</ele>
        <time>2018-09-30T08:41:31Z</time>
      </trkpt>
      <trkpt lat="43.56303" lon="5.67665">
        <ele>570.74</ele>
        <time>2018-09-30T08:41:39Z</time>
      </trkpt>
      <trkpt lat="43.56288" lon="5.6765">
        <ele>573.83</ele>
        <time>2018-09-30T08:41:46Z</time>
      </trkpt>
      <trkpt lat="43.56281" lon="5.67627">
        <ele>573.95</ele>
        <time>2018-09-30T08:41:53Z</time>
      </trkpt>
      <trkpt lat="43.56281" lon="5.67602">
        <ele>572.37</ele>
        <time>2018-09-30T08:41:59Z</time>
      </trkpt>
      <trkpt lat="43.56281" lon="5.67576">
        <ele>573.4</ele>
        <time>2018-09-30T08:42:05Z</time>
      </trkpt>
      <trkpt lat="43.56288" lon="5.6755">
        <ele>573.52</ele>
        <time>2018-09-30T08:42:13Z</time>
      </trkpt>
      <trkpt lat="43.56298" lon="5.67529">
        <ele>574.15</ele>
        <time>2018-09-30T08:42:19Z</time>
      </trkpt>
      <trkpt lat="43.56307" lon="5.67506">
        <ele>574.51</ele>
        <time>2018-09-30T08:42:26Z</time>
      </trkpt>
      <trkpt lat="43.56317" lon="5.67482">
        <ele>576.19</ele>
        <time>2018-09-30T08:42:33Z</time>
      </trkpt>
      <trkpt lat="43.56326" lon="5.67454">
        <ele>577.23</ele>
        <time>2018-09-30T08:42:43Z</time>
      </trkpt>
      <trkpt lat="43.56334" lon="5.67428">
        <ele>576.74</ele>
        <time>2018-09-30T08:42:53Z</time>
      </trkpt>
      <trkpt lat="43.56335" lon="5.67403">
        <ele>579.23</ele>
        <time>2018-09-30T08:43:03Z</time>
      </trkpt>
      <trkpt lat="43.56334" lon="5.67376">
        <ele>580.35</ele>
        <time>2018-09-30T08:43:12Z</time>
      </trkpt>
      <trkpt lat="43.56325" lon="5.6735">
        <ele>580.6</ele>
        <time>2018-09-30T08:43:21Z</time>
      </trkpt>
      <trkpt lat="43.56308" lon="5.67339">
        <ele>581.49</ele>
        <time>2018-09-30T08:43:29Z</time>
      </trkpt>
      <trkpt lat="43.56289" lon="5.67338">
        <ele>583.19</ele>
        <time>2018-09-30T08:43:36Z</time>
      </trkpt>
      <trkpt lat="43.56272" lon="5.67328">
        <ele>589.59</ele>
        <time>2018-09-30T08:43:43Z</time>
      </trkpt>
      <trkpt lat="43.56261" lon="5.67308">
        <ele>590.42</ele>
        <time>2018-09-30T08:43:52Z</time>
      </trkpt>
      <trkpt lat="43.56258" lon="5.67281">
        <ele>590.31</ele>
        <time>2018-09-30T08:43:59Z</time>
      </trkpt>
      <trkpt lat="43.56251" lon="5.67256">
        <ele>590.64</ele>
        <time>2018-09-30T08:44:08Z</time>
      </trkpt>
      <trkpt lat="43.56251" lon="5.6723">
        <ele>595.4</ele>
        <time>2018-09-30T08:44:16Z</time>
      </trkpt>
      <trkpt lat="43.56249" lon="5.67203">
        <ele>593.7</ele>
        <time>2018-09-30T08:44:23Z</time>
      </trkpt>
      <trkpt lat="43.56252" lon="5.67178">
        <ele>591.92</ele>
        <time>2018-09-30T08:44:33Z</time>
      </trkpt>
      <trkpt lat="43.56249" lon="5.67152">
        <ele>591.26</ele>
        <time>2018-09-30T08:44:42Z</time>
      </trkpt>
      <trkpt lat="43.56249" lon="5.67123">
        <ele>593.19</ele>
        <time>2018-09-30T08:44:53Z</time>
      </trkpt>
      <trkpt lat="43.56246" lon="5.67098">
        <ele>596.79</ele>
        <time>2018-09-30T08:45:04Z</time>
      </trkpt>
      <trkpt lat="43.56242" lon="5.67072">
        <ele>598.06</ele>
        <time>2018-09-30T08:45:13Z</time>
      </trkpt>
      <trkpt lat="43.56243" lon="5.67046">
        <ele>600.85</ele>
        <time>2018-09-30T08:45:26Z</time>
      </trkpt>
      <trkpt lat="43.56237" lon="5.67018">
        <ele>597.52</ele>
        <time>2018-09-30T08:45:36Z</time>
      </trkpt>
      <trkpt lat="43.56235" lon="5.66992">
        <ele>602.98</ele>
        <time>2018-09-30T08:45:47Z</time>
      </trkpt>
      <trkpt lat="43.56224" lon="5.66971">
        <ele>601.69</ele>
        <time>2018-09-30T08:45:56Z</time>
      </trkpt>
      <trkpt lat="43.56208" lon="5.66955">
        <ele>603.93</ele>
        <time>2018-09-30T08:46:05Z</time>
      </trkpt>
      <trkpt lat="43.56192" lon="5.66944">
        <ele>606.35</ele>
        <time>2018-09-30T08:46:22Z</time>
      </trkpt>
      <trkpt lat="43.56198" lon="5.66968">
        <ele>604.79</ele>
        <time>2018-09-30T08:51:39Z</time>
      </trkpt>
      <trkpt lat="43.5619" lon="5.66994">
        <ele>612.33</ele>
        <time>2018-09-30T08:51:47Z</time>
      </trkpt>
      <trkpt lat="43.56177" lon="5.67013">
        <ele>615.31</ele>
        <time>2018-09-30T08:51:53Z</time>
      </trkpt>
      <trkpt lat="43.56161" lon="5.67027">
        <ele>615.54</ele>
        <time>2018-09-30T08:52:02Z</time>
      </trkpt>
      <trkpt lat="43.5615" lon="5.67048">
        <ele>611.02</ele>
        <time>2018-09-30T08:52:10Z</time>
      </trkpt>
      <trkpt lat="43.56132" lon="5.67037">
        <ele>611.99</ele>
        <time>2018-09-30T08:53:00Z</time>
      </trkpt>
      <trkpt lat="43.56117" lon="5.67021">
        <ele>617.2</ele>
        <time>2018-09-30T08:53:08Z</time>
      </trkpt>
      <trkpt lat="43.56106" lon="5.66999">
        <ele>614.64</ele>
        <time>2018-09-30T08:53:33Z</time>
      </trkpt>
      <trkpt lat="43.56103" lon="5.66975">
        <ele>612.86</ele>
        <time>2018-09-30T08:53:43Z</time>
      </trkpt>
      <trkpt lat="43.56106" lon="5.6695">
        <ele>612.44</ele>
        <time>2018-09-30T08:53:52Z</time>
      </trkpt>
      <trkpt lat="43.56109" lon="5.66923">
        <ele>610.53</ele>
        <time>2018-09-30T08:54:02Z</time>
      </trkpt>
      <trkpt lat="43.56106" lon="5.66896">
        <ele>611.28</ele>
        <time>2018-09-30T08:54:13Z</time>
      </trkpt>
      <trkpt lat="43.56108" lon="5.6687">
        <ele>612.26</ele>
        <time>2018-09-30T08:54:22Z</time>
      </trkpt>
      <trkpt lat="43.5611" lon="5.66845">
        <ele>615.3</ele>
        <time>2018-09-30T08:54:30Z</time>
      </trkpt>
      <trkpt lat="43.56102" lon="5.66819">
        <ele>617.8</ele>
        <time>2018-09-30T08:54:42Z</time>
      </trkpt>
      <trkpt lat="43.56097" lon="5.66794">
        <ele>619.4</ele>
        <time>2018-09-30T08:54:51Z</time>
      </trkpt>
      <trkpt lat="43.56091" lon="5.6677">
        <ele>628.37</ele>
        <time>2018-09-30T08:55:01Z</time>
      </trkpt>
      <trkpt lat="43.56083" lon="5.66746">
        <ele>629.8</ele>
        <time>2018-09-30T08:55:14Z</time>
      </trkpt>
      <trkpt lat="43.56083" lon="5.66719">
        <ele>631.99</ele>
        <time>2018-09-30T08:55:24Z</time>
      </trkpt>
      <trkpt lat="43.56079" lon="5.66692">
        <ele>630.88</ele>
        <time>2018-09-30T08:55:32Z</time>
      </trkpt>
      <trkpt lat="43.56072" lon="5.66666">
        <ele>631.62</ele>
        <time>2018-09-30T08:55:43Z</time>
      </trkpt>
      <trkpt lat="43.56062" lon="5.66645">
        <ele>633.48</ele>
        <time>2018-09-30T08:58:36Z</time>
      </trkpt>
      <trkpt lat="43.56055" lon="5.66621">
        <ele>637.3</ele>
        <time>2018-09-30T08:58:44Z</time>
      </trkpt>
      <trkpt lat="43.56054" lon="5.66595">
        <ele>638.7</ele>
        <time>2018-09-30T08:58:55Z</time>
      </trkpt>
      <trkpt lat="43.56047" lon="5.66571">
        <ele>639.27</ele>
        <time>2018-09-30T08:59:07Z</time>
      </trkpt>
      <trkpt lat="43.56046" lon="5.66546">
        <ele>637.56</ele>
        <time>2018-09-30T08:59:17Z</time>
      </trkpt>
      <trkpt lat="43.56051" lon="5.66521">
        <ele>637.3</ele>
        <time>2018-09-30T08:59:29Z</time>
      </trkpt>
      <trkpt lat="43.56056" lon="5.66496">
        <ele>638.33</ele>
        <time>2018-09-30T08:59:40Z</time>
      </trkpt>
      <trkpt lat="43.56063" lon="5.66471">
        <ele>641.6</ele>
        <time>2018-09-30T08:59:50Z</time>
      </trkpt>
      <trkpt lat="43.5606" lon="5.66446">
        <ele>642.21</ele>
        <time>2018-09-30T09:00:00Z</time>
      </trkpt>
      <trkpt lat="43.56061" lon="5.66418">
        <ele>644.28</ele>
        <time>2018-09-30T09:00:09Z</time>
      </trkpt>
      <trkpt lat="43.56059" lon="5.66393">
        <ele>645.81</ele>
        <time>2018-09-30T09:00:21Z</time>
      </trkpt>
      <trkpt lat="43.56055" lon="5.66364">
        <ele>644.84</ele>
        <time>2018-09-30T09:00:32Z</time>
      </trkpt>
      <trkpt lat="43.56044" lon="5.66342">
        <ele>647.37</ele>
        <time>2018-09-30T09:00:44Z</time>
      </trkpt>
      <trkpt lat="43.56043" lon="5.66317">
        <ele>649.43</ele>
        <time>2018-09-30T09:00:54Z</time>
      </trkpt>
      <trkpt lat="43.56036" lon="5.66294">
        <ele>651.81</ele>
        <time>2018-09-30T09:01:05Z</time>
      </trkpt>
      <trkpt lat="43.5602" lon="5.66308">
        <ele>651.4</ele>
        <time>2018-09-30T09:01:17Z</time>
      </trkpt>
      <trkpt lat="43.56001" lon="5.66311">
        <ele>652.7</ele>
        <time>2018-09-30T09:01:28Z</time>
      </trkpt>
      <trkpt lat="43.55981" lon="5.66308">
        <ele>653.89</ele>
        <time>2018-09-30T09:01:38Z</time>
      </trkpt>
      <trkpt lat="43.55968" lon="5.66291">
        <ele>659.12</ele>
        <time>2018-09-30T09:01:57Z</time>
      </trkpt>
      <trkpt lat="43.55956" lon="5.66271">
        <ele>659.97</ele>
        <time>2018-09-30T09:02:15Z</time>
      </trkpt>
      <trkpt lat="43.55944" lon="5.66252">
        <ele>660.1</ele>
        <time>2018-09-30T09:03:22Z</time>
      </trkpt>
      <trkpt lat="43.55933" lon="5.66231">
        <ele>659.47</ele>
        <time>2018-09-30T09:03:36Z</time>
      </trkpt>
      <trkpt lat="43.55915" lon="5.66219">
        <ele>662.24</ele>
        <time>2018-09-30T09:04:05Z</time>
      </trkpt>
      <trkpt lat="43.559" lon="5.66204">
        <ele>662.89</ele>
        <time>2018-09-30T09:04:16Z</time>
      </trkpt>
      <trkpt lat="43.55886" lon="5.66187">
        <ele>660.08</ele>
        <time>2018-09-30T09:04:27Z</time>
      </trkpt>
      <trkpt lat="43.55872" lon="5.66168">
        <ele>660.95</ele>
        <time>2018-09-30T09:04:36Z</time>
      </trkpt>
      <trkpt lat="43.55858" lon="5.66149">
        <ele>660.83</ele>
        <time>2018-09-30T09:04:44Z</time>
      </trkpt>
      <trkpt lat="43.5584" lon="5.66136">
        <ele>660.95</ele>
        <time>2018-09-30T09:04:53Z</time>
      </trkpt>
      <trkpt lat="43.55823" lon="5.66123">
        <ele>661.34</ele>
        <time>2018-09-30T09:05:01Z</time>
      </trkpt>
      <trkpt lat="43.55805" lon="5.66113">
        <ele>660.85</ele>
        <time>2018-09-30T09:05:10Z</time>
      </trkpt>
      <trkpt lat="43.55787" lon="5.6611">
        <ele>657.31</ele>
        <time>2018-09-30T09:05:24Z</time>
      </trkpt>
      <trkpt lat="43.55768" lon="5.66117">
        <ele>656</ele>
        <time>2018-09-30T09:05:37Z</time>
      </trkpt>
      <trkpt lat="43.55759" lon="5.66139">
        <ele>657.1</ele>
        <time>2018-09-30T09:05:49Z</time>
      </trkpt>
      <trkpt lat="43.5574" lon="5.66139">
        <ele>670.71</ele>
        <time>2018-09-30T09:06:17Z</time>
      </trkpt>
      <trkpt lat="43.55728" lon="5.66118">
        <ele>671.95</ele>
        <time>2018-09-30T09:08:52Z</time>
      </trkpt>
      <trkpt lat="43.55714" lon="5.66097">
        <ele>671.87</ele>
        <time>2018-09-30T09:09:02Z</time>
      </trkpt>
      <trkpt lat="43.55705" lon="5.66075">
        <ele>673.58</ele>
        <time>2018-09-30T09:09:12Z</time>
      </trkpt>
      <trkpt lat="43.55699" lon="5.66051">
        <ele>677.08</ele>
        <time>2018-09-30T09:09:23Z</time>
      </trkpt>
      <trkpt lat="43.55689" lon="5.6603">
        <ele>678.54</ele>
        <time>2018-09-30T09:09:36Z</time>
      </trkpt>
      <trkpt lat="43.55675" lon="5.66013">
        <ele>683.05</ele>
        <time>2018-09-30T09:09:48Z</time>
      </trkpt>
      <trkpt lat="43.55667" lon="5.65989">
        <ele>682.6</ele>
        <time>2018-09-30T09:10:02Z</time>
      </trkpt>
      <trkpt lat="43.55658" lon="5.65968">
        <ele>685.54</ele>
        <time>2018-09-30T09:10:15Z</time>
      </trkpt>
      <trkpt lat="43.55647" lon="5.65945">
        <ele>685.3</ele>
        <time>2018-09-30T09:10:27Z</time>
      </trkpt>
      <trkpt lat="43.5564" lon="5.65921">
        <ele>686.89</ele>
        <time>2018-09-30T09:10:41Z</time>
      </trkpt>
      <trkpt lat="43.5563" lon="5.65898">
        <ele>691.57</ele>
        <time>2018-09-30T09:10:55Z</time>
      </trkpt>
      <trkpt lat="43.55619" lon="5.65877">
        <ele>695.59</ele>
        <time>2018-09-30T09:11:07Z</time>
      </trkpt>
      <trkpt lat="43.55609" lon="5.65856">
        <ele>700.95</ele>
        <time>2018-09-30T09:11:34Z</time>
      </trkpt>
      <trkpt lat="43.55597" lon="5.65838">
        <ele>697.61</ele>
        <time>2018-09-30T09:12:02Z</time>
      </trkpt>
      <trkpt lat="43.55592" lon="5.65813">
        <ele>701.27</ele>
        <time>2018-09-30T09:14:22Z</time>
      </trkpt>
      <trkpt lat="43.55587" lon="5.65788">
        <ele>705.58</ele>
        <time>2018-09-30T09:14:49Z</time>
      </trkpt>
      <trkpt lat="43.55572" lon="5.65774">
        <ele>709.44</ele>
        <time>2018-09-30T09:14:58Z</time>
      </trkpt>
      <trkpt lat="43.55554" lon="5.6576">
        <ele>714.14</ele>
        <time>2018-09-30T09:15:16Z</time>
      </trkpt>
      <trkpt lat="43.55536" lon="5.65765">
        <ele>720.22</ele>
        <time>2018-09-30T09:15:29Z</time>
      </trkpt>
      <trkpt lat="43.55518" lon="5.65756">
        <ele>722.24</ele>
        <time>2018-09-30T09:15:42Z</time>
      </trkpt>
      <trkpt lat="43.55499" lon="5.65757">
        <ele>723.53</ele>
        <time>2018-09-30T09:16:22Z</time>
      </trkpt>
      <trkpt lat="43.55481" lon="5.6576">
        <ele>723.64</ele>
        <time>2018-09-30T09:16:39Z</time>
      </trkpt>
      <trkpt lat="43.55488" lon="5.65784">
        <ele>719.23</ele>
        <time>2018-09-30T09:20:56Z</time>
      </trkpt>
      <trkpt lat="43.55488" lon="5.65809">
        <ele>715.47</ele>
        <time>2018-09-30T09:21:17Z</time>
      </trkpt>
      <trkpt lat="43.55476" lon="5.65833">
        <ele>710.12</ele>
        <time>2018-09-30T09:21:33Z</time>
      </trkpt>
      <trkpt lat="43.55465" lon="5.65854">
        <ele>707.49</ele>
        <time>2018-09-30T09:21:40Z</time>
      </trkpt>
      <trkpt lat="43.55463" lon="5.65879">
        <ele>700.74</ele>
        <time>2018-09-30T09:21:48Z</time>
      </trkpt>
      <trkpt lat="43.55464" lon="5.65905">
        <ele>695.17</ele>
        <time>2018-09-30T09:22:04Z</time>
      </trkpt>
      <trkpt lat="43.55455" lon="5.65927">
        <ele>694.16</ele>
        <time>2018-09-30T09:22:19Z</time>
      </trkpt>
      <trkpt lat="43.55445" lon="5.65948">
        <ele>692.85</ele>
        <time>2018-09-30T09:22:44Z</time>
      </trkpt>
      <trkpt lat="43.55434" lon="5.65968">
        <ele>690.84</ele>
        <time>2018-09-30T09:22:52Z</time>
      </trkpt>
      <trkpt lat="43.55437" lon="5.65994">
        <ele>690.07</ele>
        <time>2018-09-30T09:23:01Z</time>
      </trkpt>
      <trkpt lat="43.5544" lon="5.6602">
        <ele>689.6</ele>
        <time>2018-09-30T09:23:09Z</time>
      </trkpt>
      <trkpt lat="43.55442" lon="5.66049">
        <ele>685.9</ele>
        <time>2018-09-30T09:23:17Z</time>
      </trkpt>
      <trkpt lat="43.55448" lon="5.66072">
        <ele>685.4</ele>
        <time>2018-09-30T09:23:22Z</time>
      </trkpt>
      <trkpt lat="43.55451" lon="5.661">
        <ele>687.72</ele>
        <time>2018-09-30T09:23:30Z</time>
      </trkpt>
      <trkpt lat="43.55446" lon="5.66127">
        <ele>682.9</ele>
        <time>2018-09-30T09:23:38Z</time>
      </trkpt>
      <trkpt lat="43.55442" lon="5.66153">
        <ele>676.88</ele>
        <time>2018-09-30T09:23:48Z</time>
      </trkpt>
      <trkpt lat="43.5544" lon="5.6618">
        <ele>673.91</ele>
        <time>2018-09-30T09:23:56Z</time>
      </trkpt>
      <trkpt lat="43.55431" lon="5.66206">
        <ele>671.38</ele>
        <time>2018-09-30T09:24:04Z</time>
      </trkpt>
      <trkpt lat="43.55428" lon="5.6623">
        <ele>667.25</ele>
        <time>2018-09-30T09:24:11Z</time>
      </trkpt>
      <trkpt lat="43.55421" lon="5.66254">
        <ele>662.87</ele>
        <time>2018-09-30T09:24:19Z</time>
      </trkpt>
      <trkpt lat="43.55412" lon="5.66279">
        <ele>662.8</ele>
        <time>2018-09-30T09:24:30Z</time>
      </trkpt>
      <trkpt lat="43.55401" lon="5.66299">
        <ele>661.69</ele>
        <time>2018-09-30T09:24:39Z</time>
      </trkpt>
      <trkpt lat="43.55386" lon="5.66316">
        <ele>667.39</ele>
        <time>2018-09-30T09:26:06Z</time>
      </trkpt>
      <trkpt lat="43.5537" lon="5.66328">
        <ele>671.58</ele>
        <time>2018-09-30T09:26:44Z</time>
      </trkpt>
      <trkpt lat="43.55352" lon="5.66332">
        <ele>673.06</ele>
        <time>2018-09-30T09:27:36Z</time>
      </trkpt>
      <trkpt lat="43.55333" lon="5.66328">
        <ele>673.95</ele>
        <time>2018-09-30T09:28:09Z</time>
      </trkpt>
      <trkpt lat="43.55317" lon="5.66341">
        <ele>676.22</ele>
        <time>2018-09-30T09:28:36Z</time>
      </trkpt>
      <trkpt lat="43.55302" lon="5.66356">
        <ele>680.77</ele>
        <time>2018-09-30T09:28:59Z</time>
      </trkpt>
      <trkpt lat="43.5529" lon="5.66376">
        <ele>681.29</ele>
        <time>2018-09-30T09:29:22Z</time>
      </trkpt>
      <trkpt lat="43.55278" lon="5.66395">
        <ele>680.97</ele>
        <time>2018-09-30T09:29:43Z</time>
      </trkpt>
      <trkpt lat="43.5528" lon="5.66422">
        <ele>680.91</ele>
        <time>2018-09-30T09:30:21Z</time>
      </trkpt>
      <trkpt lat="43.55271" lon="5.66444">
        <ele>678.85</ele>
        <time>2018-09-30T09:31:35Z</time>
      </trkpt>
      <trkpt lat="43.55261" lon="5.66469">
        <ele>675.97</ele>
        <time>2018-09-30T09:31:40Z</time>
      </trkpt>
      <trkpt lat="43.55257" lon="5.66494">
        <ele>675.26</ele>
        <time>2018-09-30T09:31:44Z</time>
      </trkpt>
      <trkpt lat="43.55255" lon="5.66521">
        <ele>671.31</ele>
        <time>2018-09-30T09:31:48Z</time>
      </trkpt>
      <trkpt lat="43.55244" lon="5.66543">
        <ele>670.99</ele>
        <time>2018-09-30T09:31:54Z</time>
      </trkpt>
      <trkpt lat="43.5523" lon="5.6656">
        <ele>669.84</ele>
        <time>2018-09-30T09:32:01Z</time>
      </trkpt>
      <trkpt lat="43.55213" lon="5.66572">
        <ele>667.25</ele>
        <time>2018-09-30T09:32:08Z</time>
      </trkpt>
      <trkpt lat="43.55196" lon="5.66582">
        <ele>665.35</ele>
        <time>2018-09-30T09:32:15Z</time>
      </trkpt>
      <trkpt lat="43.55184" lon="5.66604">
        <ele>664.8</ele>
        <time>2018-09-30T09:32:34Z</time>
      </trkpt>
      <trkpt lat="43.55175" lon="5.66626">
        <ele>658.29</ele>
        <time>2018-09-30T09:32:57Z</time>
      </trkpt>
      <trkpt lat="43.55165" lon="5.66648">
        <ele>663.27</ele>
        <time>2018-09-30T09:33:17Z</time>
      </trkpt>
      <trkpt lat="43.55166" lon="5.66675">
        <ele>661.68</ele>
        <time>2018-09-30T09:33:35Z</time>
      </trkpt>
      <trkpt lat="43.55154" lon="5.66697">
        <ele>664.04</ele>
        <time>2018-09-30T09:33:44Z</time>
      </trkpt>
      <trkpt lat="43.55145" lon="5.6672">
        <ele>663.92</ele>
        <time>2018-09-30T09:34:08Z</time>
      </trkpt>
      <trkpt lat="43.5514" lon="5.66744">
        <ele>662.77</ele>
        <time>2018-09-30T09:34:24Z</time>
      </trkpt>
      <trkpt lat="43.55127" lon="5.66762">
        <ele>663.85</ele>
        <time>2018-09-30T09:46:21Z</time>
      </trkpt>
      <trkpt lat="43.55139" lon="5.66783">
        <ele>660.28</ele>
        <time>2018-09-30T09:46:29Z</time>
      </trkpt>
      <trkpt lat="43.55148" lon="5.66808">
        <ele>659.63</ele>
        <time>2018-09-30T09:46:36Z</time>
      </trkpt>
      <trkpt lat="43.55143" lon="5.66833">
        <ele>659</ele>
        <time>2018-09-30T09:46:52Z</time>
      </trkpt>
      <trkpt lat="43.55148" lon="5.66857">
        <ele>655.13</ele>
        <time>2018-09-30T09:47:36Z</time>
      </trkpt>
      <trkpt lat="43.55157" lon="5.66881">
        <ele>655.39</ele>
        <time>2018-09-30T09:47:43Z</time>
      </trkpt>
      <trkpt lat="43.55177" lon="5.66891">
        <ele>655.02</ele>
        <time>2018-09-30T09:47:48Z</time>
      </trkpt>
      <trkpt lat="43.55187" lon="5.66919">
        <ele>651.89</ele>
        <time>2018-09-30T09:47:52Z</time>
      </trkpt>
      <trkpt lat="43.55197" lon="5.66946">
        <ele>652.43</ele>
        <time>2018-09-30T09:47:57Z</time>
      </trkpt>
      <trkpt lat="43.55205" lon="5.6697">
        <ele>651.81</ele>
        <time>2018-09-30T09:48:00Z</time>
      </trkpt>
      <trkpt lat="43.55212" lon="5.66996">
        <ele>652.12</ele>
        <time>2018-09-30T09:48:03Z</time>
      </trkpt>
      <trkpt lat="43.55218" lon="5.67028">
        <ele>648.86</ele>
        <time>2018-09-30T09:48:07Z</time>
      </trkpt>
      <trkpt lat="43.55223" lon="5.67052">
        <ele>648.86</ele>
        <time>2018-09-30T09:48:10Z</time>
      </trkpt>
      <trkpt lat="43.55245" lon="5.67069">
        <ele>646.88</ele>
        <time>2018-09-30T09:48:13Z</time>
      </trkpt>
      <trkpt lat="43.55258" lon="5.67089">
        <ele>645.14</ele>
        <time>2018-09-30T09:48:16Z</time>
      </trkpt>
      <trkpt lat="43.55276" lon="5.67108">
        <ele>644.37</ele>
        <time>2018-09-30T09:48:20Z</time>
      </trkpt>
      <trkpt lat="43.55296" lon="5.67112">
        <ele>644.8</ele>
        <time>2018-09-30T09:48:25Z</time>
      </trkpt>
      <trkpt lat="43.55314" lon="5.67123">
        <ele>641.19</ele>
        <time>2018-09-30T09:48:30Z</time>
      </trkpt>
      <trkpt lat="43.5533" lon="5.6714">
        <ele>636.87</ele>
        <time>2018-09-30T09:48:34Z</time>
      </trkpt>
      <trkpt lat="43.55351" lon="5.67146">
        <ele>632.93</ele>
        <time>2018-09-30T09:48:39Z</time>
      </trkpt>
      <trkpt lat="43.5537" lon="5.67164">
        <ele>629.1</ele>
        <time>2018-09-30T09:48:43Z</time>
      </trkpt>
      <trkpt lat="43.55387" lon="5.67175">
        <ele>628.47</ele>
        <time>2018-09-30T09:48:45Z</time>
      </trkpt>
      <trkpt lat="43.55405" lon="5.67173">
        <ele>627.19</ele>
        <time>2018-09-30T09:48:49Z</time>
      </trkpt>
      <trkpt lat="43.55416" lon="5.67199">
        <ele>623.41</ele>
        <time>2018-09-30T09:48:56Z</time>
      </trkpt>
      <trkpt lat="43.55424" lon="5.67226">
        <ele>622.65</ele>
        <time>2018-09-30T09:49:01Z</time>
      </trkpt>
      <trkpt lat="43.55429" lon="5.67253">
        <ele>619.79</ele>
        <time>2018-09-30T09:49:04Z</time>
      </trkpt>
      <trkpt lat="43.55435" lon="5.67278">
        <ele>617.86</ele>
        <time>2018-09-30T09:49:07Z</time>
      </trkpt>
      <trkpt lat="43.55441" lon="5.67305">
        <ele>615.36</ele>
        <time>2018-09-30T09:49:10Z</time>
      </trkpt>
      <trkpt lat="43.55446" lon="5.67337">
        <ele>613.63</ele>
        <time>2018-09-30T09:49:14Z</time>
      </trkpt>
      <trkpt lat="43.55444" lon="5.67372">
        <ele>610.2</ele>
        <time>2018-09-30T09:49:17Z</time>
      </trkpt>
      <trkpt lat="43.55446" lon="5.67404">
        <ele>606.2</ele>
        <time>2018-09-30T09:49:20Z</time>
      </trkpt>
      <trkpt lat="43.55448" lon="5.6743">
        <ele>606.47</ele>
        <time>2018-09-30T09:49:23Z</time>
      </trkpt>
      <trkpt lat="43.55448" lon="5.67458">
        <ele>606.33</ele>
        <time>2018-09-30T09:49:27Z</time>
      </trkpt>
      <trkpt lat="43.55456" lon="5.67489">
        <ele>605.7</ele>
        <time>2018-09-30T09:49:31Z</time>
      </trkpt>
      <trkpt lat="43.55463" lon="5.67513">
        <ele>603.3</ele>
        <time>2018-09-30T09:49:34Z</time>
      </trkpt>
      <trkpt lat="43.55469" lon="5.67545">
        <ele>599.96</ele>
        <time>2018-09-30T09:49:38Z</time>
      </trkpt>
      <trkpt lat="43.55473" lon="5.67572">
        <ele>601.64</ele>
        <time>2018-09-30T09:49:41Z</time>
      </trkpt>
      <trkpt lat="43.55471" lon="5.67599">
        <ele>600.97</ele>
        <time>2018-09-30T09:49:44Z</time>
      </trkpt>
      <trkpt lat="43.55463" lon="5.67625">
        <ele>595.96</ele>
        <time>2018-09-30T09:51:15Z</time>
      </trkpt>
      <trkpt lat="43.55459" lon="5.67655">
        <ele>593.59</ele>
        <time>2018-09-30T09:51:18Z</time>
      </trkpt>
      <trkpt lat="43.55449" lon="5.67676">
        <ele>590.95</ele>
        <time>2018-09-30T09:51:21Z</time>
      </trkpt>
      <trkpt lat="43.55468" lon="5.67675">
        <ele>587.38</ele>
        <time>2018-09-30T09:51:58Z</time>
      </trkpt>
      <trkpt lat="43.55489" lon="5.67669">
        <ele>589.6</ele>
        <time>2018-09-30T09:52:04Z</time>
      </trkpt>
      <trkpt lat="43.55507" lon="5.67663">
        <ele>591.7</ele>
        <time>2018-09-30T09:52:11Z</time>
      </trkpt>
      <trkpt lat="43.55524" lon="5.67654">
        <ele>593.1</ele>
        <time>2018-09-30T09:52:19Z</time>
      </trkpt>
      <trkpt lat="43.55541" lon="5.67644">
        <ele>588.6</ele>
        <time>2018-09-30T09:53:10Z</time>
      </trkpt>
      <trkpt lat="43.5556" lon="5.67625">
        <ele>592.21</ele>
        <time>2018-09-30T09:53:14Z</time>
      </trkpt>
      <trkpt lat="43.55575" lon="5.67609">
        <ele>591.44</ele>
        <time>2018-09-30T09:53:17Z</time>
      </trkpt>
      <trkpt lat="43.55592" lon="5.67598">
        <ele>590.2</ele>
        <time>2018-09-30T09:53:21Z</time>
      </trkpt>
      <trkpt lat="43.55609" lon="5.67591">
        <ele>589.07</ele>
        <time>2018-09-30T09:53:24Z</time>
      </trkpt>
      <trkpt lat="43.55628" lon="5.67577">
        <ele>589.95</ele>
        <time>2018-09-30T09:53:27Z</time>
      </trkpt>
      <trkpt lat="43.55647" lon="5.67568">
        <ele>589.77</ele>
        <time>2018-09-30T09:53:33Z</time>
      </trkpt>
      <trkpt lat="43.55668" lon="5.67561">
        <ele>589.05</ele>
        <time>2018-09-30T09:53:39Z</time>
      </trkpt>
      <trkpt lat="43.55688" lon="5.67554">
        <ele>588.29</ele>
        <time>2018-09-30T09:53:44Z</time>
      </trkpt>
      <trkpt lat="43.55706" lon="5.67561">
        <ele>589.7</ele>
        <time>2018-09-30T09:53:55Z</time>
      </trkpt>
      <trkpt lat="43.55706" lon="5.67589">
        <ele>587.98</ele>
        <time>2018-09-30T09:54:50Z</time>
      </trkpt>
      <trkpt lat="43.55706" lon="5.67615">
        <ele>587.35</ele>
        <time>2018-09-30T09:54:56Z</time>
      </trkpt>
      <trkpt lat="43.55706" lon="5.67645">
        <ele>586.28</ele>
        <time>2018-09-30T09:55:04Z</time>
      </trkpt>
      <trkpt lat="43.55708" lon="5.67673">
        <ele>585.27</ele>
        <time>2018-09-30T09:55:12Z</time>
      </trkpt>
      <trkpt lat="43.55707" lon="5.67699">
        <ele>583.87</ele>
        <time>2018-09-30T09:55:19Z</time>
      </trkpt>
      <trkpt lat="43.55708" lon="5.67726">
        <ele>577.34</ele>
        <time>2018-09-30T09:55:27Z</time>
      </trkpt>
      <trkpt lat="43.55708" lon="5.67753">
        <ele>574.87</ele>
        <time>2018-09-30T09:55:32Z</time>
      </trkpt>
      <trkpt lat="43.55708" lon="5.67785">
        <ele>574.43</ele>
        <time>2018-09-30T09:55:38Z</time>
      </trkpt>
      <trkpt lat="43.5571" lon="5.67814">
        <ele>571.15</ele>
        <time>2018-09-30T09:55:44Z</time>
      </trkpt>
      <trkpt lat="43.55711" lon="5.67844">
        <ele>571.48</ele>
        <time>2018-09-30T09:55:51Z</time>
      </trkpt>
      <trkpt lat="43.55714" lon="5.67869">
        <ele>570.75</ele>
        <time>2018-09-30T09:55:57Z</time>
      </trkpt>
      <trkpt lat="43.55715" lon="5.67897">
        <ele>571.25</ele>
        <time>2018-09-30T09:56:02Z</time>
      </trkpt>
      <trkpt lat="43.55716" lon="5.67923">
        <ele>571.72</ele>
        <time>2018-09-30T09:56:08Z</time>
      </trkpt>
      <trkpt lat="43.55717" lon="5.67951">
        <ele>571.59</ele>
        <time>2018-09-30T09:56:13Z</time>
      </trkpt>
      <trkpt lat="43.55711" lon="5.67978">
        <ele>573.04</ele>
        <time>2018-09-30T09:56:17Z</time>
      </trkpt>
      <trkpt lat="43.55713" lon="5.68005">
        <ele>572.76</ele>
        <time>2018-09-30T09:56:23Z</time>
      </trkpt>
      <trkpt lat="43.55713" lon="5.68034">
        <ele>569.93</ele>
        <time>2018-09-30T09:56:27Z</time>
      </trkpt>
      <trkpt lat="43.55714" lon="5.68062">
        <ele>569.93</ele>
        <time>2018-09-30T09:56:32Z</time>
      </trkpt>
      <trkpt lat="43.55721" lon="5.6809">
        <ele>565.19</ele>
        <time>2018-09-30T09:56:37Z</time>
      </trkpt>
      <trkpt lat="43.55724" lon="5.68118">
        <ele>562.57</ele>
        <time>2018-09-30T09:56:41Z</time>
      </trkpt>
      <trkpt lat="43.55718" lon="5.68149">
        <ele>559.08</ele>
        <time>2018-09-30T09:56:45Z</time>
      </trkpt>
      <trkpt lat="43.5572" lon="5.68175">
        <ele>554.3</ele>
        <time>2018-09-30T09:56:49Z</time>
      </trkpt>
      <trkpt lat="43.55717" lon="5.68205">
        <ele>556.43</ele>
        <time>2018-09-30T09:56:55Z</time>
      </trkpt>
      <trkpt lat="43.55717" lon="5.68232">
        <ele>557.23</ele>
        <time>2018-09-30T09:57:00Z</time>
      </trkpt>
      <trkpt lat="43.55719" lon="5.68259">
        <ele>551.47</ele>
        <time>2018-09-30T09:57:06Z</time>
      </trkpt>
      <trkpt lat="43.55722" lon="5.68287">
        <ele>550.56</ele>
        <time>2018-09-30T09:57:12Z</time>
      </trkpt>
      <trkpt lat="43.55719" lon="5.68318">
        <ele>552.78</ele>
        <time>2018-09-30T09:58:10Z</time>
      </trkpt>
      <trkpt lat="43.5572" lon="5.68344">
        <ele>549.42</ele>
        <time>2018-09-30T09:58:12Z</time>
      </trkpt>
      <trkpt lat="43.55715" lon="5.68372">
        <ele>552.17</ele>
        <time>2018-09-30T09:58:17Z</time>
      </trkpt>
      <trkpt lat="43.55708" lon="5.684">
        <ele>548.77</ele>
        <time>2018-09-30T09:58:21Z</time>
      </trkpt>
      <trkpt lat="43.55697" lon="5.68422">
        <ele>549.49</ele>
        <time>2018-09-30T09:58:25Z</time>
      </trkpt>
      <trkpt lat="43.55688" lon="5.68444">
        <ele>547.97</ele>
        <time>2018-09-30T09:58:29Z</time>
      </trkpt>
      <trkpt lat="43.55692" lon="5.68471">
        <ele>548.06</ele>
        <time>2018-09-30T09:58:32Z</time>
      </trkpt>
      <trkpt lat="43.55706" lon="5.68497">
        <ele>546.35</ele>
        <time>2018-09-30T09:58:36Z</time>
      </trkpt>
      <trkpt lat="43.55713" lon="5.68522">
        <ele>544.75</ele>
        <time>2018-09-30T09:58:40Z</time>
      </trkpt>
      <trkpt lat="43.55717" lon="5.6855">
        <ele>546.28</ele>
        <time>2018-09-30T09:58:44Z</time>
      </trkpt>
      <trkpt lat="43.55715" lon="5.68575">
        <ele>544.62</ele>
        <time>2018-09-30T09:58:48Z</time>
      </trkpt>
      <trkpt lat="43.55714" lon="5.68604">
        <ele>543.09</ele>
        <time>2018-09-30T09:58:53Z</time>
      </trkpt>
      <trkpt lat="43.55719" lon="5.68629">
        <ele>541.7</ele>
        <time>2018-09-30T09:58:57Z</time>
      </trkpt>
      <trkpt lat="43.55726" lon="5.68661">
        <ele>539.17</ele>
        <time>2018-09-30T09:59:03Z</time>
      </trkpt>
      <trkpt lat="43.55732" lon="5.68693">
        <ele>535.78</ele>
        <time>2018-09-30T09:59:07Z</time>
      </trkpt>
      <trkpt lat="43.55741" lon="5.68716">
        <ele>535.7</ele>
        <time>2018-09-30T09:59:11Z</time>
      </trkpt>
      <trkpt lat="43.55747" lon="5.68739">
        <ele>533.54</ele>
        <time>2018-09-30T09:59:15Z</time>
      </trkpt>
      <trkpt lat="43.55755" lon="5.68762">
        <ele>531.96</ele>
        <time>2018-09-30T09:59:19Z</time>
      </trkpt>
      <trkpt lat="43.5576" lon="5.68787">
        <ele>532.92</ele>
        <time>2018-09-30T09:59:23Z</time>
      </trkpt>
      <trkpt lat="43.55769" lon="5.6881">
        <ele>535.03</ele>
        <time>2018-09-30T09:59:27Z</time>
      </trkpt>
      <trkpt lat="43.55785" lon="5.68829">
        <ele>533.55</ele>
        <time>2018-09-30T09:59:33Z</time>
      </trkpt>
      <trkpt lat="43.55802" lon="5.68844">
        <ele>534.11</ele>
        <time>2018-09-30T09:59:38Z</time>
      </trkpt>
      <trkpt lat="43.5582" lon="5.68856">
        <ele>534.71</ele>
        <time>2018-09-30T09:59:43Z</time>
      </trkpt>
      <trkpt lat="43.55838" lon="5.68867">
        <ele>534.1</ele>
        <time>2018-09-30T09:59:48Z</time>
      </trkpt>
      <trkpt lat="43.55858" lon="5.68882">
        <ele>538.09</ele>
        <time>2018-09-30T09:59:54Z</time>
      </trkpt>
      <trkpt lat="43.55874" lon="5.68894">
        <ele>541.26</ele>
        <time>2018-09-30T09:59:58Z</time>
      </trkpt>
      <trkpt lat="43.55892" lon="5.68892">
        <ele>539.12</ele>
        <time>2018-09-30T10:00:06Z</time>
      </trkpt>
      <trkpt lat="43.5591" lon="5.68884">
        <ele>538.84</ele>
        <time>2018-09-30T10:00:18Z</time>
      </trkpt>
      <trkpt lat="43.55923" lon="5.68903">
        <ele>538.98</ele>
        <time>2018-09-30T10:00:42Z</time>
      </trkpt>
      <trkpt lat="43.55926" lon="5.6893">
        <ele>538.13</ele>
        <time>2018-09-30T10:00:45Z</time>
      </trkpt>
      <trkpt lat="43.55929" lon="5.68962">
        <ele>534.43</ele>
        <time>2018-09-30T10:00:48Z</time>
      </trkpt>
      <trkpt lat="43.55932" lon="5.68992">
        <ele>535.01</ele>
        <time>2018-09-30T10:00:53Z</time>
      </trkpt>
      <trkpt lat="43.55943" lon="5.69019">
        <ele>534.67</ele>
        <time>2018-09-30T10:00:55Z</time>
      </trkpt>
      <trkpt lat="43.55945" lon="5.69048">
        <ele>535.32</ele>
        <time>2018-09-30T10:01:00Z</time>
      </trkpt>
      <trkpt lat="43.55949" lon="5.69076">
        <ele>532.29</ele>
        <time>2018-09-30T10:01:04Z</time>
      </trkpt>
      <trkpt lat="43.55956" lon="5.69101">
        <ele>533.3</ele>
        <time>2018-09-30T10:01:07Z</time>
      </trkpt>
      <trkpt lat="43.55968" lon="5.69124">
        <ele>533.2</ele>
        <time>2018-09-30T10:01:10Z</time>
      </trkpt>
      <trkpt lat="43.5598" lon="5.69149">
        <ele>533.08</ele>
        <time>2018-09-30T10:01:14Z</time>
      </trkpt>
      <trkpt lat="43.55994" lon="5.6917">
        <ele>526.83</ele>
        <time>2018-09-30T10:01:18Z</time>
      </trkpt>
      <trkpt lat="43.56002" lon="5.69197">
        <ele>528.56</ele>
        <time>2018-09-30T10:01:22Z</time>
      </trkpt>
      <trkpt lat="43.56011" lon="5.69222">
        <ele>526.82</ele>
        <time>2018-09-30T10:01:27Z</time>
      </trkpt>
      <trkpt lat="43.5602" lon="5.69244">
        <ele>528.46</ele>
        <time>2018-09-30T10:01:35Z</time>
      </trkpt>
      <trkpt lat="43.56036" lon="5.69263">
        <ele>530.06</ele>
        <time>2018-09-30T10:01:43Z</time>
      </trkpt>
      <trkpt lat="43.56048" lon="5.69284">
        <ele>531</ele>
        <time>2018-09-30T10:01:50Z</time>
      </trkpt>
      <trkpt lat="43.56057" lon="5.6931">
        <ele>531.86</ele>
        <time>2018-09-30T10:01:57Z</time>
      </trkpt>
      <trkpt lat="43.56051" lon="5.69337">
        <ele>534.89</ele>
        <time>2018-09-30T10:02:04Z</time>
      </trkpt>
      <trkpt lat="43.56034" lon="5.69351">
        <ele>536.39</ele>
        <time>2018-09-30T10:02:11Z</time>
      </trkpt>
      <trkpt lat="43.56018" lon="5.69367">
        <ele>534.34</ele>
        <time>2018-09-30T10:02:17Z</time>
      </trkpt>
      <trkpt lat="43.56005" lon="5.69386">
        <ele>533.23</ele>
        <time>2018-09-30T10:02:24Z</time>
      </trkpt>
      <trkpt lat="43.55992" lon="5.69404">
        <ele>535.7</ele>
        <time>2018-09-30T10:02:31Z</time>
      </trkpt>
      <trkpt lat="43.55983" lon="5.69427">
        <ele>538.2</ele>
        <time>2018-09-30T10:02:38Z</time>
      </trkpt>
      <trkpt lat="43.55974" lon="5.69451">
        <ele>538.97</ele>
        <time>2018-09-30T10:02:46Z</time>
      </trkpt>
      <trkpt lat="43.5597" lon="5.69476">
        <ele>539.01</ele>
        <time>2018-09-30T10:02:53Z</time>
      </trkpt>
      <trkpt lat="43.55971" lon="5.69504">
        <ele>538.44</ele>
        <time>2018-09-30T10:03:00Z</time>
      </trkpt>
      <trkpt lat="43.55968" lon="5.69529">
        <ele>537.57</ele>
        <time>2018-09-30T10:03:05Z</time>
      </trkpt>
      <trkpt lat="43.5597" lon="5.69557">
        <ele>537.28</ele>
        <time>2018-09-30T10:03:11Z</time>
      </trkpt>
      <trkpt lat="43.55968" lon="5.69582">
        <ele>536.79</ele>
        <time>2018-09-30T10:03:16Z</time>
      </trkpt>
      <trkpt lat="43.55967" lon="5.6961">
        <ele>536.04</ele>
        <time>2018-09-30T10:03:21Z</time>
      </trkpt>
      <trkpt lat="43.55965" lon="5.69635">
        <ele>536.74</ele>
        <time>2018-09-30T10:03:25Z</time>
      </trkpt>
      <trkpt lat="43.55966" lon="5.69662">
        <ele>537.31</ele>
        <time>2018-09-30T10:03:29Z</time>
      </trkpt>
      <trkpt lat="43.55978" lon="5.69686">
        <ele>537.81</ele>
        <time>2018-09-30T10:03:34Z</time>
      </trkpt>
      <trkpt lat="43.5598" lon="5.69711">
        <ele>536.83</ele>
        <time>2018-09-30T10:03:39Z</time>
      </trkpt>
      <trkpt lat="43.55976" lon="5.69737">
        <ele>536.93</ele>
        <time>2018-09-30T10:03:45Z</time>
      </trkpt>
      <trkpt lat="43.55969" lon="5.69762">
        <ele>538.52</ele>
        <time>2018-09-30T10:03:51Z</time>
      </trkpt>
      <trkpt lat="43.55966" lon="5.69791">
        <ele>540.5</ele>
        <time>2018-09-30T10:03:57Z</time>
      </trkpt>
      <trkpt lat="43.5597" lon="5.69816">
        <ele>541.47</ele>
        <time>2018-09-30T10:04:02Z</time>
      </trkpt>
      <trkpt lat="43.55971" lon="5.6984">
        <ele>542.32</ele>
        <time>2018-09-30T10:04:07Z</time>
      </trkpt>
      <trkpt lat="43.55973" lon="5.69866">
        <ele>543.08</ele>
        <time>2018-09-30T10:04:13Z</time>
      </trkpt>
      <trkpt lat="43.55976" lon="5.69897">
        <ele>544.83</ele>
        <time>2018-09-30T10:04:19Z</time>
      </trkpt>
      <trkpt lat="43.55975" lon="5.69925">
        <ele>546.58</ele>
        <time>2018-09-30T10:04:24Z</time>
      </trkpt>
      <trkpt lat="43.55972" lon="5.69954">
        <ele>547.79</ele>
        <time>2018-09-30T10:04:29Z</time>
      </trkpt>
      <trkpt lat="43.55968" lon="5.69984">
        <ele>546.21</ele>
        <time>2018-09-30T10:04:34Z</time>
      </trkpt>
      <trkpt lat="43.55966" lon="5.70009">
        <ele>546.72</ele>
        <time>2018-09-30T10:04:38Z</time>
      </trkpt>
      <trkpt lat="43.55966" lon="5.70035">
        <ele>546.68</ele>
        <time>2018-09-30T10:04:42Z</time>
      </trkpt>
      <trkpt lat="43.5596" lon="5.7006">
        <ele>546.83</ele>
        <time>2018-09-30T10:04:46Z</time>
      </trkpt>
      <trkpt lat="43.55951" lon="5.70083">
        <ele>547.67</ele>
        <time>2018-09-30T10:04:50Z</time>
      </trkpt>
      <trkpt lat="43.55941" lon="5.70108">
        <ele>547</ele>
        <time>2018-09-30T10:04:55Z</time>
      </trkpt>
      <trkpt lat="43.55929" lon="5.7013">
        <ele>546.86</ele>
        <time>2018-09-30T10:05:01Z</time>
      </trkpt>
      <trkpt lat="43.55928" lon="5.70155">
        <ele>547.37</ele>
        <time>2018-09-30T10:05:11Z</time>
      </trkpt>
      <trkpt lat="43.55919" lon="5.70178">
        <ele>546.96</ele>
        <time>2018-09-30T10:07:05Z</time>
      </trkpt>
      <trkpt lat="43.55911" lon="5.702">
        <ele>545.13</ele>
        <time>2018-09-30T10:07:15Z</time>
      </trkpt>
      <trkpt lat="43.55905" lon="5.70225">
        <ele>546.64</ele>
        <time>2018-09-30T10:07:28Z</time>
      </trkpt>
      <trkpt lat="43.55896" lon="5.70252">
        <ele>542.6</ele>
        <time>2018-09-30T10:07:36Z</time>
      </trkpt>
      <trkpt lat="43.55887" lon="5.70275">
        <ele>540.77</ele>
        <time>2018-09-30T10:07:42Z</time>
      </trkpt>
      <trkpt lat="43.55875" lon="5.70297">
        <ele>540.2</ele>
        <time>2018-09-30T10:07:47Z</time>
      </trkpt>
      <trkpt lat="43.55865" lon="5.70321">
        <ele>534.69</ele>
        <time>2018-09-30T10:07:56Z</time>
      </trkpt>
      <trkpt lat="43.55859" lon="5.70344">
        <ele>529.36</ele>
        <time>2018-09-30T10:08:01Z</time>
      </trkpt>
      <trkpt lat="43.5585" lon="5.70369">
        <ele>525.88</ele>
        <time>2018-09-30T10:08:07Z</time>
      </trkpt>
      <trkpt lat="43.55845" lon="5.70394">
        <ele>524.01</ele>
        <time>2018-09-30T10:08:14Z</time>
      </trkpt>
      <trkpt lat="43.55857" lon="5.70416">
        <ele>522.97</ele>
        <time>2018-09-30T10:08:21Z</time>
      </trkpt>
      <trkpt lat="43.55871" lon="5.70431">
        <ele>523.99</ele>
        <time>2018-09-30T10:08:27Z</time>
      </trkpt>
      <trkpt lat="43.5589" lon="5.70441">
        <ele>521.96</ele>
        <time>2018-09-30T10:08:34Z</time>
      </trkpt>
      <trkpt lat="43.55886" lon="5.70469">
        <ele>518.97</ele>
        <time>2018-09-30T10:08:42Z</time>
      </trkpt>
      <trkpt lat="43.5588" lon="5.70495">
        <ele>513.88</ele>
        <time>2018-09-30T10:08:47Z</time>
      </trkpt>
      <trkpt lat="43.55867" lon="5.70517">
        <ele>512.76</ele>
        <time>2018-09-30T10:08:53Z</time>
      </trkpt>
      <trkpt lat="43.55848" lon="5.70535">
        <ele>512.44</ele>
        <time>2018-09-30T10:08:57Z</time>
      </trkpt>
      <trkpt lat="43.55832" lon="5.70549">
        <ele>509.87</ele>
        <time>2018-09-30T10:09:00Z</time>
      </trkpt>
      <trkpt lat="43.55816" lon="5.70561">
        <ele>509.95</ele>
        <time>2018-09-30T10:09:04Z</time>
      </trkpt>
      <trkpt lat="43.558" lon="5.70576">
        <ele>509.09</ele>
        <time>2018-09-30T10:09:08Z</time>
      </trkpt>
      <trkpt lat="43.55781" lon="5.70587">
        <ele>507.99</ele>
        <time>2018-09-30T10:09:11Z</time>
      </trkpt>
      <trkpt lat="43.55765" lon="5.70598">
        <ele>504.56</ele>
        <time>2018-09-30T10:09:16Z</time>
      </trkpt>
      <trkpt lat="43.55746" lon="5.7059">
        <ele>502.67</ele>
        <time>2018-09-30T10:09:21Z</time>
      </trkpt>
      <trkpt lat="43.55727" lon="5.70592">
        <ele>502.03</ele>
        <time>2018-09-30T10:09:24Z</time>
      </trkpt>
      <trkpt lat="43.55709" lon="5.70606">
        <ele>502.6</ele>
        <time>2018-09-30T10:09:28Z</time>
      </trkpt>
      <trkpt lat="43.55693" lon="5.70624">
        <ele>502.18</ele>
        <time>2018-09-30T10:09:32Z</time>
      </trkpt>
      <trkpt lat="43.55676" lon="5.70644">
        <ele>499.37</ele>
        <time>2018-09-30T10:09:36Z</time>
      </trkpt>
      <trkpt lat="43.55663" lon="5.70665">
        <ele>497.77</ele>
        <time>2018-09-30T10:09:41Z</time>
      </trkpt>
      <trkpt lat="43.55645" lon="5.70677">
        <ele>499.03</ele>
        <time>2018-09-30T10:09:45Z</time>
      </trkpt>
      <trkpt lat="43.55635" lon="5.70657">
        <ele>499.6</ele>
        <time>2018-09-30T10:09:58Z</time>
      </trkpt>
      <trkpt lat="43.55632" lon="5.70631">
        <ele>500.78</ele>
        <time>2018-09-30T10:10:06Z</time>
      </trkpt>
      <trkpt lat="43.5563" lon="5.70606">
        <ele>501</ele>
        <time>2018-09-30T10:10:14Z</time>
      </trkpt>
      <trkpt lat="43.55625" lon="5.70579">
        <ele>500.08</ele>
        <time>2018-09-30T10:10:24Z</time>
      </trkpt>
      <trkpt lat="43.55606" lon="5.70571">
        <ele>500.05</ele>
        <time>2018-09-30T10:10:33Z</time>
      </trkpt>
      <trkpt lat="43.5559" lon="5.70584">
        <ele>500.65</ele>
        <time>2018-09-30T10:10:40Z</time>
      </trkpt>
      <trkpt lat="43.55573" lon="5.70593">
        <ele>501.59</ele>
        <time>2018-09-30T10:10:48Z</time>
      </trkpt>
      <trkpt lat="43.55555" lon="5.70599">
        <ele>501.36</ele>
        <time>2018-09-30T10:10:54Z</time>
      </trkpt>
      <trkpt lat="43.55537" lon="5.70607">
        <ele>503.28</ele>
        <time>2018-09-30T10:11:01Z</time>
      </trkpt>
      <trkpt lat="43.55518" lon="5.70616">
        <ele>504.89</ele>
        <time>2018-09-30T10:11:07Z</time>
      </trkpt>
      <trkpt lat="43.555" lon="5.7062">
        <ele>504.58</ele>
        <time>2018-09-30T10:11:12Z</time>
      </trkpt>
      <trkpt lat="43.5548" lon="5.7063">
        <ele>504.68</ele>
        <time>2018-09-30T10:11:17Z</time>
      </trkpt>
      <trkpt lat="43.55461" lon="5.7064">
        <ele>506.79</ele>
        <time>2018-09-30T10:11:22Z</time>
      </trkpt>
      <trkpt lat="43.55444" lon="5.70648">
        <ele>506.59</ele>
        <time>2018-09-30T10:11:26Z</time>
      </trkpt>
      <trkpt lat="43.55422" lon="5.70653">
        <ele>505.43</ele>
        <time>2018-09-30T10:11:30Z</time>
      </trkpt>
      <trkpt lat="43.55403" lon="5.7066">
        <ele>505.73</ele>
        <time>2018-09-30T10:11:34Z</time>
      </trkpt>
      <trkpt lat="43.55386" lon="5.70671">
        <ele>505.96</ele>
        <time>2018-09-30T10:11:38Z</time>
      </trkpt>
      <trkpt lat="43.55364" lon="5.70675">
        <ele>505.49</ele>
        <time>2018-09-30T10:11:42Z</time>
      </trkpt>
      <trkpt lat="43.55343" lon="5.70672">
        <ele>504.8</ele>
        <time>2018-09-30T10:11:46Z</time>
      </trkpt>
      <trkpt lat="43.55321" lon="5.70672">
        <ele>503.78</ele>
        <time>2018-09-30T10:11:51Z</time>
      </trkpt>
      <trkpt lat="43.55302" lon="5.70668">
        <ele>505.26</ele>
        <time>2018-09-30T10:11:56Z</time>
      </trkpt>
      <trkpt lat="43.55283" lon="5.70665">
        <ele>505.66</ele>
        <time>2018-09-30T10:12:00Z</time>
      </trkpt>
      <trkpt lat="43.55261" lon="5.7066">
        <ele>504.83</ele>
        <time>2018-09-30T10:12:05Z</time>
      </trkpt>
      <trkpt lat="43.55243" lon="5.70658">
        <ele>502.16</ele>
        <time>2018-09-30T10:12:09Z</time>
      </trkpt>
      <trkpt lat="43.55221" lon="5.70651">
        <ele>499.44</ele>
        <time>2018-09-30T10:12:14Z</time>
      </trkpt>
      <trkpt lat="43.55202" lon="5.70646">
        <ele>498.13</ele>
        <time>2018-09-30T10:12:18Z</time>
      </trkpt>
      <trkpt lat="43.55184" lon="5.70641">
        <ele>494.93</ele>
        <time>2018-09-30T10:12:22Z</time>
      </trkpt>
      <trkpt lat="43.55164" lon="5.70639">
        <ele>492.69</ele>
        <time>2018-09-30T10:12:26Z</time>
      </trkpt>
      <trkpt lat="43.55146" lon="5.70635">
        <ele>493.99</ele>
        <time>2018-09-30T10:12:30Z</time>
      </trkpt>
      <trkpt lat="43.55126" lon="5.7063">
        <ele>494.28</ele>
        <time>2018-09-30T10:12:35Z</time>
      </trkpt>
      <trkpt lat="43.55107" lon="5.70624">
        <ele>494.24</ele>
        <time>2018-09-30T10:12:40Z</time>
      </trkpt>
      <trkpt lat="43.55089" lon="5.70621">
        <ele>495.01</ele>
        <time>2018-09-30T10:12:45Z</time>
      </trkpt>
      <trkpt lat="43.5507" lon="5.70616">
        <ele>494.56</ele>
        <time>2018-09-30T10:12:50Z</time>
      </trkpt>
      <trkpt lat="43.55051" lon="5.70612">
        <ele>495.72</ele>
        <time>2018-09-30T10:12:55Z</time>
      </trkpt>
      <trkpt lat="43.55032" lon="5.70609">
        <ele>498.08</ele>
        <time>2018-09-30T10:13:00Z</time>
      </trkpt>
      <trkpt lat="43.55011" lon="5.70608">
        <ele>499.97</ele>
        <time>2018-09-30T10:13:05Z</time>
      </trkpt>
      <trkpt lat="43.54993" lon="5.70602">
        <ele>498.82</ele>
        <time>2018-09-30T10:13:09Z</time>
      </trkpt>
      <trkpt lat="43.54971" lon="5.706">
        <ele>498.81</ele>
        <time>2018-09-30T10:13:14Z</time>
      </trkpt>
      <trkpt lat="43.54952" lon="5.70596">
        <ele>499.32</ele>
        <time>2018-09-30T10:13:19Z</time>
      </trkpt>
      <trkpt lat="43.54933" lon="5.70593">
        <ele>499.83</ele>
        <time>2018-09-30T10:13:24Z</time>
      </trkpt>
      <trkpt lat="43.54911" lon="5.70592">
        <ele>502.03</ele>
        <time>2018-09-30T10:13:29Z</time>
      </trkpt>
      <trkpt lat="43.54891" lon="5.70591">
        <ele>501.26</ele>
        <time>2018-09-30T10:13:33Z</time>
      </trkpt>
      <trkpt lat="43.54873" lon="5.70592">
        <ele>500.68</ele>
        <time>2018-09-30T10:13:37Z</time>
      </trkpt>
      <trkpt lat="43.54852" lon="5.70591">
        <ele>500.35</ele>
        <time>2018-09-30T10:13:42Z</time>
      </trkpt>
      <trkpt lat="43.54829" lon="5.70593">
        <ele>499.61</ele>
        <time>2018-09-30T10:13:48Z</time>
      </trkpt>
      <trkpt lat="43.54811" lon="5.70593">
        <ele>499.84</ele>
        <time>2018-09-30T10:13:52Z</time>
      </trkpt>
      <trkpt lat="43.54791" lon="5.70589">
        <ele>500.01</ele>
        <time>2018-09-30T10:13:58Z</time>
      </trkpt>
      <trkpt lat="43.54773" lon="5.70585">
        <ele>500.48</ele>
        <time>2018-09-30T10:14:03Z</time>
      </trkpt>
      <trkpt lat="43.54755" lon="5.70582">
        <ele>502.03</ele>
        <time>2018-09-30T10:14:08Z</time>
      </trkpt>
      <trkpt lat="43.54736" lon="5.70578">
        <ele>504.34</ele>
        <time>2018-09-30T10:14:13Z</time>
      </trkpt>
      <trkpt lat="43.54716" lon="5.70574">
        <ele>504.46</ele>
        <time>2018-09-30T10:14:18Z</time>
      </trkpt>
      <trkpt lat="43.54696" lon="5.70569">
        <ele>503.78</ele>
        <time>2018-09-30T10:14:25Z</time>
      </trkpt>
      <trkpt lat="43.54679" lon="5.7056">
        <ele>506.19</ele>
        <time>2018-09-30T10:14:32Z</time>
      </trkpt>
      <trkpt lat="43.5466" lon="5.70556">
        <ele>503.41</ele>
        <time>2018-09-30T10:14:43Z</time>
      </trkpt>
      <trkpt lat="43.54641" lon="5.7057">
        <ele>499.15</ele>
        <time>2018-09-30T10:14:50Z</time>
      </trkpt>
      <trkpt lat="43.54627" lon="5.70592">
        <ele>496.26</ele>
        <time>2018-09-30T10:14:55Z</time>
      </trkpt>
      <trkpt lat="43.54611" lon="5.70613">
        <ele>495.83</ele>
        <time>2018-09-30T10:15:00Z</time>
      </trkpt>
      <trkpt lat="43.54596" lon="5.70632">
        <ele>497.86</ele>
        <time>2018-09-30T10:15:04Z</time>
      </trkpt>
      <trkpt lat="43.54579" lon="5.70652">
        <ele>497.62</ele>
        <time>2018-09-30T10:15:08Z</time>
      </trkpt>
      <trkpt lat="43.54569" lon="5.70674">
        <ele>496.51</ele>
        <time>2018-09-30T10:15:11Z</time>
      </trkpt>
      <trkpt lat="43.54557" lon="5.70696">
        <ele>494.77</ele>
        <time>2018-09-30T10:15:15Z</time>
      </trkpt>
      <trkpt lat="43.54541" lon="5.7072">
        <ele>493.06</ele>
        <time>2018-09-30T10:15:19Z</time>
      </trkpt>
      <trkpt lat="43.54529" lon="5.70742">
        <ele>492.9</ele>
        <time>2018-09-30T10:15:22Z</time>
      </trkpt>
      <trkpt lat="43.54514" lon="5.70765">
        <ele>491.29</ele>
        <time>2018-09-30T10:15:26Z</time>
      </trkpt>
      <trkpt lat="43.545" lon="5.70784">
        <ele>490.02</ele>
        <time>2018-09-30T10:15:29Z</time>
      </trkpt>
      <trkpt lat="43.54486" lon="5.70808">
        <ele>489.4</ele>
        <time>2018-09-30T10:15:32Z</time>
      </trkpt>
      <trkpt lat="43.54474" lon="5.7083">
        <ele>490.07</ele>
        <time>2018-09-30T10:15:36Z</time>
      </trkpt>
      <trkpt lat="43.54462" lon="5.70858">
        <ele>488.09</ele>
        <time>2018-09-30T10:15:40Z</time>
      </trkpt>
      <trkpt lat="43.54447" lon="5.70881">
        <ele>484.64</ele>
        <time>2018-09-30T10:15:44Z</time>
      </trkpt>
      <trkpt lat="43.54434" lon="5.70903">
        <ele>482.35</ele>
        <time>2018-09-30T10:15:48Z</time>
      </trkpt>
      <trkpt lat="43.54424" lon="5.70932">
        <ele>481.97</ele>
        <time>2018-09-30T10:15:52Z</time>
      </trkpt>
      <trkpt lat="43.54411" lon="5.7095">
        <ele>483.5</ele>
        <time>2018-09-30T10:15:56Z</time>
      </trkpt>
      <trkpt lat="43.54397" lon="5.70974">
        <ele>484.73</ele>
        <time>2018-09-30T10:16:01Z</time>
      </trkpt>
      <trkpt lat="43.54383" lon="5.70993">
        <ele>485.49</ele>
        <time>2018-09-30T10:16:05Z</time>
      </trkpt>
      <trkpt lat="43.5437" lon="5.7101">
        <ele>485.79</ele>
        <time>2018-09-30T10:16:09Z</time>
      </trkpt>
      <trkpt lat="43.54356" lon="5.71032">
        <ele>485.21</ele>
        <time>2018-09-30T10:16:14Z</time>
      </trkpt>
      <trkpt lat="43.54339" lon="5.7105">
        <ele>483.94</ele>
        <time>2018-09-30T10:16:19Z</time>
      </trkpt>
      <trkpt lat="43.54323" lon="5.71069">
        <ele>482.87</ele>
        <time>2018-09-30T10:16:24Z</time>
      </trkpt>
      <trkpt lat="43.54308" lon="5.71091">
        <ele>484.62</ele>
        <time>2018-09-30T10:16:30Z</time>
      </trkpt>
      <trkpt lat="43.54295" lon="5.71114">
        <ele>484.33</ele>
        <time>2018-09-30T10:16:36Z</time>
      </trkpt>
      <trkpt lat="43.54283" lon="5.71135">
        <ele>485.24</ele>
        <time>2018-09-30T10:16:41Z</time>
      </trkpt>
      <trkpt lat="43.54272" lon="5.71155">
        <ele>486.16</ele>
        <time>2018-09-30T10:16:46Z</time>
      </trkpt>
      <trkpt lat="43.5426" lon="5.71177">
        <ele>487.93</ele>
        <time>2018-09-30T10:16:52Z</time>
      </trkpt>
      <trkpt lat="43.54249" lon="5.71197">
        <ele>488.26</ele>
        <time>2018-09-30T10:16:57Z</time>
      </trkpt>
      <trkpt lat="43.54234" lon="5.71218">
        <ele>488.02</ele>
        <time>2018-09-30T10:17:03Z</time>
      </trkpt>
      <trkpt lat="43.5422" lon="5.71238">
        <ele>486.95</ele>
        <time>2018-09-30T10:17:09Z</time>
      </trkpt>
      <trkpt lat="43.54207" lon="5.7126">
        <ele>489.96</ele>
        <time>2018-09-30T10:17:15Z</time>
      </trkpt>
      <trkpt lat="43.54196" lon="5.71284">
        <ele>493.03</ele>
        <time>2018-09-30T10:17:22Z</time>
      </trkpt>
      <trkpt lat="43.54181" lon="5.71304">
        <ele>493.69</ele>
        <time>2018-09-30T10:17:29Z</time>
      </trkpt>
      <trkpt lat="43.54169" lon="5.71326">
        <ele>497.92</ele>
        <time>2018-09-30T10:17:36Z</time>
      </trkpt>
      <trkpt lat="43.54157" lon="5.71347">
        <ele>496.22</ele>
        <time>2018-09-30T10:17:43Z</time>
      </trkpt>
      <trkpt lat="43.54142" lon="5.71362">
        <ele>494.22</ele>
        <time>2018-09-30T10:17:49Z</time>
      </trkpt>
      <trkpt lat="43.54128" lon="5.71382">
        <ele>499.37</ele>
        <time>2018-09-30T10:17:56Z</time>
      </trkpt>
      <trkpt lat="43.54117" lon="5.71402">
        <ele>499.14</ele>
        <time>2018-09-30T10:18:02Z</time>
      </trkpt>
      <trkpt lat="43.541" lon="5.71416">
        <ele>498.24</ele>
        <time>2018-09-30T10:18:08Z</time>
      </trkpt>
      <trkpt lat="43.54084" lon="5.71432">
        <ele>503.16</ele>
        <time>2018-09-30T10:18:15Z</time>
      </trkpt>
      <trkpt lat="43.54068" lon="5.7145">
        <ele>505.66</ele>
        <time>2018-09-30T10:18:21Z</time>
      </trkpt>
      <trkpt lat="43.54053" lon="5.71468">
        <ele>506.42</ele>
        <time>2018-09-30T10:18:27Z</time>
      </trkpt>
      <trkpt lat="43.54037" lon="5.71486">
        <ele>508.02</ele>
        <time>2018-09-30T10:18:33Z</time>
      </trkpt>
      <trkpt lat="43.54019" lon="5.71504">
        <ele>507.54</ele>
        <time>2018-09-30T10:18:38Z</time>
      </trkpt>
      <trkpt lat="43.54001" lon="5.71515">
        <ele>507.16</ele>
        <time>2018-09-30T10:18:41Z</time>
      </trkpt>
      <trkpt lat="43.53985" lon="5.71531">
        <ele>508.41</ele>
        <time>2018-09-30T10:18:47Z</time>
      </trkpt>
      <trkpt lat="43.53964" lon="5.71538">
        <ele>509.39</ele>
        <time>2018-09-30T10:18:53Z</time>
      </trkpt>
      <trkpt lat="43.53944" lon="5.71539">
        <ele>509.38</ele>
        <time>2018-09-30T10:20:10Z</time>
      </trkpt>
      <trkpt lat="43.53925" lon="5.71536">
        <ele>510.52</ele>
        <time>2018-09-30T10:20:17Z</time>
      </trkpt>
      <trkpt lat="43.53906" lon="5.71534">
        <ele>509.82</ele>
        <time>2018-09-30T10:20:22Z</time>
      </trkpt>
      <trkpt lat="43.53889" lon="5.71541">
        <ele>507.57</ele>
        <time>2018-09-30T10:20:27Z</time>
      </trkpt>
      <trkpt lat="43.5387" lon="5.71529">
        <ele>506.52</ele>
        <time>2018-09-30T10:20:33Z</time>
      </trkpt>
      <trkpt lat="43.53853" lon="5.71516">
        <ele>502.27</ele>
        <time>2018-09-30T10:20:38Z</time>
      </trkpt>
      <trkpt lat="43.53834" lon="5.715">
        <ele>498.55</ele>
        <time>2018-09-30T10:20:44Z</time>
      </trkpt>
      <trkpt lat="43.53816" lon="5.71486">
        <ele>494.24</ele>
        <time>2018-09-30T10:20:50Z</time>
      </trkpt>
      <trkpt lat="43.53799" lon="5.71475">
        <ele>491.93</ele>
        <time>2018-09-30T10:20:55Z</time>
      </trkpt>
      <trkpt lat="43.53781" lon="5.71467">
        <ele>491.27</ele>
        <time>2018-09-30T10:21:00Z</time>
      </trkpt>
      <trkpt lat="43.53763" lon="5.71455">
        <ele>491.58</ele>
        <time>2018-09-30T10:21:05Z</time>
      </trkpt>
      <trkpt lat="43.53748" lon="5.71436">
        <ele>490.3</ele>
        <time>2018-09-30T10:21:15Z</time>
      </trkpt>
      <trkpt lat="43.53734" lon="5.71419">
        <ele>488.58</ele>
        <time>2018-09-30T10:21:19Z</time>
      </trkpt>
      <trkpt lat="43.53719" lon="5.71397">
        <ele>488.28</ele>
        <time>2018-09-30T10:21:24Z</time>
      </trkpt>
      <trkpt lat="43.53705" lon="5.71374">
        <ele>486.73</ele>
        <time>2018-09-30T10:21:28Z</time>
      </trkpt>
      <trkpt lat="43.53694" lon="5.71354">
        <ele>487.57</ele>
        <time>2018-09-30T10:21:32Z</time>
      </trkpt>
      <trkpt lat="43.5368" lon="5.7133">
        <ele>489.24</ele>
        <time>2018-09-30T10:21:37Z</time>
      </trkpt>
      <trkpt lat="43.53666" lon="5.71307">
        <ele>486.54</ele>
        <time>2018-09-30T10:21:42Z</time>
      </trkpt>
      <trkpt lat="43.53652" lon="5.71284">
        <ele>484.73</ele>
        <time>2018-09-30T10:21:47Z</time>
      </trkpt>
      <trkpt lat="43.5364" lon="5.71265">
        <ele>485.31</ele>
        <time>2018-09-30T10:21:51Z</time>
      </trkpt>
      <trkpt lat="43.53626" lon="5.71243">
        <ele>483.39</ele>
        <time>2018-09-30T10:21:55Z</time>
      </trkpt>
      <trkpt lat="43.53612" lon="5.71221">
        <ele>481.42</ele>
        <time>2018-09-30T10:21:59Z</time>
      </trkpt>
      <trkpt lat="43.53597" lon="5.71199">
        <ele>482.95</ele>
        <time>2018-09-30T10:22:03Z</time>
      </trkpt>
      <trkpt lat="43.53581" lon="5.71178">
        <ele>481.84</ele>
        <time>2018-09-30T10:22:07Z</time>
      </trkpt>
      <trkpt lat="43.53568" lon="5.71158">
        <ele>480.42</ele>
        <time>2018-09-30T10:22:11Z</time>
      </trkpt>
      <trkpt lat="43.53555" lon="5.71135">
        <ele>480.24</ele>
        <time>2018-09-30T10:22:15Z</time>
      </trkpt>
      <trkpt lat="43.53547" lon="5.71113">
        <ele>480.38</ele>
        <time>2018-09-30T10:22:18Z</time>
      </trkpt>
      <trkpt lat="43.53539" lon="5.7109">
        <ele>481.49</ele>
        <time>2018-09-30T10:22:21Z</time>
      </trkpt>
      <trkpt lat="43.53531" lon="5.71064">
        <ele>480.24</ele>
        <time>2018-09-30T10:22:24Z</time>
      </trkpt>
      <trkpt lat="43.53524" lon="5.7104">
        <ele>479.45</ele>
        <time>2018-09-30T10:22:27Z</time>
      </trkpt>
      <trkpt lat="43.53515" lon="5.71017">
        <ele>478.61</ele>
        <time>2018-09-30T10:22:30Z</time>
      </trkpt>
      <trkpt lat="43.53505" lon="5.70992">
        <ele>478.15</ele>
        <time>2018-09-30T10:22:33Z</time>
      </trkpt>
      <trkpt lat="43.53494" lon="5.70966">
        <ele>477</ele>
        <time>2018-09-30T10:22:36Z</time>
      </trkpt>
      <trkpt lat="43.53485" lon="5.70942">
        <ele>475.89</ele>
        <time>2018-09-30T10:22:39Z</time>
      </trkpt>
      <trkpt lat="43.53475" lon="5.70913">
        <ele>475.21</ele>
        <time>2018-09-30T10:22:42Z</time>
      </trkpt>
      <trkpt lat="43.53469" lon="5.70888">
        <ele>478.48</ele>
        <time>2018-09-30T10:22:45Z</time>
      </trkpt>
      <trkpt lat="43.53461" lon="5.70862">
        <ele>478.93</ele>
        <time>2018-09-30T10:22:48Z</time>
      </trkpt>
      <trkpt lat="43.53452" lon="5.70838">
        <ele>478.73</ele>
        <time>2018-09-30T10:22:51Z</time>
      </trkpt>
      <trkpt lat="43.53443" lon="5.70814">
        <ele>479.13</ele>
        <time>2018-09-30T10:22:54Z</time>
      </trkpt>
      <trkpt lat="43.53434" lon="5.70791">
        <ele>479.76</ele>
        <time>2018-09-30T10:22:57Z</time>
      </trkpt>
      <trkpt lat="43.53426" lon="5.70767">
        <ele>479.12</ele>
        <time>2018-09-30T10:23:00Z</time>
      </trkpt>
      <trkpt lat="43.53417" lon="5.70743">
        <ele>478.84</ele>
        <time>2018-09-30T10:23:03Z</time>
      </trkpt>
      <trkpt lat="43.53408" lon="5.70718">
        <ele>479</ele>
        <time>2018-09-30T10:23:06Z</time>
      </trkpt>
      <trkpt lat="43.53397" lon="5.70691">
        <ele>478.39</ele>
        <time>2018-09-30T10:23:09Z</time>
      </trkpt>
      <trkpt lat="43.53388" lon="5.70668">
        <ele>477.06</ele>
        <time>2018-09-30T10:23:12Z</time>
      </trkpt>
      <trkpt lat="43.53377" lon="5.70644">
        <ele>476.79</ele>
        <time>2018-09-30T10:23:16Z</time>
      </trkpt>
      <trkpt lat="43.53366" lon="5.70617">
        <ele>475.51</ele>
        <time>2018-09-30T10:23:20Z</time>
      </trkpt>
      <trkpt lat="43.53356" lon="5.70593">
        <ele>474.34</ele>
        <time>2018-09-30T10:23:24Z</time>
      </trkpt>
      <trkpt lat="43.53343" lon="5.70567">
        <ele>473.81</ele>
        <time>2018-09-30T10:23:28Z</time>
      </trkpt>
      <trkpt lat="43.53331" lon="5.7054">
        <ele>472.92</ele>
        <time>2018-09-30T10:23:32Z</time>
      </trkpt>
      <trkpt lat="43.53319" lon="5.70514">
        <ele>473.46</ele>
        <time>2018-09-30T10:23:36Z</time>
      </trkpt>
      <trkpt lat="43.53309" lon="5.70491">
        <ele>473.62</ele>
        <time>2018-09-30T10:23:40Z</time>
      </trkpt>
      <trkpt lat="43.53299" lon="5.70465">
        <ele>473.17</ele>
        <time>2018-09-30T10:23:44Z</time>
      </trkpt>
      <trkpt lat="43.53291" lon="5.70441">
        <ele>473.09</ele>
        <time>2018-09-30T10:23:48Z</time>
      </trkpt>
      <trkpt lat="43.53283" lon="5.70417">
        <ele>472.17</ele>
        <time>2018-09-30T10:23:52Z</time>
      </trkpt>
      <trkpt lat="43.53276" lon="5.70391">
        <ele>471.44</ele>
        <time>2018-09-30T10:23:57Z</time>
      </trkpt>
      <trkpt lat="43.53271" lon="5.70365">
        <ele>470.41</ele>
        <time>2018-09-30T10:24:01Z</time>
      </trkpt>
      <trkpt lat="43.53272" lon="5.70337">
        <ele>469.7</ele>
        <time>2018-09-30T10:24:05Z</time>
      </trkpt>
      <trkpt lat="43.53268" lon="5.7031">
        <ele>469.54</ele>
        <time>2018-09-30T10:24:09Z</time>
      </trkpt>
      <trkpt lat="43.53268" lon="5.7028">
        <ele>466.56</ele>
        <time>2018-09-30T10:24:21Z</time>
      </trkpt>
      <trkpt lat="43.53263" lon="5.70254">
        <ele>463.95</ele>
        <time>2018-09-30T10:24:26Z</time>
      </trkpt>
      <trkpt lat="43.53244" lon="5.70244">
        <ele>463.26</ele>
        <time>2018-09-30T10:24:29Z</time>
      </trkpt>
      <trkpt lat="43.5323" lon="5.70227">
        <ele>461.51</ele>
        <time>2018-09-30T10:24:32Z</time>
      </trkpt>
      <trkpt lat="43.53222" lon="5.70197">
        <ele>460.4</ele>
        <time>2018-09-30T10:24:36Z</time>
      </trkpt>
      <trkpt lat="43.53218" lon="5.7017">
        <ele>458.36</ele>
        <time>2018-09-30T10:24:39Z</time>
      </trkpt>
      <trkpt lat="43.53213" lon="5.70142">
        <ele>456.32</ele>
        <time>2018-09-30T10:24:42Z</time>
      </trkpt>
      <trkpt lat="43.53207" lon="5.70115">
        <ele>455.79</ele>
        <time>2018-09-30T10:24:44Z</time>
      </trkpt>
      <trkpt lat="43.53205" lon="5.70089">
        <ele>455.27</ele>
        <time>2018-09-30T10:24:48Z</time>
      </trkpt>
      <trkpt lat="43.53203" lon="5.70053">
        <ele>452.03</ele>
        <time>2018-09-30T10:24:51Z</time>
      </trkpt>
      <trkpt lat="43.53199" lon="5.70022">
        <ele>449.98</ele>
        <time>2018-09-30T10:24:54Z</time>
      </trkpt>
      <trkpt lat="43.53203" lon="5.69991">
        <ele>447.87</ele>
        <time>2018-09-30T10:24:58Z</time>
      </trkpt>
      <trkpt lat="43.53216" lon="5.69969">
        <ele>447.51</ele>
        <time>2018-09-30T10:25:02Z</time>
      </trkpt>
      <trkpt lat="43.5322" lon="5.6994">
        <ele>446.53</ele>
        <time>2018-09-30T10:25:06Z</time>
      </trkpt>
      <trkpt lat="43.53207" lon="5.69918">
        <ele>444.72</ele>
        <time>2018-09-30T10:25:10Z</time>
      </trkpt>
      <trkpt lat="43.5319" lon="5.69909">
        <ele>443.42</ele>
        <time>2018-09-30T10:25:13Z</time>
      </trkpt>
      <trkpt lat="43.53172" lon="5.69892">
        <ele>441.35</ele>
        <time>2018-09-30T10:25:16Z</time>
      </trkpt>
      <trkpt lat="43.53155" lon="5.69873">
        <ele>440.19</ele>
        <time>2018-09-30T10:25:19Z</time>
      </trkpt>
      <trkpt lat="43.53143" lon="5.69849">
        <ele>439.06</ele>
        <time>2018-09-30T10:25:22Z</time>
      </trkpt>
      <trkpt lat="43.53141" lon="5.69816">
        <ele>437.27</ele>
        <time>2018-09-30T10:25:26Z</time>
      </trkpt>
      <trkpt lat="43.53148" lon="5.6979">
        <ele>436.3</ele>
        <time>2018-09-30T10:25:29Z</time>
      </trkpt>
      <trkpt lat="43.53168" lon="5.69773">
        <ele>436.83</ele>
        <time>2018-09-30T10:25:33Z</time>
      </trkpt>
      <trkpt lat="43.53155" lon="5.69745">
        <ele>434.78</ele>
        <time>2018-09-30T10:25:37Z</time>
      </trkpt>
      <trkpt lat="43.53134" lon="5.69738">
        <ele>431.83</ele>
        <time>2018-09-30T10:25:41Z</time>
      </trkpt>
      <trkpt lat="43.53113" lon="5.69731">
        <ele>428.34</ele>
        <time>2018-09-30T10:25:44Z</time>
      </trkpt>
      <trkpt lat="43.53096" lon="5.69719">
        <ele>427.02</ele>
        <time>2018-09-30T10:25:47Z</time>
      </trkpt>
      <trkpt lat="43.53084" lon="5.69696">
        <ele>425.69</ele>
        <time>2018-09-30T10:25:51Z</time>
      </trkpt>
      <trkpt lat="43.5308" lon="5.69663">
        <ele>421.18</ele>
        <time>2018-09-30T10:25:55Z</time>
      </trkpt>
      <trkpt lat="43.53075" lon="5.69632">
        <ele>417.95</ele>
        <time>2018-09-30T10:25:58Z</time>
      </trkpt>
      <trkpt lat="43.5307" lon="5.69604">
        <ele>417.54</ele>
        <time>2018-09-30T10:26:01Z</time>
      </trkpt>
      <trkpt lat="43.53065" lon="5.69577">
        <ele>418.4</ele>
        <time>2018-09-30T10:26:04Z</time>
      </trkpt>
      <trkpt lat="43.5306" lon="5.69552">
        <ele>418.44</ele>
        <time>2018-09-30T10:26:07Z</time>
      </trkpt>
      <trkpt lat="43.53054" lon="5.69527">
        <ele>416.9</ele>
        <time>2018-09-30T10:26:09Z</time>
      </trkpt>
      <trkpt lat="43.53052" lon="5.69502">
        <ele>414.97</ele>
        <time>2018-09-30T10:26:16Z</time>
      </trkpt>
      <trkpt lat="43.53051" lon="5.69471">
        <ele>410.92</ele>
        <time>2018-09-30T10:26:19Z</time>
      </trkpt>
      <trkpt lat="43.53049" lon="5.69444">
        <ele>410.37</ele>
        <time>2018-09-30T10:26:23Z</time>
      </trkpt>
      <trkpt lat="43.5303" lon="5.69437">
        <ele>409.14</ele>
        <time>2018-09-30T10:26:28Z</time>
      </trkpt>
      <trkpt lat="43.53011" lon="5.69451">
        <ele>405.86</ele>
        <time>2018-09-30T10:26:32Z</time>
      </trkpt>
      <trkpt lat="43.52991" lon="5.69465">
        <ele>404.68</ele>
        <time>2018-09-30T10:26:36Z</time>
      </trkpt>
      <trkpt lat="43.52968" lon="5.69475">
        <ele>405.02</ele>
        <time>2018-09-30T10:26:39Z</time>
      </trkpt>
      <trkpt lat="43.52949" lon="5.69485">
        <ele>404.13</ele>
        <time>2018-09-30T10:26:43Z</time>
      </trkpt>
      <trkpt lat="43.5293" lon="5.69472">
        <ele>402.12</ele>
        <time>2018-09-30T10:26:48Z</time>
      </trkpt>
      <trkpt lat="43.52912" lon="5.69452">
        <ele>400.23</ele>
        <time>2018-09-30T10:26:52Z</time>
      </trkpt>
      <trkpt lat="43.52901" lon="5.69426">
        <ele>397.59</ele>
        <time>2018-09-30T10:26:57Z</time>
      </trkpt>
      <trkpt lat="43.52895" lon="5.694">
        <ele>395.45</ele>
        <time>2018-09-30T10:27:00Z</time>
      </trkpt>
      <trkpt lat="43.52887" lon="5.69374">
        <ele>391.57</ele>
        <time>2018-09-30T10:27:03Z</time>
      </trkpt>
      <trkpt lat="43.52883" lon="5.69344">
        <ele>388.24</ele>
        <time>2018-09-30T10:27:06Z</time>
      </trkpt>
      <trkpt lat="43.52879" lon="5.69315">
        <ele>385.35</ele>
        <time>2018-09-30T10:27:09Z</time>
      </trkpt>
      <trkpt lat="43.5288" lon="5.69288">
        <ele>382.46</ele>
        <time>2018-09-30T10:27:12Z</time>
      </trkpt>
      <trkpt lat="43.52879" lon="5.69262">
        <ele>379.46</ele>
        <time>2018-09-30T10:27:15Z</time>
      </trkpt>
      <trkpt lat="43.5286" lon="5.69246">
        <ele>375.69</ele>
        <time>2018-09-30T10:27:19Z</time>
      </trkpt>
      <trkpt lat="43.52837" lon="5.69244">
        <ele>374.33</ele>
        <time>2018-09-30T10:27:22Z</time>
      </trkpt>
      <trkpt lat="43.52812" lon="5.69245">
        <ele>373.9</ele>
        <time>2018-09-30T10:27:25Z</time>
      </trkpt>
      <trkpt lat="43.52792" lon="5.69233">
        <ele>371.95</ele>
        <time>2018-09-30T10:27:29Z</time>
      </trkpt>
      <trkpt lat="43.5278" lon="5.69213">
        <ele>370.42</ele>
        <time>2018-09-30T10:27:32Z</time>
      </trkpt>
      <trkpt lat="43.52768" lon="5.69184">
        <ele>366.94</ele>
        <time>2018-09-30T10:27:36Z</time>
      </trkpt>
      <trkpt lat="43.5276" lon="5.6916">
        <ele>363.18</ele>
        <time>2018-09-30T10:27:39Z</time>
      </trkpt>
      <trkpt lat="43.5275" lon="5.69135">
        <ele>363.14</ele>
        <time>2018-09-30T10:27:42Z</time>
      </trkpt>
      <trkpt lat="43.52739" lon="5.69111">
        <ele>362.6</ele>
        <time>2018-09-30T10:27:45Z</time>
      </trkpt>
      <trkpt lat="43.52731" lon="5.6909">
        <ele>361.95</ele>
        <time>2018-09-30T10:27:48Z</time>
      </trkpt>
      <trkpt lat="43.52724" lon="5.69066">
        <ele>361.21</ele>
        <time>2018-09-30T10:27:51Z</time>
      </trkpt>
      <trkpt lat="43.52714" lon="5.69038">
        <ele>362.42</ele>
        <time>2018-09-30T10:27:55Z</time>
      </trkpt>
      <trkpt lat="43.52696" lon="5.6902">
        <ele>361.35</ele>
        <time>2018-09-30T10:27:59Z</time>
      </trkpt>
      <trkpt lat="43.52686" lon="5.68993">
        <ele>361.16</ele>
        <time>2018-09-30T10:28:03Z</time>
      </trkpt>
      <trkpt lat="43.52686" lon="5.68966">
        <ele>357.51</ele>
        <time>2018-09-30T10:28:06Z</time>
      </trkpt>
      <trkpt lat="43.52683" lon="5.68938">
        <ele>355.49</ele>
        <time>2018-09-30T10:28:09Z</time>
      </trkpt>
      <trkpt lat="43.52677" lon="5.68904">
        <ele>355.72</ele>
        <time>2018-09-30T10:28:12Z</time>
      </trkpt>
      <trkpt lat="43.52673" lon="5.68875">
        <ele>355.46</ele>
        <time>2018-09-30T10:28:15Z</time>
      </trkpt>
      <trkpt lat="43.52672" lon="5.68847">
        <ele>354.46</ele>
        <time>2018-09-30T10:28:18Z</time>
      </trkpt>
      <trkpt lat="43.52671" lon="5.68821">
        <ele>352.28</ele>
        <time>2018-09-30T10:28:21Z</time>
      </trkpt>
      <trkpt lat="43.52667" lon="5.68789">
        <ele>352.11</ele>
        <time>2018-09-30T10:28:25Z</time>
      </trkpt>
      <trkpt lat="43.52655" lon="5.6876">
        <ele>352.1</ele>
        <time>2018-09-30T10:28:28Z</time>
      </trkpt>
      <trkpt lat="43.52642" lon="5.6873">
        <ele>351.52</ele>
        <time>2018-09-30T10:28:31Z</time>
      </trkpt>
      <trkpt lat="43.52628" lon="5.68704">
        <ele>350.27</ele>
        <time>2018-09-30T10:28:34Z</time>
      </trkpt>
      <trkpt lat="43.52617" lon="5.68677">
        <ele>352.25</ele>
        <time>2018-09-30T10:28:37Z</time>
      </trkpt>
      <trkpt lat="43.52609" lon="5.68651">
        <ele>352.74</ele>
        <time>2018-09-30T10:28:40Z</time>
      </trkpt>
      <trkpt lat="43.52606" lon="5.68625">
        <ele>354.87</ele>
        <time>2018-09-30T10:28:43Z</time>
      </trkpt>
      <trkpt lat="43.52608" lon="5.68599">
        <ele>354.93</ele>
        <time>2018-09-30T10:28:46Z</time>
      </trkpt>
      <trkpt lat="43.52612" lon="5.68567">
        <ele>356.06</ele>
        <time>2018-09-30T10:28:50Z</time>
      </trkpt>
      <trkpt lat="43.52621" lon="5.68539">
        <ele>353.52</ele>
        <time>2018-09-30T10:28:54Z</time>
      </trkpt>
      <trkpt lat="43.52627" lon="5.68515">
        <ele>354.07</ele>
        <time>2018-09-30T10:28:57Z</time>
      </trkpt>
      <trkpt lat="43.52637" lon="5.68487">
        <ele>355.36</ele>
        <time>2018-09-30T10:29:01Z</time>
      </trkpt>
      <trkpt lat="43.52642" lon="5.68463">
        <ele>355.2</ele>
        <time>2018-09-30T10:29:04Z</time>
      </trkpt>
      <trkpt lat="43.52648" lon="5.68433">
        <ele>355.87</ele>
        <time>2018-09-30T10:29:08Z</time>
      </trkpt>
      <trkpt lat="43.52651" lon="5.68407">
        <ele>356.63</ele>
        <time>2018-09-30T10:29:12Z</time>
      </trkpt>
      <trkpt lat="43.5265" lon="5.68379">
        <ele>357.61</ele>
        <time>2018-09-30T10:29:17Z</time>
      </trkpt>
      <trkpt lat="43.52648" lon="5.68352">
        <ele>356.83</ele>
        <time>2018-09-30T10:29:22Z</time>
      </trkpt>
      <trkpt lat="43.52646" lon="5.68325">
        <ele>357.98</ele>
        <time>2018-09-30T10:29:27Z</time>
      </trkpt>
      <trkpt lat="43.52641" lon="5.68297">
        <ele>358.55</ele>
        <time>2018-09-30T10:29:32Z</time>
      </trkpt>
      <trkpt lat="43.52637" lon="5.68268">
        <ele>358.77</ele>
        <time>2018-09-30T10:29:37Z</time>
      </trkpt>
      <trkpt lat="43.52634" lon="5.6824">
        <ele>357.61</ele>
        <time>2018-09-30T10:29:41Z</time>
      </trkpt>
      <trkpt lat="43.52635" lon="5.68214">
        <ele>356.2</ele>
        <time>2018-09-30T10:29:44Z</time>
      </trkpt>
      <trkpt lat="43.52639" lon="5.68185">
        <ele>354.66</ele>
        <time>2018-09-30T10:29:48Z</time>
      </trkpt>
      <trkpt lat="43.5264" lon="5.68159">
        <ele>353.2</ele>
        <time>2018-09-30T10:29:53Z</time>
      </trkpt>
    </trkseg>
  </trk>
</gpx>